﻿<?xml version="1.0" encoding="utf-8"?><gpx creator="Garmin Desktop App" version="1.1" xsi:schemaLocation="http://www.topografix.com/GPX/1/1 http://www.topografix.com/GPX/1/1/gpx.xsd http://www.garmin.com/xmlschemas/WaypointExtension/v1 http://www8.garmin.com/xmlschemas/WaypointExtensionv1.xsd http://www.garmin.com/xmlschemas/TrackPointExtension/v1 http://www.garmin.com/xmlschemas/TrackPointExtensionv1.xsd http://www.garmin.com/xmlschemas/GpxExtensions/v3 http://www8.garmin.com/xmlschemas/GpxExtensionsv3.xsd http://www.garmin.com/xmlschemas/ActivityExtension/v1 http://www8.garmin.com/xmlschemas/ActivityExtensionv1.xsd http://www.garmin.com/xmlschemas/AdventuresExtensions/v1 http://www8.garmin.com/xmlschemas/AdventuresExtensionv1.xsd http://www.garmin.com/xmlschemas/PressureExtension/v1 http://www.garmin.com/xmlschemas/PressureExtensionv1.xsd http://www.garmin.com/xmlschemas/TripExtensions/v1 http://www.garmin.com/xmlschemas/TripExtensionsv1.xsd http://www.garmin.com/xmlschemas/TripMetaDataExtensions/v1 http://www.garmin.com/xmlschemas/TripMetaDataExtensionsv1.xsd http://www.garmin.com/xmlschemas/ViaPointTransportationModeExtensions/v1 http://www.garmin.com/xmlschemas/ViaPointTransportationModeExtensionsv1.xsd http://www.garmin.com/xmlschemas/CreationTimeExtension/v1 http://www.garmin.com/xmlschemas/CreationTimeExtensionsv1.xsd http://www.garmin.com/xmlschemas/AccelerationExtension/v1 http://www.garmin.com/xmlschemas/AccelerationExtensionv1.xsd http://www.garmin.com/xmlschemas/PowerExtension/v1 http://www.garmin.com/xmlschemas/PowerExtensionv1.xsd http://www.garmin.com/xmlschemas/VideoExtension/v1 http://www.garmin.com/xmlschemas/VideoExtensionv1.xsd" xmlns="http://www.topografix.com/GPX/1/1" xmlns:xsi="http://www.w3.org/2001/XMLSchema-instance" xmlns:wptx1="http://www.garmin.com/xmlschemas/WaypointExtension/v1" xmlns:gpxtrx="http://www.garmin.com/xmlschemas/GpxExtensions/v3" xmlns:gpxtpx="http://www.garmin.com/xmlschemas/TrackPointExtension/v1" xmlns:gpxx="http://www.garmin.com/xmlschemas/GpxExtensions/v3" xmlns:trp="http://www.garmin.com/xmlschemas/TripExtensions/v1" xmlns:adv="http://www.garmin.com/xmlschemas/AdventuresExtensions/v1" xmlns:prs="http://www.garmin.com/xmlschemas/PressureExtension/v1" xmlns:tmd="http://www.garmin.com/xmlschemas/TripMetaDataExtensions/v1" xmlns:vptm="http://www.garmin.com/xmlschemas/ViaPointTransportationModeExtensions/v1" xmlns:ctx="http://www.garmin.com/xmlschemas/CreationTimeExtension/v1" xmlns:gpxacc="http://www.garmin.com/xmlschemas/AccelerationExtension/v1" xmlns:gpxpx="http://www.garmin.com/xmlschemas/PowerExtension/v1" xmlns:vidx1="http://www.garmin.com/xmlschemas/VideoExtension/v1">

  <metadata>
    <link href="http://www.garmin.com">
      <text>Garmin International</text>
    </link>
    <time>2025-01-06T08:08:54Z</time>
    <bounds maxlat="45.883569605648518" maxlon="8.162065884098411" minlat="45.870455699041486" minlon="8.11613330617547" />
  </metadata>

  <trk>
    <name>AlpeCavaione2025-01-05</name>
    <extensions>
      <gpxx:TrackExtension>
        <gpxx:DisplayColor>Red</gpxx:DisplayColor>
      </gpxx:TrackExtension>
    </extensions>
    <trkseg>
      <trkpt lat="45.88282847777009" lon="8.161673694849014">
        <ele>1013.86</ele>
        <time>2025-01-05T08:04:24Z</time>
      </trkpt>
      <trkpt lat="45.882769888266921" lon="8.161554001271725">
        <ele>1012.9</ele>
        <time>2025-01-05T08:04:33Z</time>
      </trkpt>
      <trkpt lat="45.882709790021181" lon="8.161433637142181">
        <ele>1013.36</ele>
        <time>2025-01-05T08:04:42Z</time>
      </trkpt>
      <trkpt lat="45.882655810564756" lon="8.161326516419649">
        <ele>1013.35</ele>
        <time>2025-01-05T08:04:50Z</time>
      </trkpt>
      <trkpt lat="45.882578948512673" lon="8.16126985475421">
        <ele>1014.39</ele>
        <time>2025-01-05T08:04:58Z</time>
      </trkpt>
      <trkpt lat="45.882565621286631" lon="8.161100707948208">
        <ele>1015.54</ele>
        <time>2025-01-05T08:05:07Z</time>
      </trkpt>
      <trkpt lat="45.882505271583796" lon="8.161003729328513">
        <ele>1017.17</ele>
        <time>2025-01-05T08:05:16Z</time>
      </trkpt>
      <trkpt lat="45.88244735263288" lon="8.160896440967917">
        <ele>1018.4</ele>
        <time>2025-01-05T08:05:25Z</time>
      </trkpt>
      <trkpt lat="45.882436372339725" lon="8.160759396851063">
        <ele>1019.11</ele>
        <time>2025-01-05T08:05:34Z</time>
      </trkpt>
      <trkpt lat="45.882426649332047" lon="8.160615731030703">
        <ele>1019.74</ele>
        <time>2025-01-05T08:05:45Z</time>
      </trkpt>
      <trkpt lat="45.882430421188474" lon="8.160476591438055">
        <ele>1020.41</ele>
        <time>2025-01-05T08:05:54Z</time>
      </trkpt>
      <trkpt lat="45.882394211366773" lon="8.160357484593988">
        <ele>1021.11</ele>
        <time>2025-01-05T08:06:03Z</time>
      </trkpt>
      <trkpt lat="45.882347859442234" lon="8.160218596458435">
        <ele>1021.9299999999999</ele>
        <time>2025-01-05T08:06:12Z</time>
      </trkpt>
      <trkpt lat="45.882296310737729" lon="8.160098483785987">
        <ele>1022.83</ele>
        <time>2025-01-05T08:06:21Z</time>
      </trkpt>
      <trkpt lat="45.882232692092657" lon="8.160002343356609">
        <ele>1024.02</ele>
        <time>2025-01-05T08:06:31Z</time>
      </trkpt>
      <trkpt lat="45.88214635848999" lon="8.159948699176312">
        <ele>1025.51</ele>
        <time>2025-01-05T08:06:40Z</time>
      </trkpt>
      <trkpt lat="45.882046278566122" lon="8.159911902621388">
        <ele>1027.0699999999999</ele>
        <time>2025-01-05T08:06:50Z</time>
      </trkpt>
      <trkpt lat="45.88196505792439" lon="8.15986018627882">
        <ele>1028.74</ele>
        <time>2025-01-05T08:06:59Z</time>
      </trkpt>
      <trkpt lat="45.881886100396514" lon="8.159805368632078">
        <ele>1029.95</ele>
        <time>2025-01-05T08:07:08Z</time>
      </trkpt>
      <trkpt lat="45.881841173395514" lon="8.159715263172984">
        <ele>1030.3299999999999</ele>
        <time>2025-01-05T08:07:15Z</time>
      </trkpt>
      <trkpt lat="45.881780907511711" lon="8.159634796902537">
        <ele>1030</ele>
        <time>2025-01-05T08:07:23Z</time>
      </trkpt>
      <trkpt lat="45.881748218089342" lon="8.159497585147619">
        <ele>1029.54</ele>
        <time>2025-01-05T08:07:32Z</time>
      </trkpt>
      <trkpt lat="45.881769172847271" lon="8.159357355907559">
        <ele>1030.1700000000001</ele>
        <time>2025-01-05T08:07:40Z</time>
      </trkpt>
      <trkpt lat="45.881811752915382" lon="8.159219305962324">
        <ele>1030.6500000000001</ele>
        <time>2025-01-05T08:07:52Z</time>
      </trkpt>
      <trkpt lat="45.881771519780159" lon="8.159090057015419">
        <ele>1031.3099999999999</ele>
        <time>2025-01-05T08:08:02Z</time>
      </trkpt>
      <trkpt lat="45.881718127056956" lon="8.158960724249482">
        <ele>1031.95</ele>
        <time>2025-01-05T08:08:13Z</time>
      </trkpt>
      <trkpt lat="45.88165283203125" lon="8.158852765336633">
        <ele>1033.0599999999999</ele>
        <time>2025-01-05T08:08:23Z</time>
      </trkpt>
      <trkpt lat="45.881591141223907" lon="8.158781854435802">
        <ele>1033.49</ele>
        <time>2025-01-05T08:08:31Z</time>
      </trkpt>
      <trkpt lat="45.881519643589854" lon="8.158697448670864">
        <ele>1034.78</ele>
        <time>2025-01-05T08:08:41Z</time>
      </trkpt>
      <trkpt lat="45.881443452090025" lon="8.158614384010434">
        <ele>1036</ele>
        <time>2025-01-05T08:08:51Z</time>
      </trkpt>
      <trkpt lat="45.881385114043951" lon="8.158508772030473">
        <ele>1035.9100000000001</ele>
        <time>2025-01-05T08:08:59Z</time>
      </trkpt>
      <trkpt lat="45.88135477155447" lon="8.158384636044502">
        <ele>1036</ele>
        <time>2025-01-05T08:09:07Z</time>
      </trkpt>
      <trkpt lat="45.881346389651299" lon="8.158250190317631">
        <ele>1036.22</ele>
        <time>2025-01-05T08:09:16Z</time>
      </trkpt>
      <trkpt lat="45.881311353296041" lon="8.158141812309623">
        <ele>1036.3699999999999</ele>
        <time>2025-01-05T08:09:25Z</time>
      </trkpt>
      <trkpt lat="45.881310347467661" lon="8.15801708959043">
        <ele>1036.3800000000001</ele>
        <time>2025-01-05T08:09:33Z</time>
      </trkpt>
      <trkpt lat="45.881267515942454" lon="8.157894210889936">
        <ele>1036.8399999999999</ele>
        <time>2025-01-05T08:09:45Z</time>
      </trkpt>
      <trkpt lat="45.881213368847966" lon="8.15773805603385">
        <ele>1037.1199999999999</ele>
        <time>2025-01-05T08:09:54Z</time>
      </trkpt>
      <trkpt lat="45.881128627806902" lon="8.157677035778761">
        <ele>1035.8</ele>
        <time>2025-01-05T08:10:03Z</time>
      </trkpt>
      <trkpt lat="45.881052855402231" lon="8.157604867592454">
        <ele>1034.71</ele>
        <time>2025-01-05T08:10:15Z</time>
      </trkpt>
      <trkpt lat="45.881005581468344" lon="8.157515097409487">
        <ele>1034.48</ele>
        <time>2025-01-05T08:10:24Z</time>
      </trkpt>
      <trkpt lat="45.880949255079031" lon="8.157414933666587">
        <ele>1034.01</ele>
        <time>2025-01-05T08:10:34Z</time>
      </trkpt>
      <trkpt lat="45.880895107984543" lon="8.15731099806726">
        <ele>1033.7</ele>
        <time>2025-01-05T08:10:43Z</time>
      </trkpt>
      <trkpt lat="45.880869962275028" lon="8.157190466299653">
        <ele>1032.9100000000001</ele>
        <time>2025-01-05T08:10:50Z</time>
      </trkpt>
      <trkpt lat="45.880821766331792" lon="8.157073371112347">
        <ele>1032.6900000000001</ele>
        <time>2025-01-05T08:10:59Z</time>
      </trkpt>
      <trkpt lat="45.8807781804353" lon="8.156954934820533">
        <ele>1032.02</ele>
        <time>2025-01-05T08:11:07Z</time>
      </trkpt>
      <trkpt lat="45.880719842389226" lon="8.156865583732724">
        <ele>1031.1199999999999</ele>
        <time>2025-01-05T08:11:15Z</time>
      </trkpt>
      <trkpt lat="45.880678687244654" lon="8.156758630648255">
        <ele>1030.76</ele>
        <time>2025-01-05T08:11:22Z</time>
      </trkpt>
      <trkpt lat="45.880628898739815" lon="8.156649665907025">
        <ele>1030.55</ele>
        <time>2025-01-05T08:11:30Z</time>
      </trkpt>
      <trkpt lat="45.880592605099082" lon="8.156537180766463">
        <ele>1030.01</ele>
        <time>2025-01-05T08:11:37Z</time>
      </trkpt>
      <trkpt lat="45.880541056394577" lon="8.15644565038383">
        <ele>1029.0899999999999</ele>
        <time>2025-01-05T08:11:44Z</time>
      </trkpt>
      <trkpt lat="45.880467714741826" lon="8.156360322609544">
        <ele>1028.55</ele>
        <time>2025-01-05T08:11:52Z</time>
      </trkpt>
      <trkpt lat="45.88041465729475" lon="8.156253034248948">
        <ele>1027.95</ele>
        <time>2025-01-05T08:12:00Z</time>
      </trkpt>
      <trkpt lat="45.880398061126471" lon="8.156128814443946">
        <ele>1027.5999999999999</ele>
        <time>2025-01-05T08:12:11Z</time>
      </trkpt>
      <trkpt lat="45.880422536283731" lon="8.156008031219244">
        <ele>1027.3800000000001</ele>
        <time>2025-01-05T08:12:19Z</time>
      </trkpt>
      <trkpt lat="45.880431924015284" lon="8.155873753130436">
        <ele>1026.72</ele>
        <time>2025-01-05T08:12:28Z</time>
      </trkpt>
      <trkpt lat="45.880356654524803" lon="8.15579529851675">
        <ele>1026.01</ele>
        <time>2025-01-05T08:12:37Z</time>
      </trkpt>
      <trkpt lat="45.880264369770885" lon="8.155768224969506">
        <ele>1025.5899999999999</ele>
        <time>2025-01-05T08:12:45Z</time>
      </trkpt>
      <trkpt lat="45.880169905722141" lon="8.155751209706068">
        <ele>1025.2</ele>
        <time>2025-01-05T08:12:54Z</time>
      </trkpt>
      <trkpt lat="45.880099833011627" lon="8.155700415372849">
        <ele>1025.29</ele>
        <time>2025-01-05T08:13:02Z</time>
      </trkpt>
      <trkpt lat="45.880047278478742" lon="8.155601006001234">
        <ele>1025.26</ele>
        <time>2025-01-05T08:13:10Z</time>
      </trkpt>
      <trkpt lat="45.879983576014638" lon="8.155512325465679">
        <ele>1025.29</ele>
        <time>2025-01-05T08:13:17Z</time>
      </trkpt>
      <trkpt lat="45.87991040199995" lon="8.155418699607253">
        <ele>1025.54</ele>
        <time>2025-01-05T08:13:26Z</time>
      </trkpt>
      <trkpt lat="45.879856003448367" lon="8.155318787321448">
        <ele>1025.98</ele>
        <time>2025-01-05T08:13:34Z</time>
      </trkpt>
      <trkpt lat="45.879800096154213" lon="8.155202362686396">
        <ele>1026.78</ele>
        <time>2025-01-05T08:13:43Z</time>
      </trkpt>
      <trkpt lat="45.8797368966043" lon="8.155111921951175">
        <ele>1026.74</ele>
        <time>2025-01-05T08:13:52Z</time>
      </trkpt>
      <trkpt lat="45.879680402576923" lon="8.155011758208275">
        <ele>1025.02</ele>
        <time>2025-01-05T08:14:01Z</time>
      </trkpt>
      <trkpt lat="45.87964796461165" lon="8.154891394078732">
        <ele>1024.05</ele>
        <time>2025-01-05T08:14:10Z</time>
      </trkpt>
      <trkpt lat="45.879661878570914" lon="8.15475887618959">
        <ele>1024.47</ele>
        <time>2025-01-05T08:14:19Z</time>
      </trkpt>
      <trkpt lat="45.879684677347541" lon="8.154608756303787">
        <ele>1025.8199999999999</ele>
        <time>2025-01-05T08:14:32Z</time>
      </trkpt>
      <trkpt lat="45.879683000966907" lon="8.154422594234347">
        <ele>1026.4400000000001</ele>
        <time>2025-01-05T08:14:42Z</time>
      </trkpt>
      <trkpt lat="45.879676882177591" lon="8.154255039989948">
        <ele>1026.5699999999999</ele>
        <time>2025-01-05T08:14:53Z</time>
      </trkpt>
      <trkpt lat="45.87963136844337" lon="8.154122354462743">
        <ele>1025.53</ele>
        <time>2025-01-05T08:15:03Z</time>
      </trkpt>
      <trkpt lat="45.879609826952219" lon="8.153986316174269">
        <ele>1024.55</ele>
        <time>2025-01-05T08:15:13Z</time>
      </trkpt>
      <trkpt lat="45.879592476412654" lon="8.153855558484793">
        <ele>1024.1099999999999</ele>
        <time>2025-01-05T08:15:26Z</time>
      </trkpt>
      <trkpt lat="45.879599936306477" lon="8.1536980625242">
        <ele>1023.67</ele>
        <time>2025-01-05T08:15:36Z</time>
      </trkpt>
      <trkpt lat="45.879550399258733" lon="8.153569987043738">
        <ele>1022.76</ele>
        <time>2025-01-05T08:15:46Z</time>
      </trkpt>
      <trkpt lat="45.879515195265412" lon="8.153438894078136">
        <ele>1023.6</ele>
        <time>2025-01-05T08:15:55Z</time>
      </trkpt>
      <trkpt lat="45.87949356995523" lon="8.153280476108193">
        <ele>1024.6900000000001</ele>
        <time>2025-01-05T08:16:06Z</time>
      </trkpt>
      <trkpt lat="45.879475716501474" lon="8.153114849701524">
        <ele>1025.1600000000001</ele>
        <time>2025-01-05T08:16:15Z</time>
      </trkpt>
      <trkpt lat="45.879431627690792" lon="8.152982918545604">
        <ele>1025.51</ele>
        <time>2025-01-05T08:16:23Z</time>
      </trkpt>
      <trkpt lat="45.879420647397637" lon="8.152863057330251">
        <ele>1025.8399999999999</ele>
        <time>2025-01-05T08:16:32Z</time>
      </trkpt>
      <trkpt lat="45.879429699853063" lon="8.152730539441109">
        <ele>1026.1400000000001</ele>
        <time>2025-01-05T08:16:39Z</time>
      </trkpt>
      <trkpt lat="45.879449900239706" lon="8.152622580528259">
        <ele>1026.8599999999999</ele>
        <time>2025-01-05T08:16:46Z</time>
      </trkpt>
      <trkpt lat="45.87946180254221" lon="8.152513699606061">
        <ele>1027.3599999999999</ele>
        <time>2025-01-05T08:16:53Z</time>
      </trkpt>
      <trkpt lat="45.87946523912251" lon="8.152412110939622">
        <ele>1027.72</ele>
        <time>2025-01-05T08:17:00Z</time>
      </trkpt>
      <trkpt lat="45.879475716501474" lon="8.152308091521263">
        <ele>1028.1800000000001</ele>
        <time>2025-01-05T08:17:07Z</time>
      </trkpt>
      <trkpt lat="45.879507903009653" lon="8.152220165356994">
        <ele>1029.1099999999999</ele>
        <time>2025-01-05T08:17:14Z</time>
      </trkpt>
      <trkpt lat="45.879548471421003" lon="8.152097202837467">
        <ele>1030</ele>
        <time>2025-01-05T08:17:21Z</time>
      </trkpt>
      <trkpt lat="45.879563726484776" lon="8.152008354663849">
        <ele>1030.47</ele>
        <time>2025-01-05T08:17:31Z</time>
      </trkpt>
      <trkpt lat="45.879573784768581" lon="8.151942724362016">
        <ele>1030.52</ele>
        <time>2025-01-05T08:17:36Z</time>
      </trkpt>
      <trkpt lat="45.879638073965907" lon="8.151835100725293">
        <ele>1031.3</ele>
        <time>2025-01-05T08:17:46Z</time>
      </trkpt>
      <trkpt lat="45.879730274900794" lon="8.151762178167701">
        <ele>1031.99</ele>
        <time>2025-01-05T08:17:57Z</time>
      </trkpt>
      <trkpt lat="45.879819542169571" lon="8.151678023859859">
        <ele>1032.95</ele>
        <time>2025-01-05T08:18:09Z</time>
      </trkpt>
      <trkpt lat="45.879896907135844" lon="8.151586325839162">
        <ele>1033.49</ele>
        <time>2025-01-05T08:18:22Z</time>
      </trkpt>
      <trkpt lat="45.879995478317142" lon="8.151493454352021">
        <ele>1034.04</ele>
        <time>2025-01-05T08:18:33Z</time>
      </trkpt>
      <trkpt lat="45.88001249358058" lon="8.151346184313297">
        <ele>1034.1800000000001</ele>
        <time>2025-01-05T08:18:45Z</time>
      </trkpt>
      <trkpt lat="45.880035376176238" lon="8.151225820183754">
        <ele>1034.6600000000001</ele>
        <time>2025-01-05T08:18:56Z</time>
      </trkpt>
      <trkpt lat="45.880041914060712" lon="8.15110101364553">
        <ele>1035.01</ele>
        <time>2025-01-05T08:19:07Z</time>
      </trkpt>
      <trkpt lat="45.87996069341898" lon="8.151008896529675">
        <ele>1035.79</ele>
        <time>2025-01-05T08:19:17Z</time>
      </trkpt>
      <trkpt lat="45.879929512739182" lon="8.150895657017827">
        <ele>1035.51</ele>
        <time>2025-01-05T08:19:27Z</time>
      </trkpt>
      <trkpt lat="45.879978965967894" lon="8.150776131078601">
        <ele>1034.8800000000001</ele>
        <time>2025-01-05T08:19:37Z</time>
      </trkpt>
      <trkpt lat="45.879992796108127" lon="8.150630872696638">
        <ele>1034.5899999999999</ele>
        <time>2025-01-05T08:19:46Z</time>
      </trkpt>
      <trkpt lat="45.879946779459715" lon="8.15049558877945">
        <ele>1033.8599999999999</ele>
        <time>2025-01-05T08:19:54Z</time>
      </trkpt>
      <trkpt lat="45.879934374243021" lon="8.150372542440891">
        <ele>1033.1700000000001</ele>
        <time>2025-01-05T08:20:03Z</time>
      </trkpt>
      <trkpt lat="45.880027245730162" lon="8.150299955159426">
        <ele>1032.9100000000001</ele>
        <time>2025-01-05T08:20:15Z</time>
      </trkpt>
      <trkpt lat="45.880034454166889" lon="8.15013743005693">
        <ele>1032.9100000000001</ele>
        <time>2025-01-05T08:20:24Z</time>
      </trkpt>
      <trkpt lat="45.879951724782586" lon="8.150027627125382">
        <ele>1031.6700000000001</ele>
        <time>2025-01-05T08:20:35Z</time>
      </trkpt>
      <trkpt lat="45.879963207989931" lon="8.149893265217543">
        <ele>1030.6900000000001</ele>
        <time>2025-01-05T08:20:43Z</time>
      </trkpt>
      <trkpt lat="45.87989816442132" lon="8.149758400395513">
        <ele>1030.25</ele>
        <time>2025-01-05T08:20:53Z</time>
      </trkpt>
      <trkpt lat="45.879818284884095" lon="8.149637533351779">
        <ele>1030.1099999999999</ele>
        <time>2025-01-05T08:21:02Z</time>
      </trkpt>
      <trkpt lat="45.879718540236354" lon="8.149546757340431">
        <ele>1029.6800000000001</ele>
        <time>2025-01-05T08:21:14Z</time>
      </trkpt>
      <trkpt lat="45.879615275189281" lon="8.149476014077663">
        <ele>1029.1099999999999</ele>
        <time>2025-01-05T08:21:26Z</time>
      </trkpt>
      <trkpt lat="45.879523241892457" lon="8.149350201711059">
        <ele>1028.1099999999999</ele>
        <time>2025-01-05T08:21:38Z</time>
      </trkpt>
      <trkpt lat="45.879421820864081" lon="8.149232100695372">
        <ele>1026.6600000000001</ele>
        <time>2025-01-05T08:21:49Z</time>
      </trkpt>
      <trkpt lat="45.879368344321847" lon="8.149093464016914">
        <ele>1025.1300000000001</ele>
        <time>2025-01-05T08:21:59Z</time>
      </trkpt>
      <trkpt lat="45.879308246076107" lon="8.148960778489709">
        <ele>1024.05</ele>
        <time>2025-01-05T08:22:09Z</time>
      </trkpt>
      <trkpt lat="45.879273544996977" lon="8.148825326934457">
        <ele>1022.67</ele>
        <time>2025-01-05T08:22:21Z</time>
      </trkpt>
      <trkpt lat="45.879290979355574" lon="8.148683924227953">
        <ele>1022.13</ele>
        <time>2025-01-05T08:22:31Z</time>
      </trkpt>
      <trkpt lat="45.879342863336205" lon="8.148580742999911">
        <ele>1020.41</ele>
        <time>2025-01-05T08:22:43Z</time>
      </trkpt>
      <trkpt lat="45.879295840859413" lon="8.148443447425962">
        <ele>1019.3099999999999</ele>
        <time>2025-01-05T08:23:00Z</time>
      </trkpt>
      <trkpt lat="45.879183523356915" lon="8.148436825722456">
        <ele>1020.77</ele>
        <time>2025-01-05T08:23:13Z</time>
      </trkpt>
      <trkpt lat="45.879080928862095" lon="8.148519890382886">
        <ele>1020.92</ele>
        <time>2025-01-05T08:23:23Z</time>
      </trkpt>
      <trkpt lat="45.879004569724202" lon="8.14864712767303">
        <ele>1020.8200000000001</ele>
        <time>2025-01-05T08:23:34Z</time>
      </trkpt>
      <trkpt lat="45.878914296627045" lon="8.148770593106747">
        <ele>1021.8099999999999</ele>
        <time>2025-01-05T08:23:47Z</time>
      </trkpt>
      <trkpt lat="45.878818826749921" lon="8.14885675907135">
        <ele>1022.79</ele>
        <time>2025-01-05T08:23:58Z</time>
      </trkpt>
      <trkpt lat="45.878732409328222" lon="8.148868912830949">
        <ele>1022.75</ele>
        <time>2025-01-05T08:24:08Z</time>
      </trkpt>
      <trkpt lat="45.878656804561615" lon="8.148790039122105">
        <ele>1023.53</ele>
        <time>2025-01-05T08:24:18Z</time>
      </trkpt>
      <trkpt lat="45.878550186753273" lon="8.148716110736132">
        <ele>1023.84</ele>
        <time>2025-01-05T08:24:31Z</time>
      </trkpt>
      <trkpt lat="45.878439545631409" lon="8.148732706904411">
        <ele>1024.6800000000001</ele>
        <time>2025-01-05T08:24:43Z</time>
      </trkpt>
      <trkpt lat="45.878337202593684" lon="8.148727677762508">
        <ele>1025.1600000000001</ele>
        <time>2025-01-05T08:24:54Z</time>
      </trkpt>
      <trkpt lat="45.878232764080167" lon="8.148710578680039">
        <ele>1026.0899999999999</ele>
        <time>2025-01-05T08:25:07Z</time>
      </trkpt>
      <trkpt lat="45.878118183463812" lon="8.148706974461675">
        <ele>1026.24</ele>
        <time>2025-01-05T08:25:18Z</time>
      </trkpt>
      <trkpt lat="45.878006620332599" lon="8.148699598386884">
        <ele>1026.8399999999999</ele>
        <time>2025-01-05T08:25:29Z</time>
      </trkpt>
      <trkpt lat="45.877915173768997" lon="8.148681409657002">
        <ele>1027.05</ele>
        <time>2025-01-05T08:25:38Z</time>
      </trkpt>
      <trkpt lat="45.877822050824761" lon="8.148661712184548">
        <ele>1027.6700000000001</ele>
        <time>2025-01-05T08:25:49Z</time>
      </trkpt>
      <trkpt lat="45.877712331712246" lon="8.148620640859008">
        <ele>1028.8099999999999</ele>
        <time>2025-01-05T08:26:02Z</time>
      </trkpt>
      <trkpt lat="45.877615688368678" lon="8.148615946993232">
        <ele>1029.22</ele>
        <time>2025-01-05T08:26:13Z</time>
      </trkpt>
      <trkpt lat="45.877510076388717" lon="8.148605804890394">
        <ele>1029.8399999999999</ele>
        <time>2025-01-05T08:26:25Z</time>
      </trkpt>
      <trkpt lat="45.877397088333964" lon="8.148572109639645">
        <ele>1030.3099999999999</ele>
        <time>2025-01-05T08:26:39Z</time>
      </trkpt>
      <trkpt lat="45.877296337857842" lon="8.148524919524789">
        <ele>1030.78</ele>
        <time>2025-01-05T08:26:51Z</time>
      </trkpt>
      <trkpt lat="45.877191815525293" lon="8.148456690832973">
        <ele>1031.5699999999999</ele>
        <time>2025-01-05T08:27:06Z</time>
      </trkpt>
      <trkpt lat="45.877083605155349" lon="8.148364657536149">
        <ele>1031.95</ele>
        <time>2025-01-05T08:27:18Z</time>
      </trkpt>
      <trkpt lat="45.876955781131983" lon="8.148331213742495">
        <ele>1032.1600000000001</ele>
        <time>2025-01-05T08:27:31Z</time>
      </trkpt>
      <trkpt lat="45.876828376203775" lon="8.148341104388237">
        <ele>1032.28</ele>
        <time>2025-01-05T08:27:42Z</time>
      </trkpt>
      <trkpt lat="45.876733828336" lon="8.148324256762862">
        <ele>1032.9100000000001</ele>
        <time>2025-01-05T08:27:53Z</time>
      </trkpt>
      <trkpt lat="45.876603489741683" lon="8.148298943415284">
        <ele>1032.0799999999999</ele>
        <time>2025-01-05T08:28:03Z</time>
      </trkpt>
      <trkpt lat="45.876513132825494" lon="8.148326016962528">
        <ele>1032.3699999999999</ele>
        <time>2025-01-05T08:28:12Z</time>
      </trkpt>
      <trkpt lat="45.876433672383428" lon="8.148307744413614">
        <ele>1033.0699999999999</ele>
        <time>2025-01-05T08:28:23Z</time>
      </trkpt>
      <trkpt lat="45.876314984634519" lon="8.148287711665034">
        <ele>1033.28</ele>
        <time>2025-01-05T08:28:36Z</time>
      </trkpt>
      <trkpt lat="45.876205684617162" lon="8.148252759128809">
        <ele>1033.3699999999999</ele>
        <time>2025-01-05T08:28:47Z</time>
      </trkpt>
      <trkpt lat="45.876077441498637" lon="8.148225601762533">
        <ele>1033.5599999999999</ele>
        <time>2025-01-05T08:28:59Z</time>
      </trkpt>
      <trkpt lat="45.875952048227191" lon="8.148230295628309">
        <ele>1034.2</ele>
        <time>2025-01-05T08:29:09Z</time>
      </trkpt>
      <trkpt lat="45.875849705189466" lon="8.148204311728478">
        <ele>1034.47</ele>
        <time>2025-01-05T08:29:19Z</time>
      </trkpt>
      <trkpt lat="45.875737722963095" lon="8.148188134655356">
        <ele>1035.3499999999999</ele>
        <time>2025-01-05T08:29:31Z</time>
      </trkpt>
      <trkpt lat="45.875622471794486" lon="8.148201545700431">
        <ele>1035.76</ele>
        <time>2025-01-05T08:29:41Z</time>
      </trkpt>
      <trkpt lat="45.875532785430551" lon="8.148199617862701">
        <ele>1036.1700000000001</ele>
        <time>2025-01-05T08:29:50Z</time>
      </trkpt>
      <trkpt lat="45.875443015247583" lon="8.148137759417296">
        <ele>1035.6500000000001</ele>
        <time>2025-01-05T08:30:00Z</time>
      </trkpt>
      <trkpt lat="45.875320890918374" lon="8.148109428584576">
        <ele>1035.8</ele>
        <time>2025-01-05T08:30:11Z</time>
      </trkpt>
      <trkpt lat="45.875199101865292" lon="8.148099118843675">
        <ele>1035.77</ele>
        <time>2025-01-05T08:30:21Z</time>
      </trkpt>
      <trkpt lat="45.875082593411207" lon="8.148095095530152">
        <ele>1036.1199999999999</ele>
        <time>2025-01-05T08:30:33Z</time>
      </trkpt>
      <trkpt lat="45.874999947845936" lon="8.148038852959871">
        <ele>1036.3599999999999</ele>
        <time>2025-01-05T08:30:43Z</time>
      </trkpt>
      <trkpt lat="45.874937837943435" lon="8.14793667756021">
        <ele>1035.71</ele>
        <time>2025-01-05T08:30:55Z</time>
      </trkpt>
      <trkpt lat="45.874966001138091" lon="8.147776331752539">
        <ele>1035.3499999999999</ele>
        <time>2025-01-05T08:31:07Z</time>
      </trkpt>
      <trkpt lat="45.875008413568139" lon="8.147643730044365">
        <ele>1035.3900000000001</ele>
        <time>2025-01-05T08:31:17Z</time>
      </trkpt>
      <trkpt lat="45.875041438266635" lon="8.147512637078762">
        <ele>1035.28</ele>
        <time>2025-01-05T08:31:27Z</time>
      </trkpt>
      <trkpt lat="45.875025596469641" lon="8.147384142503142">
        <ele>1034.8800000000001</ele>
        <time>2025-01-05T08:31:46Z</time>
      </trkpt>
      <trkpt lat="45.874976729974151" lon="8.147276937961578">
        <ele>1034.4000000000001</ele>
        <time>2025-01-05T08:32:00Z</time>
      </trkpt>
      <trkpt lat="45.874974634498358" lon="8.147279117256403">
        <ele>1034.5699999999999</ele>
        <time>2025-01-05T08:32:34Z</time>
      </trkpt>
      <trkpt lat="45.875032134354115" lon="8.147270986810327">
        <ele>1034.54</ele>
        <time>2025-01-05T08:33:03Z</time>
      </trkpt>
      <trkpt lat="45.874999361112714" lon="8.147231424227357">
        <ele>1033.9300000000001</ele>
        <time>2025-01-05T08:33:54Z</time>
      </trkpt>
      <trkpt lat="45.874914284795523" lon="8.147149616852403">
        <ele>1035.1900000000001</ele>
        <time>2025-01-05T08:34:12Z</time>
      </trkpt>
      <trkpt lat="45.874921577051282" lon="8.147040149196982">
        <ele>1035.3099999999999</ele>
        <time>2025-01-05T08:34:40Z</time>
      </trkpt>
      <trkpt lat="45.874946555122733" lon="8.146915677934885">
        <ele>1037.3399999999999</ele>
        <time>2025-01-05T08:34:53Z</time>
      </trkpt>
      <trkpt lat="45.874951500445604" lon="8.146822722628713">
        <ele>1039.1900000000001</ele>
        <time>2025-01-05T08:35:07Z</time>
      </trkpt>
      <trkpt lat="45.87490975856781" lon="8.146702023223043">
        <ele>1041.1199999999999</ele>
        <time>2025-01-05T08:35:21Z</time>
      </trkpt>
      <trkpt lat="45.874860808253288" lon="8.146558692678809">
        <ele>1042.51</ele>
        <time>2025-01-05T08:35:36Z</time>
      </trkpt>
      <trkpt lat="45.874818898737431" lon="8.146421816200018">
        <ele>1042.51</ele>
        <time>2025-01-05T08:35:46Z</time>
      </trkpt>
      <trkpt lat="45.874835914000869" lon="8.146283682435751">
        <ele>1044.28</ele>
        <time>2025-01-05T08:35:59Z</time>
      </trkpt>
      <trkpt lat="45.874834656715393" lon="8.146123923361301">
        <ele>1044.6400000000001</ele>
        <time>2025-01-05T08:36:10Z</time>
      </trkpt>
      <trkpt lat="45.874769696965814" lon="8.146031303331256">
        <ele>1046.4000000000001</ele>
        <time>2025-01-05T08:36:26Z</time>
      </trkpt>
      <trkpt lat="45.874745892360806" lon="8.14589124172926">
        <ele>1049.8399999999999</ele>
        <time>2025-01-05T08:36:44Z</time>
      </trkpt>
      <trkpt lat="45.874780509620905" lon="8.145767608657479">
        <ele>1051.77</ele>
        <time>2025-01-05T08:36:57Z</time>
      </trkpt>
      <trkpt lat="45.874811019748449" lon="8.145667696371675">
        <ele>1053.6600000000001</ele>
        <time>2025-01-05T08:37:10Z</time>
      </trkpt>
      <trkpt lat="45.874879164621234" lon="8.145600892603397">
        <ele>1055.6099999999999</ele>
        <time>2025-01-05T08:37:24Z</time>
      </trkpt>
      <trkpt lat="45.874846894294024" lon="8.145502069965005">
        <ele>1058.3699999999999</ele>
        <time>2025-01-05T08:37:41Z</time>
      </trkpt>
      <trkpt lat="45.874850330874324" lon="8.145406180992723">
        <ele>1061.3</ele>
        <time>2025-01-05T08:37:58Z</time>
      </trkpt>
      <trkpt lat="45.874771624803543" lon="8.145286152139306">
        <ele>1063.46</ele>
        <time>2025-01-05T08:38:13Z</time>
      </trkpt>
      <trkpt lat="45.874754944816232" lon="8.145114490762353">
        <ele>1065.0899999999999</ele>
        <time>2025-01-05T08:38:28Z</time>
      </trkpt>
      <trkpt lat="45.874683950096369" lon="8.14500049687922">
        <ele>1066.04</ele>
        <time>2025-01-05T08:38:42Z</time>
      </trkpt>
      <trkpt lat="45.874637933447957" lon="8.144904356449843">
        <ele>1065.6400000000001</ele>
        <time>2025-01-05T08:39:05Z</time>
      </trkpt>
      <trkpt lat="45.874557970091701" lon="8.144820369780064">
        <ele>1065.6600000000001</ele>
        <time>2025-01-05T08:39:15Z</time>
      </trkpt>
      <trkpt lat="45.8745545335114" lon="8.144711488857865">
        <ele>1066.1800000000001</ele>
        <time>2025-01-05T08:39:25Z</time>
      </trkpt>
      <trkpt lat="45.874612368643284" lon="8.144589532166719">
        <ele>1066.99</ele>
        <time>2025-01-05T08:39:35Z</time>
      </trkpt>
      <trkpt lat="45.874605998396873" lon="8.144468329846859">
        <ele>1066.6400000000001</ele>
        <time>2025-01-05T08:39:47Z</time>
      </trkpt>
      <trkpt lat="45.874589569866657" lon="8.144342852756381">
        <ele>1066.6300000000001</ele>
        <time>2025-01-05T08:39:59Z</time>
      </trkpt>
      <trkpt lat="45.874537350609899" lon="8.144237408414483">
        <ele>1067.9100000000001</ele>
        <time>2025-01-05T08:40:12Z</time>
      </trkpt>
      <trkpt lat="45.874607255682349" lon="8.144135568290949">
        <ele>1069.46</ele>
        <time>2025-01-05T08:40:27Z</time>
      </trkpt>
      <trkpt lat="45.87464053183794" lon="8.144017131999135">
        <ele>1071.6400000000001</ele>
        <time>2025-01-05T08:40:41Z</time>
      </trkpt>
      <trkpt lat="45.874690571799874" lon="8.143877657130361">
        <ele>1074.1500000000001</ele>
        <time>2025-01-05T08:40:58Z</time>
      </trkpt>
      <trkpt lat="45.874678334221244" lon="8.143711779266596">
        <ele>1076.8299999999999</ele>
        <time>2025-01-05T08:41:16Z</time>
      </trkpt>
      <trkpt lat="45.874666348099709" lon="8.143525617197156">
        <ele>1078.0599999999999</ele>
        <time>2025-01-05T08:41:29Z</time>
      </trkpt>
      <trkpt lat="45.874615386128426" lon="8.143383711576462">
        <ele>1079.9200000000001</ele>
        <time>2025-01-05T08:41:44Z</time>
      </trkpt>
      <trkpt lat="45.874569620937109" lon="8.143264772370458">
        <ele>1080.5</ele>
        <time>2025-01-05T08:41:57Z</time>
      </trkpt>
      <trkpt lat="45.874585881829262" lon="8.143319422379136">
        <ele>1079.5599999999999</ele>
        <time>2025-01-05T08:42:22Z</time>
      </trkpt>
      <trkpt lat="45.874669281765819" lon="8.143345909193158">
        <ele>1079.47</ele>
        <time>2025-01-05T08:42:55Z</time>
      </trkpt>
      <trkpt lat="45.874653439968824" lon="8.143364014104009">
        <ele>1079.6199999999999</ele>
        <time>2025-01-05T08:43:28Z</time>
      </trkpt>
      <trkpt lat="45.874647907912731" lon="8.143306765705347">
        <ele>1080.53</ele>
        <time>2025-01-05T08:43:50Z</time>
      </trkpt>
      <trkpt lat="45.874580601230264" lon="8.143318081274629">
        <ele>1079.3900000000001</ele>
        <time>2025-01-05T08:44:23Z</time>
      </trkpt>
      <trkpt lat="45.874591413885355" lon="8.143372731283307">
        <ele>1081.53</ele>
        <time>2025-01-05T08:46:17Z</time>
      </trkpt>
      <trkpt lat="45.87459359318018" lon="8.143227556720376">
        <ele>1084.29</ele>
        <time>2025-01-05T08:46:44Z</time>
      </trkpt>
      <trkpt lat="45.874574733898044" lon="8.14309093169868">
        <ele>1086.3499999999999</ele>
        <time>2025-01-05T08:46:58Z</time>
      </trkpt>
      <trkpt lat="45.874531148001552" lon="8.142949026077986">
        <ele>1089.28</ele>
        <time>2025-01-05T08:47:14Z</time>
      </trkpt>
      <trkpt lat="45.874495608732104" lon="8.142788764089346">
        <ele>1092.8199999999999</ele>
        <time>2025-01-05T08:47:31Z</time>
      </trkpt>
      <trkpt lat="45.874430648982525" lon="8.142652558162808">
        <ele>1096.6199999999999</ele>
        <time>2025-01-05T08:47:49Z</time>
      </trkpt>
      <trkpt lat="45.874376753345132" lon="8.142509730532765">
        <ele>1100.46</ele>
        <time>2025-01-05T08:48:07Z</time>
      </trkpt>
      <trkpt lat="45.874378765001893" lon="8.142382325604558">
        <ele>1103.6800000000001</ele>
        <time>2025-01-05T08:48:23Z</time>
      </trkpt>
      <trkpt lat="45.874409023672342" lon="8.142267325893045">
        <ele>1105.9000000000001</ele>
        <time>2025-01-05T08:48:36Z</time>
      </trkpt>
      <trkpt lat="45.874365940690041" lon="8.14215375110507">
        <ele>1108.8599999999999</ele>
        <time>2025-01-05T08:48:51Z</time>
      </trkpt>
      <trkpt lat="45.874349679797888" lon="8.14202232286334">
        <ele>1110.6800000000001</ele>
        <time>2025-01-05T08:49:08Z</time>
      </trkpt>
      <trkpt lat="45.874323109164834" lon="8.14189625903964">
        <ele>1113.46</ele>
        <time>2025-01-05T08:49:24Z</time>
      </trkpt>
      <trkpt lat="45.874329144135118" lon="8.141767764464021">
        <ele>1116.4400000000001</ele>
        <time>2025-01-05T08:49:41Z</time>
      </trkpt>
      <trkpt lat="45.874321265146136" lon="8.14163826406002">
        <ele>1119.23</ele>
        <time>2025-01-05T08:49:58Z</time>
      </trkpt>
      <trkpt lat="45.87430190294981" lon="8.141509350389242">
        <ele>1121.1600000000001</ele>
        <time>2025-01-05T08:50:13Z</time>
      </trkpt>
      <trkpt lat="45.874272985383868" lon="8.141365349292755">
        <ele>1123.6600000000001</ele>
        <time>2025-01-05T08:50:29Z</time>
      </trkpt>
      <trkpt lat="45.874240882694721" lon="8.141244985163212">
        <ele>1126.3699999999999</ele>
        <time>2025-01-05T08:50:44Z</time>
      </trkpt>
      <trkpt lat="45.874205008149147" lon="8.141094781458378">
        <ele>1127.6099999999999</ele>
        <time>2025-01-05T08:50:59Z</time>
      </trkpt>
      <trkpt lat="45.874184472486377" lon="8.140935273841023">
        <ele>1128.0599999999999</ele>
        <time>2025-01-05T08:51:13Z</time>
      </trkpt>
      <trkpt lat="45.874134600162506" lon="8.140804264694452">
        <ele>1126.8599999999999</ele>
        <time>2025-01-05T08:51:22Z</time>
      </trkpt>
      <trkpt lat="45.874100904911757" lon="8.140677027404308">
        <ele>1126.6099999999999</ele>
        <time>2025-01-05T08:51:31Z</time>
      </trkpt>
      <trkpt lat="45.874091600999236" lon="8.140537133440375">
        <ele>1126.72</ele>
        <time>2025-01-05T08:51:41Z</time>
      </trkpt>
      <trkpt lat="45.874152621254325" lon="8.140434538945556">
        <ele>1127.6700000000001</ele>
        <time>2025-01-05T08:51:52Z</time>
      </trkpt>
      <trkpt lat="45.874166367575526" lon="8.140305038541555">
        <ele>1129.24</ele>
        <time>2025-01-05T08:52:04Z</time>
      </trkpt>
      <trkpt lat="45.874080955982208" lon="8.140161791816354">
        <ele>1128.1400000000001</ele>
        <time>2025-01-05T08:52:19Z</time>
      </trkpt>
      <trkpt lat="45.873981881886721" lon="8.140194732695818">
        <ele>1129.28</ele>
        <time>2025-01-05T08:52:33Z</time>
      </trkpt>
      <trkpt lat="45.873912144452333" lon="8.140252316370606">
        <ele>1132.3900000000001</ele>
        <time>2025-01-05T08:52:50Z</time>
      </trkpt>
      <trkpt lat="45.873907199129462" lon="8.140131030231714">
        <ele>1135.75</ele>
        <time>2025-01-05T08:53:08Z</time>
      </trkpt>
      <trkpt lat="45.873953634873033" lon="8.140043020248413">
        <ele>1136.9300000000001</ele>
        <time>2025-01-05T08:53:28Z</time>
      </trkpt>
      <trkpt lat="45.874013565480709" lon="8.139930451288819">
        <ele>1138.78</ele>
        <time>2025-01-05T08:53:49Z</time>
      </trkpt>
      <trkpt lat="45.874031251296401" lon="8.139780582860112">
        <ele>1138.01</ele>
        <time>2025-01-05T08:54:02Z</time>
      </trkpt>
      <trkpt lat="45.874058408662677" lon="8.139645718038082">
        <ele>1141.25</ele>
        <time>2025-01-05T08:54:17Z</time>
      </trkpt>
      <trkpt lat="45.874033011496067" lon="8.139520911499858">
        <ele>1143.4300000000001</ele>
        <time>2025-01-05T08:54:30Z</time>
      </trkpt>
      <trkpt lat="45.874130493029952" lon="8.139485791325569">
        <ele>1142.96</ele>
        <time>2025-01-05T08:54:46Z</time>
      </trkpt>
      <trkpt lat="45.874192351475358" lon="8.139444636180997">
        <ele>1143.1500000000001</ele>
        <time>2025-01-05T08:55:02Z</time>
      </trkpt>
      <trkpt lat="45.874284887686372" lon="8.139416053891182">
        <ele>1142.8800000000001</ele>
        <time>2025-01-05T08:55:18Z</time>
      </trkpt>
      <trkpt lat="45.874370718374848" lon="8.139455365017057">
        <ele>1144.75</ele>
        <time>2025-01-05T08:55:33Z</time>
      </trkpt>
      <trkpt lat="45.874455124139786" lon="8.139412617310882">
        <ele>1146.72</ele>
        <time>2025-01-05T08:55:44Z</time>
      </trkpt>
      <trkpt lat="45.874497620388865" lon="8.139327960088849">
        <ele>1148.8699999999999</ele>
        <time>2025-01-05T08:56:00Z</time>
      </trkpt>
      <trkpt lat="45.87450860068202" lon="8.139191754162312">
        <ele>1151.25</ele>
        <time>2025-01-05T08:56:17Z</time>
      </trkpt>
      <trkpt lat="45.874516731128097" lon="8.139044316485524">
        <ele>1152.4400000000001</ele>
        <time>2025-01-05T08:56:31Z</time>
      </trkpt>
      <trkpt lat="45.874453950673342" lon="8.138935519382358">
        <ele>1153.52</ele>
        <time>2025-01-05T08:56:55Z</time>
      </trkpt>
      <trkpt lat="45.874418495222926" lon="8.13877391628921">
        <ele>1155.6900000000001</ele>
        <time>2025-01-05T08:57:12Z</time>
      </trkpt>
      <trkpt lat="45.874353535473347" lon="8.138595381751657">
        <ele>1157.3399999999999</ele>
        <time>2025-01-05T08:57:27Z</time>
      </trkpt>
      <trkpt lat="45.874292431399226" lon="8.138446854427457">
        <ele>1160.0899999999999</ele>
        <time>2025-01-05T08:57:47Z</time>
      </trkpt>
      <trkpt lat="45.874272650107741" lon="8.138315426185727">
        <ele>1162.8299999999999</ele>
        <time>2025-01-05T08:58:03Z</time>
      </trkpt>
      <trkpt lat="45.874237949028611" lon="8.138207131996751">
        <ele>1164.4200000000001</ele>
        <time>2025-01-05T08:58:21Z</time>
      </trkpt>
      <trkpt lat="45.874219257384539" lon="8.138083918020129">
        <ele>1166.5899999999999</ele>
        <time>2025-01-05T08:58:38Z</time>
      </trkpt>
      <trkpt lat="45.87424079887569" lon="8.13797352835536">
        <ele>1168.48</ele>
        <time>2025-01-05T08:58:51Z</time>
      </trkpt>
      <trkpt lat="45.874179024249315" lon="8.137884177267551">
        <ele>1170.03</ele>
        <time>2025-01-05T08:59:11Z</time>
      </trkpt>
      <trkpt lat="45.874149771407247" lon="8.137768004089594">
        <ele>1171.0699999999999</ele>
        <time>2025-01-05T08:59:31Z</time>
      </trkpt>
      <trkpt lat="45.87417826987803" lon="8.137665912508965">
        <ele>1173.48</ele>
        <time>2025-01-05T08:59:46Z</time>
      </trkpt>
      <trkpt lat="45.874258736148477" lon="8.137698266655207">
        <ele>1175.23</ele>
        <time>2025-01-05T09:00:00Z</time>
      </trkpt>
      <trkpt lat="45.874314391985536" lon="8.137808572500944">
        <ele>1177.1099999999999</ele>
        <time>2025-01-05T09:00:19Z</time>
      </trkpt>
      <trkpt lat="45.874394774436951" lon="8.137848973274231">
        <ele>1179.75</ele>
        <time>2025-01-05T09:00:37Z</time>
      </trkpt>
      <trkpt lat="45.874502314254642" lon="8.137957435101271">
        <ele>1181.5599999999999</ele>
        <time>2025-01-05T09:00:53Z</time>
      </trkpt>
      <trkpt lat="45.874466607347131" lon="8.137926002964377">
        <ele>1183.5899999999999</ele>
        <time>2025-01-05T09:01:13Z</time>
      </trkpt>
      <trkpt lat="45.874423943459988" lon="8.137828940525651">
        <ele>1185.6099999999999</ele>
        <time>2025-01-05T09:01:29Z</time>
      </trkpt>
      <trkpt lat="45.874390667304397" lon="8.137696674093604">
        <ele>1187.3099999999999</ele>
        <time>2025-01-05T09:01:48Z</time>
      </trkpt>
      <trkpt lat="45.874330317601562" lon="8.137526772916317">
        <ele>1188.6400000000001</ele>
        <time>2025-01-05T09:02:06Z</time>
      </trkpt>
      <trkpt lat="45.87429360486567" lon="8.13739744015038">
        <ele>1189.97</ele>
        <time>2025-01-05T09:02:28Z</time>
      </trkpt>
      <trkpt lat="45.874239038676023" lon="8.137349495664239">
        <ele>1191.6600000000001</ele>
        <time>2025-01-05T09:02:54Z</time>
      </trkpt>
      <trkpt lat="45.87422520853579" lon="8.137270454317331">
        <ele>1190.02</ele>
        <time>2025-01-05T09:03:15Z</time>
      </trkpt>
      <trkpt lat="45.874216323718429" lon="8.137127961963415">
        <ele>1190.3599999999999</ele>
        <time>2025-01-05T09:03:30Z</time>
      </trkpt>
      <trkpt lat="45.874223196879029" lon="8.137030145153403">
        <ele>1192.1600000000001</ele>
        <time>2025-01-05T09:03:48Z</time>
      </trkpt>
      <trkpt lat="45.874179443344474" lon="8.136900225654244">
        <ele>1193.97</ele>
        <time>2025-01-05T09:04:04Z</time>
      </trkpt>
      <trkpt lat="45.874180197715759" lon="8.13679151237011">
        <ele>1195.73</ele>
        <time>2025-01-05T09:04:18Z</time>
      </trkpt>
      <trkpt lat="45.874173576012254" lon="8.136666622012854">
        <ele>1198.21</ele>
        <time>2025-01-05T09:04:35Z</time>
      </trkpt>
      <trkpt lat="45.874151363968849" lon="8.136522118002176">
        <ele>1198.8099999999999</ele>
        <time>2025-01-05T09:04:51Z</time>
      </trkpt>
      <trkpt lat="45.874062264338136" lon="8.136481298133731">
        <ele>1195.9100000000001</ele>
        <time>2025-01-05T09:05:09Z</time>
      </trkpt>
      <trkpt lat="45.873833438381553" lon="8.136313827708364">
        <ele>1194.6800000000001</ele>
        <time>2025-01-05T09:05:24Z</time>
      </trkpt>
      <trkpt lat="45.873776357620955" lon="8.136329250410199">
        <ele>1196.3299999999999</ele>
        <time>2025-01-05T09:05:46Z</time>
      </trkpt>
      <trkpt lat="45.873779794201255" lon="8.136442238464952">
        <ele>1196.73</ele>
        <time>2025-01-05T09:06:06Z</time>
      </trkpt>
      <trkpt lat="45.873712236061692" lon="8.136575510725379">
        <ele>1199.3499999999999</ele>
        <time>2025-01-05T09:06:22Z</time>
      </trkpt>
      <trkpt lat="45.87366227991879" lon="8.136710794642568">
        <ele>1202.8099999999999</ele>
        <time>2025-01-05T09:06:35Z</time>
      </trkpt>
      <trkpt lat="45.873576365411282" lon="8.136720266193152">
        <ele>1207.6199999999999</ele>
        <time>2025-01-05T09:06:53Z</time>
      </trkpt>
      <trkpt lat="45.873510902747512" lon="8.136703837662935">
        <ele>1210</ele>
        <time>2025-01-05T09:07:26Z</time>
      </trkpt>
      <trkpt lat="45.873550800606608" lon="8.13670844770968">
        <ele>1209.6600000000001</ele>
        <time>2025-01-05T09:08:18Z</time>
      </trkpt>
      <trkpt lat="45.873503107577562" lon="8.136693695560098">
        <ele>1209.96</ele>
        <time>2025-01-05T09:08:53Z</time>
      </trkpt>
      <trkpt lat="45.873517105355859" lon="8.136609708890319">
        <ele>1214.4200000000001</ele>
        <time>2025-01-05T09:09:15Z</time>
      </trkpt>
      <trkpt lat="45.873474106192589" lon="8.136489009484649">
        <ele>1218.3499999999999</ele>
        <time>2025-01-05T09:09:34Z</time>
      </trkpt>
      <trkpt lat="45.873417025431991" lon="8.136457996442914">
        <ele>1221.8399999999999</ele>
        <time>2025-01-05T09:09:54Z</time>
      </trkpt>
      <trkpt lat="45.873317280784249" lon="8.136416841298342">
        <ele>1224.1900000000001</ele>
        <time>2025-01-05T09:10:11Z</time>
      </trkpt>
      <trkpt lat="45.873204125091434" lon="8.136349283158779">
        <ele>1223.5899999999999</ele>
        <time>2025-01-05T09:10:24Z</time>
      </trkpt>
      <trkpt lat="45.873159533366561" lon="8.136265128850937">
        <ele>1226.1500000000001</ele>
        <time>2025-01-05T09:10:39Z</time>
      </trkpt>
      <trkpt lat="45.873080994933844" lon="8.136235876008868">
        <ele>1229.3499999999999</ele>
        <time>2025-01-05T09:10:59Z</time>
      </trkpt>
      <trkpt lat="45.873107397928834" lon="8.136306200176477">
        <ele>1230.4200000000001</ele>
        <time>2025-01-05T09:11:19Z</time>
      </trkpt>
      <trkpt lat="45.873108571395278" lon="8.136482639238238">
        <ele>1233.75</ele>
        <time>2025-01-05T09:11:42Z</time>
      </trkpt>
      <trkpt lat="45.873073451220989" lon="8.136646505445242">
        <ele>1236.1900000000001</ele>
        <time>2025-01-05T09:11:59Z</time>
      </trkpt>
      <trkpt lat="45.873031038790941" lon="8.13672261312604">
        <ele>1237.6300000000001</ele>
        <time>2025-01-05T09:12:23Z</time>
      </trkpt>
      <trkpt lat="45.872986111789942" lon="8.136671902611852">
        <ele>1240.6099999999999</ele>
        <time>2025-01-05T09:12:45Z</time>
      </trkpt>
      <trkpt lat="45.872957780957222" lon="8.13656771555543">
        <ele>1242.6700000000001</ele>
        <time>2025-01-05T09:13:00Z</time>
      </trkpt>
      <trkpt lat="45.872895419597626" lon="8.136423463001847">
        <ele>1245.3900000000001</ele>
        <time>2025-01-05T09:13:17Z</time>
      </trkpt>
      <trkpt lat="45.87281302548945" lon="8.136319695040584">
        <ele>1247.6600000000001</ele>
        <time>2025-01-05T09:13:34Z</time>
      </trkpt>
      <trkpt lat="45.872738594189286" lon="8.136224308982492">
        <ele>1251.0799999999999</ele>
        <time>2025-01-05T09:13:55Z</time>
      </trkpt>
      <trkpt lat="45.872666006907821" lon="8.136100256815553">
        <ele>1254.1500000000001</ele>
        <time>2025-01-05T09:14:13Z</time>
      </trkpt>
      <trkpt lat="45.87259853258729" lon="8.136008391156793">
        <ele>1257.6400000000001</ele>
        <time>2025-01-05T09:14:32Z</time>
      </trkpt>
      <trkpt lat="45.87251546792686" lon="8.135933205485344">
        <ele>1259.4000000000001</ele>
        <time>2025-01-05T09:14:48Z</time>
      </trkpt>
      <trkpt lat="45.872452519834042" lon="8.135845782235265">
        <ele>1261.0899999999999</ele>
        <time>2025-01-05T09:15:06Z</time>
      </trkpt>
      <trkpt lat="45.872414298355579" lon="8.13571167178452">
        <ele>1262.53</ele>
        <time>2025-01-05T09:15:22Z</time>
      </trkpt>
      <trkpt lat="45.872396780177951" lon="8.135582003742456">
        <ele>1263.8199999999999</ele>
        <time>2025-01-05T09:15:37Z</time>
      </trkpt>
      <trkpt lat="45.872395606711507" lon="8.135446468368173">
        <ele>1263.6600000000001</ele>
        <time>2025-01-05T09:15:50Z</time>
      </trkpt>
      <trkpt lat="45.872483532875776" lon="8.135385783389211">
        <ele>1263.6300000000001</ele>
        <time>2025-01-05T09:16:01Z</time>
      </trkpt>
      <trkpt lat="45.872564585879445" lon="8.135315123945475">
        <ele>1264.21</ele>
        <time>2025-01-05T09:16:14Z</time>
      </trkpt>
      <trkpt lat="45.872607752680779" lon="8.135193083435297">
        <ele>1264.5599999999999</ele>
        <time>2025-01-05T09:16:26Z</time>
      </trkpt>
      <trkpt lat="45.872649410739541" lon="8.135073892772198">
        <ele>1265.2</ele>
        <time>2025-01-05T09:16:38Z</time>
      </trkpt>
      <trkpt lat="45.872706575319171" lon="8.134963754564524">
        <ele>1266.1099999999999</ele>
        <time>2025-01-05T09:16:51Z</time>
      </trkpt>
      <trkpt lat="45.872786706313491" lon="8.13489125110209">
        <ele>1266.5699999999999</ele>
        <time>2025-01-05T09:17:02Z</time>
      </trkpt>
      <trkpt lat="45.87286239489913" lon="8.134836265817285">
        <ele>1267.4400000000001</ele>
        <time>2025-01-05T09:17:15Z</time>
      </trkpt>
      <trkpt lat="45.872886031866074" lon="8.134726295247674">
        <ele>1270.79</ele>
        <time>2025-01-05T09:17:30Z</time>
      </trkpt>
      <trkpt lat="45.872901035472751" lon="8.134611044079065">
        <ele>1272.1199999999999</ele>
        <time>2025-01-05T09:17:43Z</time>
      </trkpt>
      <trkpt lat="45.872921738773584" lon="8.134498558938503">
        <ele>1273.95</ele>
        <time>2025-01-05T09:17:56Z</time>
      </trkpt>
      <trkpt lat="45.872960463166237" lon="8.134402586147189">
        <ele>1275.71</ele>
        <time>2025-01-05T09:18:11Z</time>
      </trkpt>
      <trkpt lat="45.873017963021994" lon="8.134305104613304">
        <ele>1276.8699999999999</ele>
        <time>2025-01-05T09:18:28Z</time>
      </trkpt>
      <trkpt lat="45.873093232512474" lon="8.134294794872403">
        <ele>1278.26</ele>
        <time>2025-01-05T09:18:49Z</time>
      </trkpt>
      <trkpt lat="45.873090131208301" lon="8.134265542030335">
        <ele>1280.6500000000001</ele>
        <time>2025-01-05T09:19:20Z</time>
      </trkpt>
      <trkpt lat="45.873107314109802" lon="8.134277444332838">
        <ele>1280.75</ele>
        <time>2025-01-05T09:20:34Z</time>
      </trkpt>
      <trkpt lat="45.873119803145528" lon="8.134287754073739">
        <ele>1280.6700000000001</ele>
        <time>2025-01-05T09:20:57Z</time>
      </trkpt>
      <trkpt lat="45.873086610808969" lon="8.134276103228331">
        <ele>1280.72</ele>
        <time>2025-01-05T09:21:13Z</time>
      </trkpt>
      <trkpt lat="45.873128268867731" lon="8.134297896176577">
        <ele>1281.1199999999999</ele>
        <time>2025-01-05T09:21:57Z</time>
      </trkpt>
      <trkpt lat="45.873137740418315" lon="8.134296052157879">
        <ele>1281.4000000000001</ele>
        <time>2025-01-05T09:22:04Z</time>
      </trkpt>
      <trkpt lat="45.873108906671405" lon="8.134286496788263">
        <ele>1279.75</ele>
        <time>2025-01-05T09:22:14Z</time>
      </trkpt>
      <trkpt lat="45.873107649385929" lon="8.134279539808631">
        <ele>1280.97</ele>
        <time>2025-01-05T09:22:31Z</time>
      </trkpt>
      <trkpt lat="45.873149894177914" lon="8.134256657212973">
        <ele>1281.04</ele>
        <time>2025-01-05T09:23:14Z</time>
      </trkpt>
      <trkpt lat="45.873154839500785" lon="8.134322622790933">
        <ele>1280.8099999999999</ele>
        <time>2025-01-05T09:27:09Z</time>
      </trkpt>
      <trkpt lat="45.873148133978248" lon="8.134296219795942">
        <ele>1280.53</ele>
        <time>2025-01-05T09:28:41Z</time>
      </trkpt>
      <trkpt lat="45.873187864199281" lon="8.134186752140522">
        <ele>1282.51</ele>
        <time>2025-01-05T09:28:55Z</time>
      </trkpt>
      <trkpt lat="45.873210662975907" lon="8.13404300250113">
        <ele>1285.1600000000001</ele>
        <time>2025-01-05T09:29:10Z</time>
      </trkpt>
      <trkpt lat="45.873156515881419" lon="8.133929511532188">
        <ele>1286.25</ele>
        <time>2025-01-05T09:29:17Z</time>
      </trkpt>
      <trkpt lat="45.873164478689432" lon="8.133810320869088">
        <ele>1288.52</ele>
        <time>2025-01-05T09:29:30Z</time>
      </trkpt>
      <trkpt lat="45.873216614127159" lon="8.133702026680112">
        <ele>1291.5599999999999</ele>
        <time>2025-01-05T09:29:45Z</time>
      </trkpt>
      <trkpt lat="45.873274449259043" lon="8.133615776896477">
        <ele>1293.46</ele>
        <time>2025-01-05T09:30:01Z</time>
      </trkpt>
      <trkpt lat="45.87329632602632" lon="8.133503375574946">
        <ele>1295.9100000000001</ele>
        <time>2025-01-05T09:30:18Z</time>
      </trkpt>
      <trkpt lat="45.873273108154535" lon="8.133353255689144">
        <ele>1298.0599999999999</ele>
        <time>2025-01-05T09:30:34Z</time>
      </trkpt>
      <trkpt lat="45.873262966051698" lon="8.133230796083808">
        <ele>1301.0599999999999</ele>
        <time>2025-01-05T09:30:50Z</time>
      </trkpt>
      <trkpt lat="45.87323329411447" lon="8.133105738088489">
        <ele>1302.8299999999999</ele>
        <time>2025-01-05T09:31:05Z</time>
      </trkpt>
      <trkpt lat="45.873163472861052" lon="8.132966849952936">
        <ele>1305.24</ele>
        <time>2025-01-05T09:31:22Z</time>
      </trkpt>
      <trkpt lat="45.873142518103123" lon="8.132842462509871">
        <ele>1307.0699999999999</ele>
        <time>2025-01-05T09:31:38Z</time>
      </trkpt>
      <trkpt lat="45.873150480911136" lon="8.132740454748273">
        <ele>1309.55</ele>
        <time>2025-01-05T09:31:55Z</time>
      </trkpt>
      <trkpt lat="45.873186271637678" lon="8.132605003193021">
        <ele>1313.0899999999999</ele>
        <time>2025-01-05T09:32:14Z</time>
      </trkpt>
      <trkpt lat="45.873141093179584" lon="8.132462091743946">
        <ele>1315.46</ele>
        <time>2025-01-05T09:32:31Z</time>
      </trkpt>
      <trkpt lat="45.873111840337515" lon="8.132328651845455">
        <ele>1318.52</ele>
        <time>2025-01-05T09:32:51Z</time>
      </trkpt>
      <trkpt lat="45.873107146471739" lon="8.132212394848466">
        <ele>1321.5699999999999</ele>
        <time>2025-01-05T09:33:16Z</time>
      </trkpt>
      <trkpt lat="45.873062470927835" lon="8.132163528352976">
        <ele>1321.21</ele>
        <time>2025-01-05T09:34:20Z</time>
      </trkpt>
      <trkpt lat="45.873035062104464" lon="8.13207526691258">
        <ele>1324.1300000000001</ele>
        <time>2025-01-05T09:35:07Z</time>
      </trkpt>
      <trkpt lat="45.872950237244368" lon="8.132060095667839">
        <ele>1325.73</ele>
        <time>2025-01-05T09:35:24Z</time>
      </trkpt>
      <trkpt lat="45.872897850349545" lon="8.132156487554312">
        <ele>1325.3699999999999</ele>
        <time>2025-01-05T09:35:38Z</time>
      </trkpt>
      <trkpt lat="45.872858623042703" lon="8.132281294092536">
        <ele>1325.0699999999999</ele>
        <time>2025-01-05T09:35:51Z</time>
      </trkpt>
      <trkpt lat="45.872806822881103" lon="8.132389169186354">
        <ele>1325.9300000000001</ele>
        <time>2025-01-05T09:36:04Z</time>
      </trkpt>
      <trkpt lat="45.872739097103477" lon="8.132475670427084">
        <ele>1327.01</ele>
        <time>2025-01-05T09:36:21Z</time>
      </trkpt>
      <trkpt lat="45.872664665803313" lon="8.132383888587356">
        <ele>1330.45</ele>
        <time>2025-01-05T09:36:42Z</time>
      </trkpt>
      <trkpt lat="45.872567687183619" lon="8.132396712899208">
        <ele>1333.05</ele>
        <time>2025-01-05T09:37:07Z</time>
      </trkpt>
      <trkpt lat="45.872456878423691" lon="8.132380619645119">
        <ele>1335.3199999999999</ele>
        <time>2025-01-05T09:37:26Z</time>
      </trkpt>
      <trkpt lat="45.872405497357249" lon="8.132326304912567">
        <ele>1337.8199999999999</ele>
        <time>2025-01-05T09:37:48Z</time>
      </trkpt>
      <trkpt lat="45.872388565912843" lon="8.132229745388031">
        <ele>1340.0899999999999</ele>
        <time>2025-01-05T09:38:09Z</time>
      </trkpt>
      <trkpt lat="45.872344560921192" lon="8.132153553888202">
        <ele>1342.73</ele>
        <time>2025-01-05T09:38:33Z</time>
      </trkpt>
      <trkpt lat="45.872279768809676" lon="8.132208036258817">
        <ele>1343.51</ele>
        <time>2025-01-05T09:38:59Z</time>
      </trkpt>
      <trkpt lat="45.872227298095822" lon="8.132304260507226">
        <ele>1343.5999999999999</ele>
        <time>2025-01-05T09:39:17Z</time>
      </trkpt>
      <trkpt lat="45.872179521247745" lon="8.132401490584016">
        <ele>1344.4300000000001</ele>
        <time>2025-01-05T09:39:51Z</time>
      </trkpt>
      <trkpt lat="45.872170217335224" lon="8.13229369930923">
        <ele>1347.6800000000001</ele>
        <time>2025-01-05T09:40:15Z</time>
      </trkpt>
      <trkpt lat="45.872158566489816" lon="8.132243826985359">
        <ele>1350.22</ele>
        <time>2025-01-05T09:40:37Z</time>
      </trkpt>
      <trkpt lat="45.872141132131219" lon="8.132231589406729">
        <ele>1350.1800000000001</ele>
        <time>2025-01-05T09:41:02Z</time>
      </trkpt>
      <trkpt lat="45.872087152674794" lon="8.132172580808401">
        <ele>1349.9200000000001</ele>
        <time>2025-01-05T09:41:28Z</time>
      </trkpt>
      <trkpt lat="45.872087152674794" lon="8.132243324071169">
        <ele>1350.01</ele>
        <time>2025-01-05T09:42:00Z</time>
      </trkpt>
      <trkpt lat="45.87215093895793" lon="8.132233517244458">
        <ele>1349.8699999999999</ele>
        <time>2025-01-05T09:42:26Z</time>
      </trkpt>
      <trkpt lat="45.872176252305508" lon="8.132230583578348">
        <ele>1349.8900000000001</ele>
        <time>2025-01-05T09:42:44Z</time>
      </trkpt>
      <trkpt lat="45.872218916192651" lon="8.132143830880523">
        <ele>1351.0899999999999</ele>
        <time>2025-01-05T09:43:18Z</time>
      </trkpt>
      <trkpt lat="45.872192680835724" lon="8.132028663530946">
        <ele>1355.4300000000001</ele>
        <time>2025-01-05T09:43:43Z</time>
      </trkpt>
      <trkpt lat="45.872124535962939" lon="8.131945431232452">
        <ele>1359.6800000000001</ele>
        <time>2025-01-05T09:44:10Z</time>
      </trkpt>
      <trkpt lat="45.872076926752925" lon="8.131854739040136">
        <ele>1363.6800000000001</ele>
        <time>2025-01-05T09:44:36Z</time>
      </trkpt>
      <trkpt lat="45.872099138796329" lon="8.131741918623447">
        <ele>1365.8</ele>
        <time>2025-01-05T09:44:55Z</time>
      </trkpt>
      <trkpt lat="45.872106850147247" lon="8.131600013002753">
        <ele>1368.0999999999999</ele>
        <time>2025-01-05T09:45:15Z</time>
      </trkpt>
      <trkpt lat="45.872104838490486" lon="8.131432291120291">
        <ele>1370.4200000000001</ele>
        <time>2025-01-05T09:45:35Z</time>
      </trkpt>
      <trkpt lat="45.872104251757264" lon="8.131282087415457">
        <ele>1373.0799999999999</ele>
        <time>2025-01-05T09:45:56Z</time>
      </trkpt>
      <trkpt lat="45.872092517092824" lon="8.131141355261207">
        <ele>1375.4100000000001</ele>
        <time>2025-01-05T09:46:15Z</time>
      </trkpt>
      <trkpt lat="45.872028060257435" lon="8.130986457690597">
        <ele>1378.6800000000001</ele>
        <time>2025-01-05T09:46:36Z</time>
      </trkpt>
      <trkpt lat="45.871957987546921" lon="8.130900207906961">
        <ele>1381.4400000000001</ele>
        <time>2025-01-05T09:46:59Z</time>
      </trkpt>
      <trkpt lat="45.871934182941914" lon="8.130788309499621">
        <ele>1385.04</ele>
        <time>2025-01-05T09:47:22Z</time>
      </trkpt>
      <trkpt lat="45.871933931484818" lon="8.130631987005472">
        <ele>1386.3499999999999</ele>
        <time>2025-01-05T09:47:39Z</time>
      </trkpt>
      <trkpt lat="45.871919514611363" lon="8.130476837977767">
        <ele>1388.72</ele>
        <time>2025-01-05T09:47:57Z</time>
      </trkpt>
      <trkpt lat="45.87187928147614" lon="8.130357563495636">
        <ele>1390.9200000000001</ele>
        <time>2025-01-05T09:48:18Z</time>
      </trkpt>
      <trkpt lat="45.871789595112205" lon="8.130247006192803">
        <ele>1393.8800000000001</ele>
        <time>2025-01-05T09:48:39Z</time>
      </trkpt>
      <trkpt lat="45.871756989508867" lon="8.130283383652568">
        <ele>1397.0799999999999</ele>
        <time>2025-01-05T09:49:00Z</time>
      </trkpt>
      <trkpt lat="45.871719690039754" lon="8.130183387547731">
        <ele>1400.8399999999999</ele>
        <time>2025-01-05T09:49:26Z</time>
      </trkpt>
      <trkpt lat="45.871714577078819" lon="8.130057575181127">
        <ele>1402.8</ele>
        <time>2025-01-05T09:49:44Z</time>
      </trkpt>
      <trkpt lat="45.871668811887503" lon="8.129900917410851">
        <ele>1405.04</ele>
        <time>2025-01-05T09:50:02Z</time>
      </trkpt>
      <trkpt lat="45.871550459414721" lon="8.1298016756773">
        <ele>1407.5599999999999</ele>
        <time>2025-01-05T09:50:24Z</time>
      </trkpt>
      <trkpt lat="45.871484829112887" lon="8.12978558242321">
        <ele>1410.71</ele>
        <time>2025-01-05T09:50:47Z</time>
      </trkpt>
      <trkpt lat="45.871405117213726" lon="8.12977728433907">
        <ele>1413.78</ele>
        <time>2025-01-05T09:51:09Z</time>
      </trkpt>
      <trkpt lat="45.871374355629086" lon="8.129660272970796">
        <ele>1416.1700000000001</ele>
        <time>2025-01-05T09:51:30Z</time>
      </trkpt>
      <trkpt lat="45.871390700340271" lon="8.129628589376807">
        <ele>1415.9100000000001</ele>
        <time>2025-01-05T09:52:18Z</time>
      </trkpt>
      <trkpt lat="45.871436800807714" lon="8.129630852490664">
        <ele>1416.6500000000001</ele>
        <time>2025-01-05T09:52:51Z</time>
      </trkpt>
      <trkpt lat="45.871443338692188" lon="8.129504537209868">
        <ele>1419.6099999999999</ele>
        <time>2025-01-05T09:53:14Z</time>
      </trkpt>
      <trkpt lat="45.871388269588351" lon="8.129453742876649">
        <ele>1422.78</ele>
        <time>2025-01-05T09:53:42Z</time>
      </trkpt>
      <trkpt lat="45.87138818576932" lon="8.129347627982497">
        <ele>1425.1600000000001</ele>
        <time>2025-01-05T09:54:02Z</time>
      </trkpt>
      <trkpt lat="45.871406542137265" lon="8.129221061244607">
        <ele>1428.8499999999999</ele>
        <time>2025-01-05T09:54:24Z</time>
      </trkpt>
      <trkpt lat="45.871418612077832" lon="8.129058452323079">
        <ele>1432.0799999999999</ele>
        <time>2025-01-05T09:54:44Z</time>
      </trkpt>
      <trkpt lat="45.871412996202707" lon="8.12892853282392">
        <ele>1434.5799999999999</ele>
        <time>2025-01-05T09:55:05Z</time>
      </trkpt>
      <trkpt lat="45.871408553794026" lon="8.12878679484129">
        <ele>1437.72</ele>
        <time>2025-01-05T09:55:29Z</time>
      </trkpt>
      <trkpt lat="45.87133789435029" lon="8.128731055185199">
        <ele>1439.97</ele>
        <time>2025-01-05T09:55:50Z</time>
      </trkpt>
      <trkpt lat="45.871249884366989" lon="8.128816382959485">
        <ele>1442.6700000000001</ele>
        <time>2025-01-05T09:56:12Z</time>
      </trkpt>
      <trkpt lat="45.871179476380348" lon="8.128941189497709">
        <ele>1445.1700000000001</ele>
        <time>2025-01-05T09:56:33Z</time>
      </trkpt>
      <trkpt lat="45.871123820543289" lon="8.129063900560141">
        <ele>1447.73</ele>
        <time>2025-01-05T09:56:51Z</time>
      </trkpt>
      <trkpt lat="45.871079312637448" lon="8.129055015742779">
        <ele>1450.5699999999999</ele>
        <time>2025-01-05T09:57:12Z</time>
      </trkpt>
      <trkpt lat="45.871071685105562" lon="8.128953846171498">
        <ele>1453.8499999999999</ele>
        <time>2025-01-05T09:57:39Z</time>
      </trkpt>
      <trkpt lat="45.871101943776011" lon="8.128809258341789">
        <ele>1456.4400000000001</ele>
        <time>2025-01-05T09:57:59Z</time>
      </trkpt>
      <trkpt lat="45.87107109837234" lon="8.128671040758491">
        <ele>1458.1800000000001</ele>
        <time>2025-01-05T09:58:14Z</time>
      </trkpt>
      <trkpt lat="45.871049724519253" lon="8.128552855923772">
        <ele>1461.27</ele>
        <time>2025-01-05T09:58:40Z</time>
      </trkpt>
      <trkpt lat="45.871024411171675" lon="8.128397203981876">
        <ele>1464.1400000000001</ele>
        <time>2025-01-05T09:59:03Z</time>
      </trkpt>
      <trkpt lat="45.871012005954981" lon="8.128256723284721">
        <ele>1466.6300000000001</ele>
        <time>2025-01-05T09:59:23Z</time>
      </trkpt>
      <trkpt lat="45.871040839701891" lon="8.128125630319119">
        <ele>1467.26</ele>
        <time>2025-01-05T09:59:39Z</time>
      </trkpt>
      <trkpt lat="45.87101879529655" lon="8.128007780760527">
        <ele>1469.6800000000001</ele>
        <time>2025-01-05T10:00:01Z</time>
      </trkpt>
      <trkpt lat="45.870945369824767" lon="8.127941312268376">
        <ele>1473.8299999999999</ele>
        <time>2025-01-05T10:00:30Z</time>
      </trkpt>
      <trkpt lat="45.870932461693883" lon="8.127811560407281">
        <ele>1476.5</ele>
        <time>2025-01-05T10:00:53Z</time>
      </trkpt>
      <trkpt lat="45.870906729251146" lon="8.127675605937839">
        <ele>1479.1600000000001</ele>
        <time>2025-01-05T10:01:15Z</time>
      </trkpt>
      <trkpt lat="45.870828777551651" lon="8.127751797437668">
        <ele>1481.95</ele>
        <time>2025-01-05T10:01:37Z</time>
      </trkpt>
      <trkpt lat="45.870751412585378" lon="8.12779781408608">
        <ele>1484.6600000000001</ele>
        <time>2025-01-05T10:02:00Z</time>
      </trkpt>
      <trkpt lat="45.87066893465817" lon="8.127894205972552">
        <ele>1486.3800000000001</ele>
        <time>2025-01-05T10:02:22Z</time>
      </trkpt>
      <trkpt lat="45.8706069085747" lon="8.1279815454036">
        <ele>1488.49</ele>
        <time>2025-01-05T10:02:40Z</time>
      </trkpt>
      <trkpt lat="45.870532728731632" lon="8.128051869571209">
        <ele>1491.5899999999999</ele>
        <time>2025-01-05T10:03:05Z</time>
      </trkpt>
      <trkpt lat="45.870496435090899" lon="8.128062430769205">
        <ele>1494.71</ele>
        <time>2025-01-05T10:03:28Z</time>
      </trkpt>
      <trkpt lat="45.870535410940647" lon="8.127930918708444">
        <ele>1496.3499999999999</ele>
        <time>2025-01-05T10:03:46Z</time>
      </trkpt>
      <trkpt lat="45.870569190010428" lon="8.127785995602608">
        <ele>1497.73</ele>
        <time>2025-01-05T10:04:03Z</time>
      </trkpt>
      <trkpt lat="45.870595257729292" lon="8.127656830474734">
        <ele>1499.8299999999999</ele>
        <time>2025-01-05T10:04:22Z</time>
      </trkpt>
      <trkpt lat="45.870595760643482" lon="8.127509141340852">
        <ele>1501.28</ele>
        <time>2025-01-05T10:04:42Z</time>
      </trkpt>
      <trkpt lat="45.870597353205085" lon="8.127365643158555">
        <ele>1502.8699999999999</ele>
        <time>2025-01-05T10:05:00Z</time>
      </trkpt>
      <trkpt lat="45.870572458952665" lon="8.127226755023003">
        <ele>1505.6800000000001</ele>
        <time>2025-01-05T10:05:24Z</time>
      </trkpt>
      <trkpt lat="45.870542787015438" lon="8.127083508297801">
        <ele>1507.52</ele>
        <time>2025-01-05T10:05:45Z</time>
      </trkpt>
      <trkpt lat="45.870482102036476" lon="8.126983260735869">
        <ele>1510.0699999999999</ele>
        <time>2025-01-05T10:06:08Z</time>
      </trkpt>
      <trkpt lat="45.870464080944657" lon="8.126868177205324">
        <ele>1513.22</ele>
        <time>2025-01-05T10:06:36Z</time>
      </trkpt>
      <trkpt lat="45.870467014610767" lon="8.126727025955916">
        <ele>1516.0599999999999</ele>
        <time>2025-01-05T10:07:02Z</time>
      </trkpt>
      <trkpt lat="45.870455699041486" lon="8.126595765352249">
        <ele>1517.6700000000001</ele>
        <time>2025-01-05T10:07:23Z</time>
      </trkpt>
      <trkpt lat="45.87050280533731" lon="8.126511024311185">
        <ele>1518.22</ele>
        <time>2025-01-05T10:07:41Z</time>
      </trkpt>
      <trkpt lat="45.870583858340979" lon="8.126461403444409">
        <ele>1520.03</ele>
        <time>2025-01-05T10:07:59Z</time>
      </trkpt>
      <trkpt lat="45.87067874148488" lon="8.126396527513862">
        <ele>1522.3199999999999</ele>
        <time>2025-01-05T10:08:21Z</time>
      </trkpt>
      <trkpt lat="45.870748227462173" lon="8.126286137849093">
        <ele>1524.9200000000001</ele>
        <time>2025-01-05T10:08:45Z</time>
      </trkpt>
      <trkpt lat="45.870811175554991" lon="8.126193936914206">
        <ele>1527.6600000000001</ele>
        <time>2025-01-05T10:09:08Z</time>
      </trkpt>
      <trkpt lat="45.870852498337626" lon="8.12607591971755">
        <ele>1530.51</ele>
        <time>2025-01-05T10:09:33Z</time>
      </trkpt>
      <trkpt lat="45.870894826948643" lon="8.125955639407039">
        <ele>1533.73</ele>
        <time>2025-01-05T10:09:58Z</time>
      </trkpt>
      <trkpt lat="45.870935143902898" lon="8.125829324126244">
        <ele>1535.5899999999999</ele>
        <time>2025-01-05T10:10:18Z</time>
      </trkpt>
      <trkpt lat="45.870995577424765" lon="8.125724969431758">
        <ele>1535.7</ele>
        <time>2025-01-05T10:10:34Z</time>
      </trkpt>
      <trkpt lat="45.871076630428433" lon="8.12563662417233">
        <ele>1537.2</ele>
        <time>2025-01-05T10:10:55Z</time>
      </trkpt>
      <trkpt lat="45.871074451133609" lon="8.125563617795706">
        <ele>1539.1800000000001</ele>
        <time>2025-01-05T10:11:29Z</time>
      </trkpt>
      <trkpt lat="45.870984513312578" lon="8.125577196478844">
        <ele>1540.0699999999999</ele>
        <time>2025-01-05T10:12:19Z</time>
      </trkpt>
      <trkpt lat="45.870916116982698" lon="8.125518523156643">
        <ele>1542.8800000000001</ele>
        <time>2025-01-05T10:12:41Z</time>
      </trkpt>
      <trkpt lat="45.870926845818758" lon="8.125416096299887">
        <ele>1545.3499999999999</ele>
        <time>2025-01-05T10:13:12Z</time>
      </trkpt>
      <trkpt lat="45.87096163071692" lon="8.125314675271511">
        <ele>1548.0999999999999</ele>
        <time>2025-01-05T10:13:40Z</time>
      </trkpt>
      <trkpt lat="45.871016951277852" lon="8.12525742687285">
        <ele>1551.3499999999999</ele>
        <time>2025-01-05T10:14:18Z</time>
      </trkpt>
      <trkpt lat="45.871029188856483" lon="8.125134464353323">
        <ele>1555.3599999999999</ele>
        <time>2025-01-05T10:14:52Z</time>
      </trkpt>
      <trkpt lat="45.871036984026432" lon="8.125021392479539">
        <ele>1559.49</ele>
        <time>2025-01-05T10:15:17Z</time>
      </trkpt>
      <trkpt lat="45.871069757267833" lon="8.124924749135971">
        <ele>1563.3699999999999</ele>
        <time>2025-01-05T10:15:48Z</time>
      </trkpt>
      <trkpt lat="45.871075121685863" lon="8.12485920265317">
        <ele>1567.5999999999999</ele>
        <time>2025-01-05T10:16:23Z</time>
      </trkpt>
      <trkpt lat="45.871072104200721" lon="8.124751159921289">
        <ele>1571.9300000000001</ele>
        <time>2025-01-05T10:16:49Z</time>
      </trkpt>
      <trkpt lat="45.871017538011074" lon="8.124679075554013">
        <ele>1574.5</ele>
        <time>2025-01-05T10:17:11Z</time>
      </trkpt>
      <trkpt lat="45.870941346511245" lon="8.124620737507939">
        <ele>1575.9300000000001</ele>
        <time>2025-01-05T10:17:29Z</time>
      </trkpt>
      <trkpt lat="45.87097093462944" lon="8.124568099156022">
        <ele>1578.1199999999999</ele>
        <time>2025-01-05T10:17:51Z</time>
      </trkpt>
      <trkpt lat="45.871071433648467" lon="8.124554939568043">
        <ele>1581.22</ele>
        <time>2025-01-05T10:18:20Z</time>
      </trkpt>
      <trkpt lat="45.871166568249464" lon="8.124510599300265">
        <ele>1582.5799999999999</ele>
        <time>2025-01-05T10:18:43Z</time>
      </trkpt>
      <trkpt lat="45.87116782553494" lon="8.12441504560411">
        <ele>1586.77</ele>
        <time>2025-01-05T10:19:19Z</time>
      </trkpt>
      <trkpt lat="45.871128598228097" lon="8.124322090297937">
        <ele>1589.79</ele>
        <time>2025-01-05T10:19:48Z</time>
      </trkpt>
      <trkpt lat="45.871078977361321" lon="8.124279594048858">
        <ele>1593.3</ele>
        <time>2025-01-05T10:20:22Z</time>
      </trkpt>
      <trkpt lat="45.871009072288871" lon="8.124247826635838">
        <ele>1597.4000000000001</ele>
        <time>2025-01-05T10:20:47Z</time>
      </trkpt>
      <trkpt lat="45.870947213843465" lon="8.124262494966388">
        <ele>1599.51</ele>
        <time>2025-01-05T10:21:07Z</time>
      </trkpt>
      <trkpt lat="45.870969174429774" lon="8.124244892969728">
        <ele>1599.78</ele>
        <time>2025-01-05T10:22:05Z</time>
      </trkpt>
      <trkpt lat="45.870977137237787" lon="8.124217400327325">
        <ele>1601.2</ele>
        <time>2025-01-05T10:23:55Z</time>
      </trkpt>
      <trkpt lat="45.870958529412746" lon="8.12415361404419">
        <ele>1607.3699999999999</ele>
        <time>2025-01-05T10:24:40Z</time>
      </trkpt>
      <trkpt lat="45.870902705937624" lon="8.124065101146698">
        <ele>1610.4300000000001</ele>
        <time>2025-01-05T10:25:10Z</time>
      </trkpt>
      <trkpt lat="45.870943106710911" lon="8.123960914090276">
        <ele>1615.04</ele>
        <time>2025-01-05T10:25:44Z</time>
      </trkpt>
      <trkpt lat="45.870884349569678" lon="8.123954879119992">
        <ele>1618.0699999999999</ele>
        <time>2025-01-05T10:26:08Z</time>
      </trkpt>
      <trkpt lat="45.870870854705572" lon="8.123857900500298">
        <ele>1622.4400000000001</ele>
        <time>2025-01-05T10:26:49Z</time>
      </trkpt>
      <trkpt lat="45.870796507224441" lon="8.123869467526674">
        <ele>1624.3599999999999</ele>
        <time>2025-01-05T10:27:09Z</time>
      </trkpt>
      <trkpt lat="45.870739091187716" lon="8.123812135308981">
        <ele>1627</ele>
        <time>2025-01-05T10:27:29Z</time>
      </trkpt>
      <trkpt lat="45.870812768116593" lon="8.123704763129354">
        <ele>1630.45</ele>
        <time>2025-01-05T10:28:06Z</time>
      </trkpt>
      <trkpt lat="45.870828945189714" lon="8.123593619093299">
        <ele>1634.6199999999999</ele>
        <time>2025-01-05T10:28:40Z</time>
      </trkpt>
      <trkpt lat="45.87076180614531" lon="8.123530000448227">
        <ele>1639.1300000000001</ele>
        <time>2025-01-05T10:29:08Z</time>
      </trkpt>
      <trkpt lat="45.870713442564011" lon="8.12362396158278">
        <ele>1641.9400000000001</ele>
        <time>2025-01-05T10:32:53Z</time>
      </trkpt>
      <trkpt lat="45.870672203600407" lon="8.123544584959745">
        <ele>1646.5999999999999</ele>
        <time>2025-01-05T10:33:24Z</time>
      </trkpt>
      <trkpt lat="45.870596682652831" lon="8.123478954657912">
        <ele>1650.8399999999999</ele>
        <time>2025-01-05T10:33:50Z</time>
      </trkpt>
      <trkpt lat="45.870518395677209" lon="8.123430758714676">
        <ele>1654.5599999999999</ele>
        <time>2025-01-05T10:34:17Z</time>
      </trkpt>
      <trkpt lat="45.870549911633134" lon="8.123350962996483">
        <ele>1658.0599999999999</ele>
        <time>2025-01-05T10:34:43Z</time>
      </trkpt>
      <trkpt lat="45.870633479207754" lon="8.123258678242564">
        <ele>1661</ele>
        <time>2025-01-05T10:35:08Z</time>
      </trkpt>
      <trkpt lat="45.870713777840137" lon="8.123184330761433">
        <ele>1663.79</ele>
        <time>2025-01-05T10:35:32Z</time>
      </trkpt>
      <trkpt lat="45.870792986825109" lon="8.123086933046579">
        <ele>1665.4400000000001</ele>
        <time>2025-01-05T10:36:00Z</time>
      </trkpt>
      <trkpt lat="45.87085803039372" lon="8.122980147600174">
        <ele>1667.29</ele>
        <time>2025-01-05T10:36:18Z</time>
      </trkpt>
      <trkpt lat="45.8709298633039" lon="8.122881157323718">
        <ele>1667.6900000000001</ele>
        <time>2025-01-05T10:36:32Z</time>
      </trkpt>
      <trkpt lat="45.871011419221759" lon="8.122855927795172">
        <ele>1669.46</ele>
        <time>2025-01-05T10:36:52Z</time>
      </trkpt>
      <trkpt lat="45.870977053418756" lon="8.122768169268966">
        <ele>1672.6400000000001</ele>
        <time>2025-01-05T10:37:15Z</time>
      </trkpt>
      <trkpt lat="45.871006138622761" lon="8.122667418792844">
        <ele>1677.1800000000001</ele>
        <time>2025-01-05T10:37:42Z</time>
      </trkpt>
      <trkpt lat="45.87099339812994" lon="8.122587120160461">
        <ele>1681.3299999999999</ele>
        <time>2025-01-05T10:38:14Z</time>
      </trkpt>
      <trkpt lat="45.870903208851814" lon="8.122567590326071">
        <ele>1684.1700000000001</ele>
        <time>2025-01-05T10:38:43Z</time>
      </trkpt>
      <trkpt lat="45.870818886905909" lon="8.122586533427239">
        <ele>1686.9100000000001</ele>
        <time>2025-01-05T10:39:05Z</time>
      </trkpt>
      <trkpt lat="45.870731547474861" lon="8.122600866481662">
        <ele>1689.4300000000001</ele>
        <time>2025-01-05T10:39:30Z</time>
      </trkpt>
      <trkpt lat="45.870649069547653" lon="8.122604135423899">
        <ele>1692.05</ele>
        <time>2025-01-05T10:39:53Z</time>
      </trkpt>
      <trkpt lat="45.870706653222442" lon="8.122505396604538">
        <ele>1695.47</ele>
        <time>2025-01-05T10:40:26Z</time>
      </trkpt>
      <trkpt lat="45.870745712891221" lon="8.122394923120737">
        <ele>1698.4400000000001</ele>
        <time>2025-01-05T10:40:54Z</time>
      </trkpt>
      <trkpt lat="45.870744371786714" lon="8.122326862066984">
        <ele>1702.03</ele>
        <time>2025-01-05T10:41:39Z</time>
      </trkpt>
      <trkpt lat="45.870754597708583" lon="8.122219238430262">
        <ele>1706.6400000000001</ele>
        <time>2025-01-05T10:42:11Z</time>
      </trkpt>
      <trkpt lat="45.870785526931286" lon="8.122073225677013">
        <ele>1710.02</ele>
        <time>2025-01-05T10:42:50Z</time>
      </trkpt>
      <trkpt lat="45.87070656940341" lon="8.122053192928433">
        <ele>1714.74</ele>
        <time>2025-01-05T10:43:20Z</time>
      </trkpt>
      <trkpt lat="45.870710341259837" lon="8.122017066925764">
        <ele>1717.4400000000001</ele>
        <time>2025-01-05T10:43:42Z</time>
      </trkpt>
      <trkpt lat="45.870699863880873" lon="8.121919920668006">
        <ele>1720.71</ele>
        <time>2025-01-05T10:44:09Z</time>
      </trkpt>
      <trkpt lat="45.870774714276195" lon="8.12186292372644">
        <ele>1722.1900000000001</ele>
        <time>2025-01-05T10:44:49Z</time>
      </trkpt>
      <trkpt lat="45.870703551918268" lon="8.121784888207912">
        <ele>1726.2</ele>
        <time>2025-01-05T10:45:15Z</time>
      </trkpt>
      <trkpt lat="45.870742779225111" lon="8.121690843254328">
        <ele>1730.22</ele>
        <time>2025-01-05T10:45:46Z</time>
      </trkpt>
      <trkpt lat="45.87076767347753" lon="8.121566120535135">
        <ele>1733.6900000000001</ele>
        <time>2025-01-05T10:46:15Z</time>
      </trkpt>
      <trkpt lat="45.870802626013756" lon="8.121536029502749">
        <ele>1737.1600000000001</ele>
        <time>2025-01-05T10:46:45Z</time>
      </trkpt>
      <trkpt lat="45.870842942968011" lon="8.121434105560184">
        <ele>1740.25</ele>
        <time>2025-01-05T10:47:13Z</time>
      </trkpt>
      <trkpt lat="45.87080673314631" lon="8.121377779170871">
        <ele>1743.5699999999999</ele>
        <time>2025-01-05T10:47:39Z</time>
      </trkpt>
      <trkpt lat="45.870792316272855" lon="8.121331008151174">
        <ele>1746.3099999999999</ele>
        <time>2025-01-05T10:47:59Z</time>
      </trkpt>
      <trkpt lat="45.870822742581367" lon="8.121242243796587">
        <ele>1749.23</ele>
        <time>2025-01-05T10:48:25Z</time>
      </trkpt>
      <trkpt lat="45.870777564123273" lon="8.121157335117459">
        <ele>1753.5699999999999</ele>
        <time>2025-01-05T10:48:53Z</time>
      </trkpt>
      <trkpt lat="45.87077890522778" lon="8.121127998456359">
        <ele>1754.9400000000001</ele>
        <time>2025-01-05T10:49:52Z</time>
      </trkpt>
      <trkpt lat="45.870747640728951" lon="8.121206955984235">
        <ele>1753.5999999999999</ele>
        <time>2025-01-05T11:08:55Z</time>
      </trkpt>
      <trkpt lat="45.870735151693225" lon="8.121133530512452">
        <ele>1754.1400000000001</ele>
        <time>2025-01-05T11:10:30Z</time>
      </trkpt>
      <trkpt lat="45.87078963406384" lon="8.12104887329042">
        <ele>1753.45</ele>
        <time>2025-01-05T11:10:47Z</time>
      </trkpt>
      <trkpt lat="45.870817042887211" lon="8.120902273803949">
        <ele>1753.1900000000001</ele>
        <time>2025-01-05T11:10:57Z</time>
      </trkpt>
      <trkpt lat="45.870863227173686" lon="8.120798757299781">
        <ele>1753.1199999999999</ele>
        <time>2025-01-05T11:11:06Z</time>
      </trkpt>
      <trkpt lat="45.870933048427105" lon="8.120705634355545">
        <ele>1752.5599999999999</ele>
        <time>2025-01-05T11:11:15Z</time>
      </trkpt>
      <trkpt lat="45.870992308482528" lon="8.120598345994949">
        <ele>1752.8099999999999</ele>
        <time>2025-01-05T11:11:24Z</time>
      </trkpt>
      <trkpt lat="45.871041174978018" lon="8.120480328798294">
        <ele>1753.9000000000001</ele>
        <time>2025-01-05T11:11:34Z</time>
      </trkpt>
      <trkpt lat="45.871046371757984" lon="8.120332472026348">
        <ele>1755.8199999999999</ele>
        <time>2025-01-05T11:11:47Z</time>
      </trkpt>
      <trkpt lat="45.87106866762042" lon="8.120195595547557">
        <ele>1755.5699999999999</ele>
        <time>2025-01-05T11:11:56Z</time>
      </trkpt>
      <trkpt lat="45.871081491932273" lon="8.120056791231036">
        <ele>1756.4300000000001</ele>
        <time>2025-01-05T11:12:08Z</time>
      </trkpt>
      <trkpt lat="45.871126251295209" lon="8.119941288605332">
        <ele>1757.01</ele>
        <time>2025-01-05T11:12:20Z</time>
      </trkpt>
      <trkpt lat="45.87117469869554" lon="8.119851350784302">
        <ele>1756.71</ele>
        <time>2025-01-05T11:12:35Z</time>
      </trkpt>
      <trkpt lat="45.871254159137607" lon="8.11981606297195">
        <ele>1753.3900000000001</ele>
        <time>2025-01-05T11:12:55Z</time>
      </trkpt>
      <trkpt lat="45.871337810531259" lon="8.119794856756926">
        <ele>1749.53</ele>
        <time>2025-01-05T11:13:12Z</time>
      </trkpt>
      <trkpt lat="45.871417438611388" lon="8.119763173162937">
        <ele>1746.72</ele>
        <time>2025-01-05T11:13:28Z</time>
      </trkpt>
      <trkpt lat="45.871506370604038" lon="8.119765603914857">
        <ele>1743.21</ele>
        <time>2025-01-05T11:13:44Z</time>
      </trkpt>
      <trkpt lat="45.87159588932991" lon="8.119780188426375">
        <ele>1740.8</ele>
        <time>2025-01-05T11:13:58Z</time>
      </trkpt>
      <trkpt lat="45.871681049466133" lon="8.119760407134891">
        <ele>1738.5699999999999</ele>
        <time>2025-01-05T11:14:15Z</time>
      </trkpt>
      <trkpt lat="45.871777106076479" lon="8.11974230222404">
        <ele>1735.9400000000001</ele>
        <time>2025-01-05T11:14:30Z</time>
      </trkpt>
      <trkpt lat="45.871867379173636" lon="8.119714390486479">
        <ele>1733.3</ele>
        <time>2025-01-05T11:14:45Z</time>
      </trkpt>
      <trkpt lat="45.871928231790662" lon="8.119654627516866">
        <ele>1730.3099999999999</ele>
        <time>2025-01-05T11:15:04Z</time>
      </trkpt>
      <trkpt lat="45.872002327814698" lon="8.119597882032394">
        <ele>1727.5799999999999</ele>
        <time>2025-01-05T11:15:23Z</time>
      </trkpt>
      <trkpt lat="45.87206888012588" lon="8.119511967524886">
        <ele>1724.96</ele>
        <time>2025-01-05T11:15:37Z</time>
      </trkpt>
      <trkpt lat="45.872150519862771" lon="8.119455724954605">
        <ele>1722.8199999999999</ele>
        <time>2025-01-05T11:15:50Z</time>
      </trkpt>
      <trkpt lat="45.872221263125539" lon="8.119358075782657">
        <ele>1720.1300000000001</ele>
        <time>2025-01-05T11:16:02Z</time>
      </trkpt>
      <trkpt lat="45.872257808223367" lon="8.119244920089841">
        <ele>1717.8199999999999</ele>
        <time>2025-01-05T11:16:19Z</time>
      </trkpt>
      <trkpt lat="45.872286139056087" lon="8.119108965620399">
        <ele>1715.25</ele>
        <time>2025-01-05T11:16:31Z</time>
      </trkpt>
      <trkpt lat="45.872320253401995" lon="8.118995307013392">
        <ele>1713.3199999999999</ele>
        <time>2025-01-05T11:16:47Z</time>
      </trkpt>
      <trkpt lat="45.872365096583962" lon="8.118915595114231">
        <ele>1709.97</ele>
        <time>2025-01-05T11:17:13Z</time>
      </trkpt>
      <trkpt lat="45.872437600046396" lon="8.118834123015404">
        <ele>1706.8099999999999</ele>
        <time>2025-01-05T11:17:29Z</time>
      </trkpt>
      <trkpt lat="45.872497782111168" lon="8.118734043091536">
        <ele>1705.5699999999999</ele>
        <time>2025-01-05T11:17:43Z</time>
      </trkpt>
      <trkpt lat="45.872553354129195" lon="8.118625832721591">
        <ele>1703.01</ele>
        <time>2025-01-05T11:17:56Z</time>
      </trkpt>
      <trkpt lat="45.872599454596639" lon="8.118505049496889">
        <ele>1700.4200000000001</ele>
        <time>2025-01-05T11:18:10Z</time>
      </trkpt>
      <trkpt lat="45.872649913653731" lon="8.118392815813422">
        <ele>1698.8699999999999</ele>
        <time>2025-01-05T11:18:19Z</time>
      </trkpt>
      <trkpt lat="45.872675310820341" lon="8.118256526067853">
        <ele>1698.1099999999999</ele>
        <time>2025-01-05T11:18:29Z</time>
      </trkpt>
      <trkpt lat="45.872692912817001" lon="8.118115710094571">
        <ele>1696.55</ele>
        <time>2025-01-05T11:18:38Z</time>
      </trkpt>
      <trkpt lat="45.872697522863746" lon="8.117977073416114">
        <ele>1696.3099999999999</ele>
        <time>2025-01-05T11:18:51Z</time>
      </trkpt>
      <trkpt lat="45.872683692723513" lon="8.117842962965369">
        <ele>1697.1099999999999</ele>
        <time>2025-01-05T11:19:02Z</time>
      </trkpt>
      <trkpt lat="45.872640023007989" lon="8.117726286873221">
        <ele>1697.05</ele>
        <time>2025-01-05T11:19:14Z</time>
      </trkpt>
      <trkpt lat="45.872556790709496" lon="8.117695692926645">
        <ele>1694.47</ele>
        <time>2025-01-05T11:19:23Z</time>
      </trkpt>
      <trkpt lat="45.872477162629366" lon="8.117629392072558">
        <ele>1692.4100000000001</ele>
        <time>2025-01-05T11:19:31Z</time>
      </trkpt>
      <trkpt lat="45.872477078810334" lon="8.1176030728966">
        <ele>1692.8299999999999</ele>
        <time>2025-01-05T11:19:51Z</time>
      </trkpt>
      <trkpt lat="45.872567687183619" lon="8.117566192522645">
        <ele>1691.1600000000001</ele>
        <time>2025-01-05T11:20:00Z</time>
      </trkpt>
      <trkpt lat="45.872663324698806" lon="8.117557810619474">
        <ele>1691.0899999999999</ele>
        <time>2025-01-05T11:20:09Z</time>
      </trkpt>
      <trkpt lat="45.87274462915957" lon="8.117577256634831">
        <ele>1691.1600000000001</ele>
        <time>2025-01-05T11:20:26Z</time>
      </trkpt>
      <trkpt lat="45.872817132622004" lon="8.11749997548759">
        <ele>1686.6700000000001</ele>
        <time>2025-01-05T11:20:37Z</time>
      </trkpt>
      <trkpt lat="45.872887624427676" lon="8.117432417348027">
        <ele>1682.6800000000001</ele>
        <time>2025-01-05T11:20:52Z</time>
      </trkpt>
      <trkpt lat="45.872964402660728" lon="8.117370223626494">
        <ele>1679.1900000000001</ele>
        <time>2025-01-05T11:21:07Z</time>
      </trkpt>
      <trkpt lat="45.873036151751876" lon="8.117314819246531">
        <ele>1674.96</ele>
        <time>2025-01-05T11:21:24Z</time>
      </trkpt>
      <trkpt lat="45.873071188107133" lon="8.11724248342216">
        <ele>1671.54</ele>
        <time>2025-01-05T11:21:47Z</time>
      </trkpt>
      <trkpt lat="45.873120138421655" lon="8.117195712402463">
        <ele>1667.6099999999999</ele>
        <time>2025-01-05T11:22:07Z</time>
      </trkpt>
      <trkpt lat="45.873192474246025" lon="8.117120610550046">
        <ele>1664.49</ele>
        <time>2025-01-05T11:22:19Z</time>
      </trkpt>
      <trkpt lat="45.873280735686421" lon="8.117090351879597">
        <ele>1662.2</ele>
        <time>2025-01-05T11:22:33Z</time>
      </trkpt>
      <trkpt lat="45.873362375423312" lon="8.117030672729015">
        <ele>1659.1600000000001</ele>
        <time>2025-01-05T11:22:48Z</time>
      </trkpt>
      <trkpt lat="45.873430939391255" lon="8.116981470957398">
        <ele>1655.98</ele>
        <time>2025-01-05T11:23:03Z</time>
      </trkpt>
      <trkpt lat="45.873516267165542" lon="8.116979543119669">
        <ele>1653.22</ele>
        <time>2025-01-05T11:23:31Z</time>
      </trkpt>
      <trkpt lat="45.87360855191946" lon="8.116950625553727">
        <ele>1650.3099999999999</ele>
        <time>2025-01-05T11:23:45Z</time>
      </trkpt>
      <trkpt lat="45.873701591044664" lon="8.116945177316666">
        <ele>1646.77</ele>
        <time>2025-01-05T11:24:02Z</time>
      </trkpt>
      <trkpt lat="45.873798904940486" lon="8.116948110982776">
        <ele>1644.4200000000001</ele>
        <time>2025-01-05T11:24:14Z</time>
      </trkpt>
      <trkpt lat="45.873880041763186" lon="8.116895221173763">
        <ele>1642.6500000000001</ele>
        <time>2025-01-05T11:24:25Z</time>
      </trkpt>
      <trkpt lat="45.873917508870363" lon="8.116786004975438">
        <ele>1640.3599999999999</ele>
        <time>2025-01-05T11:24:59Z</time>
      </trkpt>
      <trkpt lat="45.873991185799241" lon="8.116765888407826">
        <ele>1637.9100000000001</ele>
        <time>2025-01-05T11:25:13Z</time>
      </trkpt>
      <trkpt lat="45.874058911576867" lon="8.116694558411837">
        <ele>1637.1900000000001</ele>
        <time>2025-01-05T11:25:27Z</time>
      </trkpt>
      <trkpt lat="45.874106185510755" lon="8.116579977795482">
        <ele>1636.0599999999999</ele>
        <time>2025-01-05T11:25:42Z</time>
      </trkpt>
      <trkpt lat="45.874152788892388" lon="8.116453075781465">
        <ele>1634.6500000000001</ele>
        <time>2025-01-05T11:25:55Z</time>
      </trkpt>
      <trkpt lat="45.874219592660666" lon="8.116347882896662">
        <ele>1633.54</ele>
        <time>2025-01-05T11:26:06Z</time>
      </trkpt>
      <trkpt lat="45.874262172728777" lon="8.11613330617547">
        <ele>1631.9100000000001</ele>
        <time>2025-01-05T12:07:41Z</time>
      </trkpt>
      <trkpt lat="45.874269800260663" lon="8.116139089688659">
        <ele>1631.01</ele>
        <time>2025-01-05T12:11:51Z</time>
      </trkpt>
      <trkpt lat="45.874263932928443" lon="8.116134563460946">
        <ele>1625.23</ele>
        <time>2025-01-05T12:29:10Z</time>
      </trkpt>
      <trkpt lat="45.874254880473018" lon="8.116149650886655">
        <ele>1618.5999999999999</ele>
        <time>2025-01-05T13:02:10Z</time>
      </trkpt>
      <trkpt lat="45.874257395043969" lon="8.116158619523048">
        <ele>1617.1400000000001</ele>
        <time>2025-01-05T13:07:11Z</time>
      </trkpt>
      <trkpt lat="45.874258652329445" lon="8.116266494616866">
        <ele>1615.04</ele>
        <time>2025-01-05T13:25:01Z</time>
      </trkpt>
      <trkpt lat="45.874197883531451" lon="8.116406388580799">
        <ele>1617.77</ele>
        <time>2025-01-05T13:30:03Z</time>
      </trkpt>
      <trkpt lat="45.874140048399568" lon="8.116541588678956">
        <ele>1617.74</ele>
        <time>2025-01-05T13:30:14Z</time>
      </trkpt>
      <trkpt lat="45.874079447239637" lon="8.116650637239218">
        <ele>1619.9300000000001</ele>
        <time>2025-01-05T13:30:29Z</time>
      </trkpt>
      <trkpt lat="45.87400283664465" lon="8.116740826517344">
        <ele>1624.1199999999999</ele>
        <time>2025-01-05T13:30:49Z</time>
      </trkpt>
      <trkpt lat="45.87398573756218" lon="8.116843337193131">
        <ele>1627.79</ele>
        <time>2025-01-05T13:31:12Z</time>
      </trkpt>
      <trkpt lat="45.873886914923787" lon="8.11687845736742">
        <ele>1629.0699999999999</ele>
        <time>2025-01-05T13:31:27Z</time>
      </trkpt>
      <trkpt lat="45.873823296278715" lon="8.116981973871589">
        <ele>1632.3900000000001</ele>
        <time>2025-01-05T13:31:48Z</time>
      </trkpt>
      <trkpt lat="45.873733107000589" lon="8.116987003013492">
        <ele>1635.73</ele>
        <time>2025-01-05T13:32:09Z</time>
      </trkpt>
      <trkpt lat="45.873647779226303" lon="8.116978034377098">
        <ele>1639.9300000000001</ele>
        <time>2025-01-05T13:32:37Z</time>
      </trkpt>
      <trkpt lat="45.873552728444338" lon="8.116988092660904">
        <ele>1642.5599999999999</ele>
        <time>2025-01-05T13:32:56Z</time>
      </trkpt>
      <trkpt lat="45.873476369306445" lon="8.117053052410483">
        <ele>1646.5</ele>
        <time>2025-01-05T13:33:21Z</time>
      </trkpt>
      <trkpt lat="45.873379306867719" lon="8.117087334394455">
        <ele>1650</ele>
        <time>2025-01-05T13:33:43Z</time>
      </trkpt>
      <trkpt lat="45.873291380703449" lon="8.117142487317324">
        <ele>1652.4400000000001</ele>
        <time>2025-01-05T13:34:04Z</time>
      </trkpt>
      <trkpt lat="45.873237820342183" lon="8.117214990779758">
        <ele>1655.5599999999999</ele>
        <time>2025-01-05T13:34:25Z</time>
      </trkpt>
      <trkpt lat="45.873176045715809" lon="8.117257738485932">
        <ele>1657.9000000000001</ele>
        <time>2025-01-05T13:34:48Z</time>
      </trkpt>
      <trkpt lat="45.873122317716479" lon="8.117322195321322">
        <ele>1661.53</ele>
        <time>2025-01-05T13:35:12Z</time>
      </trkpt>
      <trkpt lat="45.873056519776583" lon="8.117394782602787">
        <ele>1666.26</ele>
        <time>2025-01-05T13:35:40Z</time>
      </trkpt>
      <trkpt lat="45.872994074597955" lon="8.11747508123517">
        <ele>1670.3399999999999</ele>
        <time>2025-01-05T13:36:07Z</time>
      </trkpt>
      <trkpt lat="45.872974377125502" lon="8.117584213614464">
        <ele>1674.1600000000001</ele>
        <time>2025-01-05T13:36:31Z</time>
      </trkpt>
      <trkpt lat="45.872999355196953" lon="8.117726035416126">
        <ele>1677.5599999999999</ele>
        <time>2025-01-05T13:36:53Z</time>
      </trkpt>
      <trkpt lat="45.872941939160228" lon="8.117810189723969">
        <ele>1680.23</ele>
        <time>2025-01-05T13:37:14Z</time>
      </trkpt>
      <trkpt lat="45.872877314686775" lon="8.117896858602762">
        <ele>1682.73</ele>
        <time>2025-01-05T13:37:34Z</time>
      </trkpt>
      <trkpt lat="45.872834399342537" lon="8.118052594363689">
        <ele>1683.1900000000001</ele>
        <time>2025-01-05T13:37:51Z</time>
      </trkpt>
      <trkpt lat="45.872813779860735" lon="8.118176059797406">
        <ele>1682.9200000000001</ele>
        <time>2025-01-05T13:38:16Z</time>
      </trkpt>
      <trkpt lat="45.872803302481771" lon="8.118317881599069">
        <ele>1684.1900000000001</ele>
        <time>2025-01-05T13:38:29Z</time>
      </trkpt>
      <trkpt lat="45.872776228934526" lon="8.11846598982811">
        <ele>1684.5</ele>
        <time>2025-01-05T13:38:40Z</time>
      </trkpt>
      <trkpt lat="45.872724931687117" lon="8.118573278188705">
        <ele>1686.95</ele>
        <time>2025-01-05T13:38:54Z</time>
      </trkpt>
      <trkpt lat="45.872675227001309" lon="8.118714597076178">
        <ele>1690.01</ele>
        <time>2025-01-05T13:39:11Z</time>
      </trkpt>
      <trkpt lat="45.872607585042715" lon="8.118822807446122">
        <ele>1692.5799999999999</ele>
        <time>2025-01-05T13:39:29Z</time>
      </trkpt>
      <trkpt lat="45.872538601979613" lon="8.118936130777001">
        <ele>1694.0699999999999</ele>
        <time>2025-01-05T13:39:45Z</time>
      </trkpt>
      <trkpt lat="45.87245344184339" lon="8.119005868211389">
        <ele>1698.25</ele>
        <time>2025-01-05T13:40:11Z</time>
      </trkpt>
      <trkpt lat="45.872423099353909" lon="8.119129920378327">
        <ele>1700.97</ele>
        <time>2025-01-05T13:40:33Z</time>
      </trkpt>
      <trkpt lat="45.872405329719186" lon="8.119270903989673">
        <ele>1703.3599999999999</ele>
        <time>2025-01-05T13:40:54Z</time>
      </trkpt>
      <trkpt lat="45.872350763529539" lon="8.119375510141254">
        <ele>1705.6400000000001</ele>
        <time>2025-01-05T13:41:13Z</time>
      </trkpt>
      <trkpt lat="45.872277757152915" lon="8.11946963891387">
        <ele>1708.52</ele>
        <time>2025-01-05T13:41:34Z</time>
      </trkpt>
      <trkpt lat="45.872184718027711" lon="8.119530994445086">
        <ele>1711.01</ele>
        <time>2025-01-05T13:41:53Z</time>
      </trkpt>
      <trkpt lat="45.872108023613691" lon="8.119630822911859">
        <ele>1714.6600000000001</ele>
        <time>2025-01-05T13:42:14Z</time>
      </trkpt>
      <trkpt lat="45.87201121263206" lon="8.11966217122972">
        <ele>1718.46</ele>
        <time>2025-01-05T13:42:36Z</time>
      </trkpt>
      <trkpt lat="45.871909875422716" lon="8.119714977219701">
        <ele>1722.02</ele>
        <time>2025-01-05T13:42:56Z</time>
      </trkpt>
      <trkpt lat="45.871811304241419" lon="8.119761077687144">
        <ele>1724.6900000000001</ele>
        <time>2025-01-05T13:43:18Z</time>
      </trkpt>
      <trkpt lat="45.871708290651441" lon="8.119771052151918">
        <ele>1727.5699999999999</ele>
        <time>2025-01-05T13:43:42Z</time>
      </trkpt>
      <trkpt lat="45.871614832431078" lon="8.119764849543572">
        <ele>1729.5899999999999</ele>
        <time>2025-01-05T13:43:59Z</time>
      </trkpt>
      <trkpt lat="45.871517769992352" lon="8.11976870521903">
        <ele>1733.1800000000001</ele>
        <time>2025-01-05T13:44:21Z</time>
      </trkpt>
      <trkpt lat="45.871421545743942" lon="8.119777841493487">
        <ele>1736.78</ele>
        <time>2025-01-05T13:44:45Z</time>
      </trkpt>
      <trkpt lat="45.871330937370658" lon="8.11980189755559">
        <ele>1739.8599999999999</ele>
        <time>2025-01-05T13:45:08Z</time>
      </trkpt>
      <trkpt lat="45.871246280148625" lon="8.119868282228708">
        <ele>1744.3699999999999</ele>
        <time>2025-01-05T13:45:36Z</time>
      </trkpt>
      <trkpt lat="45.87119372561574" lon="8.119996357709169">
        <ele>1745.49</ele>
        <time>2025-01-05T13:45:50Z</time>
      </trkpt>
      <trkpt lat="45.871166232973337" lon="8.120121667161584">
        <ele>1744.74</ele>
        <time>2025-01-05T13:46:00Z</time>
      </trkpt>
      <trkpt lat="45.871144523844123" lon="8.120253263041377">
        <ele>1743.8900000000001</ele>
        <time>2025-01-05T13:46:09Z</time>
      </trkpt>
      <trkpt lat="45.871135052293539" lon="8.120409920811653">
        <ele>1744.5699999999999</ele>
        <time>2025-01-05T13:46:21Z</time>
      </trkpt>
      <trkpt lat="45.871109319850802" lon="8.120555430650711">
        <ele>1742.71</ele>
        <time>2025-01-05T13:46:30Z</time>
      </trkpt>
      <trkpt lat="45.871043018996716" lon="8.120667664334178">
        <ele>1741.8599999999999</ele>
        <time>2025-01-05T13:46:40Z</time>
      </trkpt>
      <trkpt lat="45.870972443372011" lon="8.120775287970901">
        <ele>1742.02</ele>
        <time>2025-01-05T13:46:49Z</time>
      </trkpt>
      <trkpt lat="45.870902203023434" lon="8.120882576331496">
        <ele>1742.9300000000001</ele>
        <time>2025-01-05T13:47:00Z</time>
      </trkpt>
      <trkpt lat="45.870869094505906" lon="8.121017273515463">
        <ele>1742.4300000000001</ele>
        <time>2025-01-05T13:47:09Z</time>
      </trkpt>
      <trkpt lat="45.870792316272855" lon="8.121124478057027">
        <ele>1743.24</ele>
        <time>2025-01-05T13:47:21Z</time>
      </trkpt>
      <trkpt lat="45.870771864429116" lon="8.121128585189581">
        <ele>1748.5899999999999</ele>
        <time>2025-01-05T13:56:40Z</time>
      </trkpt>
      <trkpt lat="45.870803128927946" lon="8.121254481375217">
        <ele>1744.4400000000001</ele>
        <time>2025-01-05T13:56:54Z</time>
      </trkpt>
      <trkpt lat="45.870800279080868" lon="8.12136210501194">
        <ele>1740.3499999999999</ele>
        <time>2025-01-05T13:57:11Z</time>
      </trkpt>
      <trkpt lat="45.870848139747977" lon="8.121422789990902">
        <ele>1736.3499999999999</ele>
        <time>2025-01-05T13:57:28Z</time>
      </trkpt>
      <trkpt lat="45.870844451710582" lon="8.121513901278377">
        <ele>1732.3800000000001</ele>
        <time>2025-01-05T13:57:47Z</time>
      </trkpt>
      <trkpt lat="45.87082190439105" lon="8.121607443317771">
        <ele>1728.3099999999999</ele>
        <time>2025-01-05T13:58:03Z</time>
      </trkpt>
      <trkpt lat="45.870794914662838" lon="8.12172562815249">
        <ele>1723.5</ele>
        <time>2025-01-05T13:58:20Z</time>
      </trkpt>
      <trkpt lat="45.870734648779035" lon="8.121830401942134">
        <ele>1719.74</ele>
        <time>2025-01-05T13:58:57Z</time>
      </trkpt>
      <trkpt lat="45.870787035673857" lon="8.121897792443633">
        <ele>1715.6199999999999</ele>
        <time>2025-01-05T13:59:16Z</time>
      </trkpt>
      <trkpt lat="45.87073540315032" lon="8.121992088854313">
        <ele>1712.3900000000001</ele>
        <time>2025-01-05T13:59:33Z</time>
      </trkpt>
      <trkpt lat="45.870738252997398" lon="8.122110944241285">
        <ele>1707.6500000000001</ele>
        <time>2025-01-05T13:59:50Z</time>
      </trkpt>
      <trkpt lat="45.870814779773355" lon="8.122130474075675">
        <ele>1702.3900000000001</ele>
        <time>2025-01-05T14:00:10Z</time>
      </trkpt>
      <trkpt lat="45.870793908834457" lon="8.122263662517071">
        <ele>1698.8900000000001</ele>
        <time>2025-01-05T14:00:47Z</time>
      </trkpt>
      <trkpt lat="45.870818635448813" lon="8.122366508468986">
        <ele>1693.8</ele>
        <time>2025-01-05T14:01:07Z</time>
      </trkpt>
      <trkpt lat="45.870783934369683" lon="8.122472120448947">
        <ele>1690.0999999999999</ele>
        <time>2025-01-05T14:01:23Z</time>
      </trkpt>
      <trkpt lat="45.87072467431426" lon="8.122575050219894">
        <ele>1687.48</ele>
        <time>2025-01-05T14:01:38Z</time>
      </trkpt>
      <trkpt lat="45.870736241340637" lon="8.122637076303363">
        <ele>1684.2</ele>
        <time>2025-01-05T14:01:54Z</time>
      </trkpt>
      <trkpt lat="45.870823077857494" lon="8.122597178444266">
        <ele>1682.6500000000001</ele>
        <time>2025-01-05T14:02:08Z</time>
      </trkpt>
      <trkpt lat="45.870909914374352" lon="8.122586533427239">
        <ele>1679.4200000000001</ele>
        <time>2025-01-05T14:02:21Z</time>
      </trkpt>
      <trkpt lat="45.870991470292211" lon="8.122613104060292">
        <ele>1675.8800000000001</ele>
        <time>2025-01-05T14:02:36Z</time>
      </trkpt>
      <trkpt lat="45.871069673448801" lon="8.122648978605866">
        <ele>1673.52</ele>
        <time>2025-01-05T14:02:51Z</time>
      </trkpt>
      <trkpt lat="45.87105643004179" lon="8.122762972488999">
        <ele>1669.3599999999999</ele>
        <time>2025-01-05T14:03:12Z</time>
      </trkpt>
      <trkpt lat="45.871044360101223" lon="8.122875206172466">
        <ele>1665.4200000000001</ele>
        <time>2025-01-05T14:03:28Z</time>
      </trkpt>
      <trkpt lat="45.870956601575017" lon="8.122926587238908">
        <ele>1662.74</ele>
        <time>2025-01-05T14:03:44Z</time>
      </trkpt>
      <trkpt lat="45.870893150568008" lon="8.123029014095664">
        <ele>1662.01</ele>
        <time>2025-01-05T14:03:56Z</time>
      </trkpt>
      <trkpt lat="45.870823413133621" lon="8.1231255736202">
        <ele>1660.5599999999999</ele>
        <time>2025-01-05T14:04:09Z</time>
      </trkpt>
      <trkpt lat="45.870743449777365" lon="8.123214254155755">
        <ele>1659.3900000000001</ele>
        <time>2025-01-05T14:04:21Z</time>
      </trkpt>
      <trkpt lat="45.870665833353996" lon="8.123304778710008">
        <ele>1656.21</ele>
        <time>2025-01-05T14:04:36Z</time>
      </trkpt>
      <trkpt lat="45.870595509186387" lon="8.123386753723025">
        <ele>1653.8399999999999</ele>
        <time>2025-01-05T14:04:49Z</time>
      </trkpt>
      <trkpt lat="45.870563657954335" lon="8.123464537784457">
        <ele>1650.03</ele>
        <time>2025-01-05T14:05:07Z</time>
      </trkpt>
      <trkpt lat="45.87064890190959" lon="8.123493622988462">
        <ele>1646.04</ele>
        <time>2025-01-05T14:05:23Z</time>
      </trkpt>
      <trkpt lat="45.870727188885212" lon="8.123557241633534">
        <ele>1641.4000000000001</ele>
        <time>2025-01-05T14:05:43Z</time>
      </trkpt>
      <trkpt lat="45.870780246332288" lon="8.123613903298974">
        <ele>1637.47</ele>
        <time>2025-01-05T14:06:01Z</time>
      </trkpt>
      <trkpt lat="45.870861550793052" lon="8.123611975461245">
        <ele>1634.0799999999999</ele>
        <time>2025-01-05T14:06:18Z</time>
      </trkpt>
      <trkpt lat="45.870856773108244" lon="8.12373929657042">
        <ele>1629.2</ele>
        <time>2025-01-05T14:06:39Z</time>
      </trkpt>
      <trkpt lat="45.870830370113254" lon="8.123828731477261">
        <ele>1624.97</ele>
        <time>2025-01-05T14:06:58Z</time>
      </trkpt>
      <trkpt lat="45.870914356783032" lon="8.123860582709312">
        <ele>1621.3900000000001</ele>
        <time>2025-01-05T14:07:15Z</time>
      </trkpt>
      <trkpt lat="45.870966911315918" lon="8.123883465304971">
        <ele>1618.54</ele>
        <time>2025-01-05T14:07:28Z</time>
      </trkpt>
      <trkpt lat="45.870964899659157" lon="8.123989496380091">
        <ele>1615.54</ele>
        <time>2025-01-05T14:07:43Z</time>
      </trkpt>
      <trkpt lat="45.870990380644798" lon="8.12403341755271">
        <ele>1612.52</ele>
        <time>2025-01-05T14:07:57Z</time>
      </trkpt>
      <trkpt lat="45.870942939072847" lon="8.124094353988767">
        <ele>1610.02</ele>
        <time>2025-01-05T14:08:09Z</time>
      </trkpt>
      <trkpt lat="45.87102122604847" lon="8.124128971248865">
        <ele>1605.74</ele>
        <time>2025-01-05T14:08:26Z</time>
      </trkpt>
      <trkpt lat="45.871047042310238" lon="8.124244809150696">
        <ele>1599.3499999999999</ele>
        <time>2025-01-05T14:08:49Z</time>
      </trkpt>
      <trkpt lat="45.871100183576345" lon="8.124284623190761">
        <ele>1594.8699999999999</ele>
        <time>2025-01-05T14:09:10Z</time>
      </trkpt>
      <trkpt lat="45.871180649846792" lon="8.124334663152695">
        <ele>1588.3900000000001</ele>
        <time>2025-01-05T14:09:31Z</time>
      </trkpt>
      <trkpt lat="45.871190121397376" lon="8.124437928199768">
        <ele>1584.5899999999999</ele>
        <time>2025-01-05T14:09:51Z</time>
      </trkpt>
      <trkpt lat="45.871228678151965" lon="8.12449517659843">
        <ele>1580.75</ele>
        <time>2025-01-05T14:10:16Z</time>
      </trkpt>
      <trkpt lat="45.871208477765322" lon="8.124561477452517">
        <ele>1578.1099999999999</ele>
        <time>2025-01-05T14:10:30Z</time>
      </trkpt>
      <trkpt lat="45.87114485912025" lon="8.12459927983582">
        <ele>1577.8699999999999</ele>
        <time>2025-01-05T14:10:46Z</time>
      </trkpt>
      <trkpt lat="45.871120970696211" lon="8.124577151611447">
        <ele>1577.4400000000001</ele>
        <time>2025-01-05T14:11:45Z</time>
      </trkpt>
      <trkpt lat="45.871036984026432" lon="8.124604979529977">
        <ele>1575.5999999999999</ele>
        <time>2025-01-05T14:11:57Z</time>
      </trkpt>
      <trkpt lat="45.871068835258484" lon="8.124673878774047">
        <ele>1572.3800000000001</ele>
        <time>2025-01-05T14:12:11Z</time>
      </trkpt>
      <trkpt lat="45.871142093092203" lon="8.124752752482891">
        <ele>1569.54</ele>
        <time>2025-01-05T14:12:25Z</time>
      </trkpt>
      <trkpt lat="45.871190121397376" lon="8.124821651726961">
        <ele>1566.8699999999999</ele>
        <time>2025-01-05T14:12:40Z</time>
      </trkpt>
      <trkpt lat="45.871159695088863" lon="8.124885270372033">
        <ele>1564.3299999999999</ele>
        <time>2025-01-05T14:12:57Z</time>
      </trkpt>
      <trkpt lat="45.871125580742955" lon="8.124963557347655">
        <ele>1559.8</ele>
        <time>2025-01-05T14:13:18Z</time>
      </trkpt>
      <trkpt lat="45.871079815551639" lon="8.125050729140639">
        <ele>1556.1700000000001</ele>
        <time>2025-01-05T14:13:37Z</time>
      </trkpt>
      <trkpt lat="45.870983842760324" lon="8.125091046094894">
        <ele>1554.98</ele>
        <time>2025-01-05T14:13:43Z</time>
      </trkpt>
      <trkpt lat="45.87091620080173" lon="8.125118454918265">
        <ele>1552.75</ele>
        <time>2025-01-05T14:14:00Z</time>
      </trkpt>
      <trkpt lat="45.870853755623102" lon="8.125195149332285">
        <ele>1550.5799999999999</ele>
        <time>2025-01-05T14:14:16Z</time>
      </trkpt>
      <trkpt lat="45.870791226625443" lon="8.125315848737955">
        <ele>1548.04</ele>
        <time>2025-01-05T14:14:41Z</time>
      </trkpt>
      <trkpt lat="45.870784185826778" lon="8.12543235719204">
        <ele>1546.1600000000001</ele>
        <time>2025-01-05T14:14:52Z</time>
      </trkpt>
      <trkpt lat="45.87072467431426" lon="8.125518187880516">
        <ele>1544.21</ele>
        <time>2025-01-05T14:15:15Z</time>
      </trkpt>
      <trkpt lat="45.870774546638131" lon="8.125615837052465">
        <ele>1542.23</ele>
        <time>2025-01-05T14:15:24Z</time>
      </trkpt>
      <trkpt lat="45.870814109221101" lon="8.125732094049454">
        <ele>1540.45</ele>
        <time>2025-01-05T14:15:34Z</time>
      </trkpt>
      <trkpt lat="45.870863059535623" lon="8.125822618603706">
        <ele>1536.76</ele>
        <time>2025-01-05T14:15:49Z</time>
      </trkpt>
      <trkpt lat="45.870940424501896" lon="8.125847009941936">
        <ele>1534.21</ele>
        <time>2025-01-05T14:16:01Z</time>
      </trkpt>
      <trkpt lat="45.870980406180024" lon="8.125924039632082">
        <ele>1530.51</ele>
        <time>2025-01-05T14:16:17Z</time>
      </trkpt>
      <trkpt lat="45.870944196358323" lon="8.126016911119223">
        <ele>1529.3699999999999</ele>
        <time>2025-01-05T14:17:11Z</time>
      </trkpt>
      <trkpt lat="45.870928019285202" lon="8.125982545316219">
        <ele>1530.51</ele>
        <time>2025-01-05T14:19:57Z</time>
      </trkpt>
      <trkpt lat="45.870941346511245" lon="8.126020599156618">
        <ele>1530.4300000000001</ele>
        <time>2025-01-05T14:21:02Z</time>
      </trkpt>
      <trkpt lat="45.870935143902898" lon="8.126012803986669">
        <ele>1530.8199999999999</ele>
        <time>2025-01-05T14:23:27Z</time>
      </trkpt>
      <trkpt lat="45.870957272127271" lon="8.126007188111544">
        <ele>1531.24</ele>
        <time>2025-01-05T14:24:38Z</time>
      </trkpt>
      <trkpt lat="45.870934389531612" lon="8.126013223081827">
        <ele>1532.46</ele>
        <time>2025-01-05T14:25:58Z</time>
      </trkpt>
      <trkpt lat="45.870905891060829" lon="8.126142891123891">
        <ele>1530.04</ele>
        <time>2025-01-05T14:26:16Z</time>
      </trkpt>
      <trkpt lat="45.870841015130281" lon="8.126251352950931">
        <ele>1527.5</ele>
        <time>2025-01-05T14:26:30Z</time>
      </trkpt>
      <trkpt lat="45.870786113664508" lon="8.126363251358271">
        <ele>1524.96</ele>
        <time>2025-01-05T14:26:42Z</time>
      </trkpt>
      <trkpt lat="45.870710927993059" lon="8.126434162259102">
        <ele>1522.9200000000001</ele>
        <time>2025-01-05T14:26:54Z</time>
      </trkpt>
      <trkpt lat="45.870622666552663" lon="8.126507420092821">
        <ele>1520.4400000000001</ele>
        <time>2025-01-05T14:27:07Z</time>
      </trkpt>
      <trkpt lat="45.870540104806423" lon="8.126558298245072">
        <ele>1520</ele>
        <time>2025-01-05T14:27:19Z</time>
      </trkpt>
      <trkpt lat="45.870551001280546" lon="8.126700622960925">
        <ele>1518.28</ele>
        <time>2025-01-05T14:27:32Z</time>
      </trkpt>
      <trkpt lat="45.870540859177709" lon="8.126812940463424">
        <ele>1515.95</ele>
        <time>2025-01-05T14:27:56Z</time>
      </trkpt>
      <trkpt lat="45.870535327121615" lon="8.126953421160579">
        <ele>1513.22</ele>
        <time>2025-01-05T14:28:08Z</time>
      </trkpt>
      <trkpt lat="45.870561311021447" lon="8.127043107524514">
        <ele>1510.01</ele>
        <time>2025-01-05T14:28:43Z</time>
      </trkpt>
      <trkpt lat="45.870600454509258" lon="8.127168081700802">
        <ele>1507.1099999999999</ele>
        <time>2025-01-05T14:28:56Z</time>
      </trkpt>
      <trkpt lat="45.870614955201745" lon="8.127307472750545">
        <ele>1504.5799999999999</ele>
        <time>2025-01-05T14:29:09Z</time>
      </trkpt>
      <trkpt lat="45.870632473379374" lon="8.127444768324494">
        <ele>1502.24</ele>
        <time>2025-01-05T14:29:20Z</time>
      </trkpt>
      <trkpt lat="45.870624929666519" lon="8.127578208222985">
        <ele>1500.78</ele>
        <time>2025-01-05T14:29:30Z</time>
      </trkpt>
      <trkpt lat="45.870616799220443" lon="8.127716928720474">
        <ele>1498.3499999999999</ele>
        <time>2025-01-05T14:29:58Z</time>
      </trkpt>
      <trkpt lat="45.870603807270527" lon="8.127852631732822">
        <ele>1496.3800000000001</ele>
        <time>2025-01-05T14:30:11Z</time>
      </trkpt>
      <trkpt lat="45.870595928281546" lon="8.128005601465702">
        <ele>1494.6199999999999</ele>
        <time>2025-01-05T14:30:24Z</time>
      </trkpt>
      <trkpt lat="45.870651751756668" lon="8.128044409677386">
        <ele>1491.5699999999999</ele>
        <time>2025-01-05T14:30:41Z</time>
      </trkpt>
      <trkpt lat="45.870728949084878" lon="8.127936786040664">
        <ele>1487.5699999999999</ele>
        <time>2025-01-05T14:30:59Z</time>
      </trkpt>
      <trkpt lat="45.870781671255827" lon="8.127813991159201">
        <ele>1485.4400000000001</ele>
        <time>2025-01-05T14:31:12Z</time>
      </trkpt>
      <trkpt lat="45.870860125869513" lon="8.127733692526817">
        <ele>1482.1900000000001</ele>
        <time>2025-01-05T14:31:29Z</time>
      </trkpt>
      <trkpt lat="45.870937407016754" lon="8.127649035304785">
        <ele>1478.6500000000001</ele>
        <time>2025-01-05T14:31:52Z</time>
      </trkpt>
      <trkpt lat="45.870985602959991" lon="8.127641659229994">
        <ele>1476.9100000000001</ele>
        <time>2025-01-05T14:33:55Z</time>
      </trkpt>
      <trkpt lat="45.871007479727268" lon="8.127706870436668">
        <ele>1476.53</ele>
        <time>2025-01-05T14:35:25Z</time>
      </trkpt>
      <trkpt lat="45.870999600738287" lon="8.127839807420969">
        <ele>1473.4100000000001</ele>
        <time>2025-01-05T14:35:37Z</time>
      </trkpt>
      <trkpt lat="45.871039582416415" lon="8.127929242327809">
        <ele>1469.8299999999999</ele>
        <time>2025-01-05T14:35:49Z</time>
      </trkpt>
      <trkpt lat="45.871094902977347" lon="8.128006355836988">
        <ele>1466.27</ele>
        <time>2025-01-05T14:36:02Z</time>
      </trkpt>
      <trkpt lat="45.87109649553895" lon="8.128110039979219">
        <ele>1464.9400000000001</ele>
        <time>2025-01-05T14:36:23Z</time>
      </trkpt>
      <trkpt lat="45.871100015938282" lon="8.128246245905757">
        <ele>1464.6800000000001</ele>
        <time>2025-01-05T14:36:36Z</time>
      </trkpt>
      <trkpt lat="45.871121557429433" lon="8.128378679975867">
        <ele>1461.03</ele>
        <time>2025-01-05T14:36:46Z</time>
      </trkpt>
      <trkpt lat="45.871133040636778" lon="8.128503821790218">
        <ele>1458.0999999999999</ele>
        <time>2025-01-05T14:36:54Z</time>
      </trkpt>
      <trkpt lat="45.871140919625759" lon="8.128645643591881">
        <ele>1455.3</ele>
        <time>2025-01-05T14:37:05Z</time>
      </trkpt>
      <trkpt lat="45.871137734502554" lon="8.128775395452976">
        <ele>1452.76</ele>
        <time>2025-01-05T14:37:17Z</time>
      </trkpt>
      <trkpt lat="45.871173776686192" lon="8.128925934433937">
        <ele>1449.55</ele>
        <time>2025-01-05T14:37:32Z</time>
      </trkpt>
      <trkpt lat="45.87120202369988" lon="8.129056356847286">
        <ele>1446</ele>
        <time>2025-01-05T14:37:45Z</time>
      </trkpt>
      <trkpt lat="45.871285172179341" lon="8.129034144803882">
        <ele>1442.6600000000001</ele>
        <time>2025-01-05T14:38:01Z</time>
      </trkpt>
      <trkpt lat="45.871337056159973" lon="8.128905147314072">
        <ele>1439.8299999999999</ele>
        <time>2025-01-05T14:38:16Z</time>
      </trkpt>
      <trkpt lat="45.871418528258801" lon="8.128767684102058">
        <ele>1436.51</ele>
        <time>2025-01-05T14:38:31Z</time>
      </trkpt>
      <trkpt lat="45.871481476351619" lon="8.128666430711746">
        <ele>1433.52</ele>
        <time>2025-01-05T14:38:45Z</time>
      </trkpt>
      <trkpt lat="45.871475441381335" lon="8.128775898367167">
        <ele>1429.55</ele>
        <time>2025-01-05T14:39:03Z</time>
      </trkpt>
      <trkpt lat="45.871468316763639" lon="8.128928616642952">
        <ele>1426.1500000000001</ele>
        <time>2025-01-05T14:39:17Z</time>
      </trkpt>
      <trkpt lat="45.871479213237762" lon="8.129066918045282">
        <ele>1423.9100000000001</ele>
        <time>2025-01-05T14:39:29Z</time>
      </trkpt>
      <trkpt lat="45.871450882405043" lon="8.129197508096695">
        <ele>1421.3399999999999</ele>
        <time>2025-01-05T14:39:42Z</time>
      </trkpt>
      <trkpt lat="45.871433364227414" lon="8.129343772307038">
        <ele>1418.1500000000001</ele>
        <time>2025-01-05T14:39:55Z</time>
      </trkpt>
      <trkpt lat="45.871485751122236" lon="8.1293716840446">
        <ele>1414.0999999999999</ele>
        <time>2025-01-05T14:40:12Z</time>
      </trkpt>
      <trkpt lat="45.871471418067813" lon="8.1295046210289">
        <ele>1410.1500000000001</ele>
        <time>2025-01-05T14:40:27Z</time>
      </trkpt>
      <trkpt lat="45.871489774435759" lon="8.129645856097341">
        <ele>1406.5899999999999</ele>
        <time>2025-01-05T14:40:42Z</time>
      </trkpt>
      <trkpt lat="45.871532270684838" lon="8.12975867651403">
        <ele>1403.47</ele>
        <time>2025-01-05T14:40:55Z</time>
      </trkpt>
      <trkpt lat="45.871591866016388" lon="8.129845345392823">
        <ele>1399.55</ele>
        <time>2025-01-05T14:41:11Z</time>
      </trkpt>
      <trkpt lat="45.871698735281825" lon="8.129862193018198">
        <ele>1396.0799999999999</ele>
        <time>2025-01-05T14:41:25Z</time>
      </trkpt>
      <trkpt lat="45.87179378606379" lon="8.12987644225359">
        <ele>1394.3199999999999</ele>
        <time>2025-01-05T14:41:44Z</time>
      </trkpt>
      <trkpt lat="45.871821530163288" lon="8.12999764457345">
        <ele>1391.26</ele>
        <time>2025-01-05T14:41:56Z</time>
      </trkpt>
      <trkpt lat="45.87178205139935" lon="8.130143908783793">
        <ele>1388.8900000000001</ele>
        <time>2025-01-05T14:42:10Z</time>
      </trkpt>
      <trkpt lat="45.871844664216042" lon="8.130212891846895">
        <ele>1384.9200000000001</ele>
        <time>2025-01-05T14:42:28Z</time>
      </trkpt>
      <trkpt lat="45.871949270367622" lon="8.13022336922586">
        <ele>1381.6600000000001</ele>
        <time>2025-01-05T14:42:44Z</time>
      </trkpt>
      <trkpt lat="45.871994029730558" lon="8.130348594859242">
        <ele>1378.1600000000001</ele>
        <time>2025-01-05T14:42:58Z</time>
      </trkpt>
      <trkpt lat="45.87203468196094" lon="8.13048136420548">
        <ele>1375.55</ele>
        <time>2025-01-05T14:43:14Z</time>
      </trkpt>
      <trkpt lat="45.872042644768953" lon="8.130635172128677">
        <ele>1373.4400000000001</ele>
        <time>2025-01-05T14:43:26Z</time>
      </trkpt>
      <trkpt lat="45.872051194310188" lon="8.130774898454547">
        <ele>1370.6199999999999</ele>
        <time>2025-01-05T14:43:39Z</time>
      </trkpt>
      <trkpt lat="45.872131744399667" lon="8.130887635052204">
        <ele>1366.8099999999999</ele>
        <time>2025-01-05T14:43:55Z</time>
      </trkpt>
      <trkpt lat="45.872168289497495" lon="8.130989475175738">
        <ele>1363.77</ele>
        <time>2025-01-05T14:44:06Z</time>
      </trkpt>
      <trkpt lat="45.872168205678463" lon="8.131148479878902">
        <ele>1361.8099999999999</ele>
        <time>2025-01-05T14:44:18Z</time>
      </trkpt>
      <trkpt lat="45.872174743562937" lon="8.131280997768045">
        <ele>1359.05</ele>
        <time>2025-01-05T14:44:31Z</time>
      </trkpt>
      <trkpt lat="45.872208271175623" lon="8.131425753235817">
        <ele>1356.5</ele>
        <time>2025-01-05T14:44:44Z</time>
      </trkpt>
      <trkpt lat="45.872216317802668" lon="8.131576459854841">
        <ele>1354.8199999999999</ele>
        <time>2025-01-05T14:44:55Z</time>
      </trkpt>
      <trkpt lat="45.872170384973288" lon="8.131738314405084">
        <ele>1352.6800000000001</ele>
        <time>2025-01-05T14:45:06Z</time>
      </trkpt>
      <trkpt lat="45.872165691107512" lon="8.131890278309584">
        <ele>1349.8900000000001</ele>
        <time>2025-01-05T14:45:19Z</time>
      </trkpt>
      <trkpt lat="45.872224196791649" lon="8.13197560608387">
        <ele>1346.3499999999999</ele>
        <time>2025-01-05T14:45:36Z</time>
      </trkpt>
      <trkpt lat="45.872251857072115" lon="8.132051713764668">
        <ele>1341.95</ele>
        <time>2025-01-05T14:45:56Z</time>
      </trkpt>
      <trkpt lat="45.872323019430041" lon="8.132024891674519">
        <ele>1339.5799999999999</ele>
        <time>2025-01-05T14:46:17Z</time>
      </trkpt>
      <trkpt lat="45.872440198436379" lon="8.132014498114586">
        <ele>1334.54</ele>
        <time>2025-01-05T14:46:34Z</time>
      </trkpt>
      <trkpt lat="45.872528292238712" lon="8.132025646045804">
        <ele>1329.3399999999999</ele>
        <time>2025-01-05T14:46:51Z</time>
      </trkpt>
      <trkpt lat="45.872644213959575" lon="8.131898660212755">
        <ele>1327.79</ele>
        <time>2025-01-05T14:47:07Z</time>
      </trkpt>
      <trkpt lat="45.872713280841708" lon="8.131824899464846">
        <ele>1324.1500000000001</ele>
        <time>2025-01-05T14:47:20Z</time>
      </trkpt>
      <trkpt lat="45.872790310531855" lon="8.13182020559907">
        <ele>1320.6800000000001</ele>
        <time>2025-01-05T14:47:37Z</time>
      </trkpt>
      <trkpt lat="45.87286775931716" lon="8.131877789273858">
        <ele>1317.0899999999999</ele>
        <time>2025-01-05T14:47:50Z</time>
      </trkpt>
      <trkpt lat="45.872913524508476" lon="8.131958171725273">
        <ele>1313.95</ele>
        <time>2025-01-05T14:48:03Z</time>
      </trkpt>
      <trkpt lat="45.872945711016655" lon="8.132079876959324">
        <ele>1310.7</ele>
        <time>2025-01-05T14:48:12Z</time>
      </trkpt>
      <trkpt lat="45.87297186255455" lon="8.132210802286863">
        <ele>1307.8699999999999</ele>
        <time>2025-01-05T14:48:22Z</time>
      </trkpt>
      <trkpt lat="45.873023997992277" lon="8.132316581904888">
        <ele>1304.22</ele>
        <time>2025-01-05T14:48:31Z</time>
      </trkpt>
      <trkpt lat="45.873090550303459" lon="8.132412722334266">
        <ele>1301.3599999999999</ele>
        <time>2025-01-05T14:48:40Z</time>
      </trkpt>
      <trkpt lat="45.873155510053039" lon="8.132498050108552">
        <ele>1298.4200000000001</ele>
        <time>2025-01-05T14:48:50Z</time>
      </trkpt>
      <trkpt lat="45.873159365728498" lon="8.132476843893528">
        <ele>1296.4100000000001</ele>
        <time>2025-01-05T14:50:01Z</time>
      </trkpt>
      <trkpt lat="45.873245196416974" lon="8.132519340142608">
        <ele>1296.23</ele>
        <time>2025-01-05T14:51:42Z</time>
      </trkpt>
      <trkpt lat="45.873248465359211" lon="8.132507354021072">
        <ele>1296.22</ele>
        <time>2025-01-05T14:52:40Z</time>
      </trkpt>
      <trkpt lat="45.873226756229997" lon="8.132487488910556">
        <ele>1296.1600000000001</ele>
        <time>2025-01-05T14:53:28Z</time>
      </trkpt>
      <trkpt lat="45.873224912211299" lon="8.132445998489857">
        <ele>1296.47</ele>
        <time>2025-01-05T14:54:14Z</time>
      </trkpt>
      <trkpt lat="45.873244190588593" lon="8.132499055936933">
        <ele>1296.9300000000001</ele>
        <time>2025-01-05T14:55:16Z</time>
      </trkpt>
      <trkpt lat="45.873195324093103" lon="8.132498720660806">
        <ele>1297.3099999999999</ele>
        <time>2025-01-05T14:55:54Z</time>
      </trkpt>
      <trkpt lat="45.873215943574905" lon="8.132526380941272">
        <ele>1296.8299999999999</ele>
        <time>2025-01-05T14:56:37Z</time>
      </trkpt>
      <trkpt lat="45.87321518920362" lon="8.132479190826416">
        <ele>1296.8199999999999</ele>
        <time>2025-01-05T14:57:14Z</time>
      </trkpt>
      <trkpt lat="45.873200185596943" lon="8.132468964904547">
        <ele>1296.9300000000001</ele>
        <time>2025-01-05T14:57:51Z</time>
      </trkpt>
      <trkpt lat="45.87314729578793" lon="8.132462846115232">
        <ele>1296.97</ele>
        <time>2025-01-05T14:58:34Z</time>
      </trkpt>
      <trkpt lat="45.873187948018312" lon="8.132489081472158">
        <ele>1296.6900000000001</ele>
        <time>2025-01-05T14:59:16Z</time>
      </trkpt>
      <trkpt lat="45.873222565278411" lon="8.132456559687853">
        <ele>1296.6199999999999</ele>
        <time>2025-01-05T14:59:56Z</time>
      </trkpt>
      <trkpt lat="45.873224828392267" lon="8.132427306845784">
        <ele>1296.49</ele>
        <time>2025-01-05T15:00:49Z</time>
      </trkpt>
      <trkpt lat="45.873210830613971" lon="8.132448513060808">
        <ele>1296.95</ele>
        <time>2025-01-05T15:01:53Z</time>
      </trkpt>
      <trkpt lat="45.873174453154206" lon="8.132447423413396">
        <ele>1296.52</ele>
        <time>2025-01-05T15:02:43Z</time>
      </trkpt>
      <trkpt lat="45.873220888897777" lon="8.132478771731257">
        <ele>1296.8199999999999</ele>
        <time>2025-01-05T15:03:27Z</time>
      </trkpt>
      <trkpt lat="45.873222313821316" lon="8.132479190826416">
        <ele>1296.8900000000001</ele>
        <time>2025-01-05T15:04:10Z</time>
      </trkpt>
      <trkpt lat="45.873224325478077" lon="8.132469383999705">
        <ele>1296.76</ele>
        <time>2025-01-05T15:04:53Z</time>
      </trkpt>
      <trkpt lat="45.873245783150196" lon="8.132467875257134">
        <ele>1296.4100000000001</ele>
        <time>2025-01-05T15:05:28Z</time>
      </trkpt>
      <trkpt lat="45.873214351013303" lon="8.132456475868821">
        <ele>1296.3099999999999</ele>
        <time>2025-01-05T15:06:03Z</time>
      </trkpt>
      <trkpt lat="45.873170429840684" lon="8.132488494738936">
        <ele>1297.26</ele>
        <time>2025-01-05T15:06:35Z</time>
      </trkpt>
      <trkpt lat="45.87317269295454" lon="8.132535181939602">
        <ele>1297.1600000000001</ele>
        <time>2025-01-05T15:07:22Z</time>
      </trkpt>
      <trkpt lat="45.873159533366561" lon="8.132585473358631">
        <ele>1295.73</ele>
        <time>2025-01-05T15:07:44Z</time>
      </trkpt>
      <trkpt lat="45.873160539194942" lon="8.13269728794694">
        <ele>1292.79</ele>
        <time>2025-01-05T15:07:56Z</time>
      </trkpt>
      <trkpt lat="45.873189205303788" lon="8.132825866341591">
        <ele>1290.99</ele>
        <time>2025-01-05T15:08:08Z</time>
      </trkpt>
      <trkpt lat="45.873203538358212" lon="8.132967185229063">
        <ele>1289.01</ele>
        <time>2025-01-05T15:08:21Z</time>
      </trkpt>
      <trkpt lat="45.873248381540179" lon="8.133100373670459">
        <ele>1285.8900000000001</ele>
        <time>2025-01-05T15:08:35Z</time>
      </trkpt>
      <trkpt lat="45.873274952173233" lon="8.133219815790653">
        <ele>1284.3</ele>
        <time>2025-01-05T15:08:46Z</time>
      </trkpt>
      <trkpt lat="45.873305713757873" lon="8.133340934291482">
        <ele>1281.48</ele>
        <time>2025-01-05T15:08:55Z</time>
      </trkpt>
      <trkpt lat="45.873315604403615" lon="8.133483845740557">
        <ele>1279.5999999999999</ele>
        <time>2025-01-05T15:09:06Z</time>
      </trkpt>
      <trkpt lat="45.87331778369844" lon="8.133617118000984">
        <ele>1277.74</ele>
        <time>2025-01-05T15:09:18Z</time>
      </trkpt>
      <trkpt lat="45.873309737071395" lon="8.133758520707488">
        <ele>1275.3</ele>
        <time>2025-01-05T15:09:33Z</time>
      </trkpt>
      <trkpt lat="45.873284758999944" lon="8.133900677785277">
        <ele>1272.0599999999999</ele>
        <time>2025-01-05T15:09:44Z</time>
      </trkpt>
      <trkpt lat="45.873265815898776" lon="8.134030681103468">
        <ele>1270.2</ele>
        <time>2025-01-05T15:09:54Z</time>
      </trkpt>
      <trkpt lat="45.873239664360881" lon="8.134159091860056">
        <ele>1267.5799999999999</ele>
        <time>2025-01-05T15:10:04Z</time>
      </trkpt>
      <trkpt lat="45.873194569721818" lon="8.134262776002288">
        <ele>1265.4300000000001</ele>
        <time>2025-01-05T15:10:17Z</time>
      </trkpt>
      <trkpt lat="45.873108487576246" lon="8.134289011359215">
        <ele>1264.29</ele>
        <time>2025-01-05T15:10:29Z</time>
      </trkpt>
      <trkpt lat="45.873005473986268" lon="8.134324550628662">
        <ele>1262.99</ele>
        <time>2025-01-05T15:10:41Z</time>
      </trkpt>
      <trkpt lat="45.872943783178926" lon="8.134432174265385">
        <ele>1261.5699999999999</ele>
        <time>2025-01-05T15:10:52Z</time>
      </trkpt>
      <trkpt lat="45.872906735166907" lon="8.134561087936163">
        <ele>1259.8599999999999</ele>
        <time>2025-01-05T15:11:03Z</time>
      </trkpt>
      <trkpt lat="45.872892234474421" lon="8.134688409045339">
        <ele>1257.47</ele>
        <time>2025-01-05T15:11:13Z</time>
      </trkpt>
      <trkpt lat="45.872860047966242" lon="8.134815311059356">
        <ele>1255.6400000000001</ele>
        <time>2025-01-05T15:11:26Z</time>
      </trkpt>
      <trkpt lat="45.872789053246379" lon="8.134913463145495">
        <ele>1253.3599999999999</ele>
        <time>2025-01-05T15:11:38Z</time>
      </trkpt>
      <trkpt lat="45.872718812897801" lon="8.134996946901083">
        <ele>1252</ele>
        <time>2025-01-05T15:11:46Z</time>
      </trkpt>
      <trkpt lat="45.872677825391293" lon="8.135124603286386">
        <ele>1251.48</ele>
        <time>2025-01-05T15:11:59Z</time>
      </trkpt>
      <trkpt lat="45.872627198696136" lon="8.135240525007248">
        <ele>1250.8299999999999</ele>
        <time>2025-01-05T15:12:09Z</time>
      </trkpt>
      <trkpt lat="45.872596940025687" lon="8.135371031239629">
        <ele>1250.1800000000001</ele>
        <time>2025-01-05T15:12:20Z</time>
      </trkpt>
      <trkpt lat="45.872499877586961" lon="8.135406486690044">
        <ele>1249.46</ele>
        <time>2025-01-05T15:12:36Z</time>
      </trkpt>
      <trkpt lat="45.872438605874777" lon="8.135506063699722">
        <ele>1249.47</ele>
        <time>2025-01-05T15:12:47Z</time>
      </trkpt>
      <trkpt lat="45.872448580339551" lon="8.135630870237947">
        <ele>1249.6400000000001</ele>
        <time>2025-01-05T15:12:58Z</time>
      </trkpt>
      <trkpt lat="45.872488142922521" lon="8.135764226317406">
        <ele>1247.8099999999999</ele>
        <time>2025-01-05T15:13:11Z</time>
      </trkpt>
      <trkpt lat="45.872513288632035" lon="8.135883500799537">
        <ele>1245.74</ele>
        <time>2025-01-05T15:13:28Z</time>
      </trkpt>
      <trkpt lat="45.872479090467095" lon="8.135999003425241">
        <ele>1242.8299999999999</ele>
        <time>2025-01-05T15:13:44Z</time>
      </trkpt>
      <trkpt lat="45.872510019689798" lon="8.136122468858957">
        <ele>1240.0999999999999</ele>
        <time>2025-01-05T15:13:59Z</time>
      </trkpt>
      <trkpt lat="45.872579170390964" lon="8.136228080838919">
        <ele>1237.3699999999999</ele>
        <time>2025-01-05T15:14:11Z</time>
      </trkpt>
      <trkpt lat="45.872618481516838" lon="8.136365544050932">
        <ele>1235.0799999999999</ele>
        <time>2025-01-05T15:14:24Z</time>
      </trkpt>
      <trkpt lat="45.872688973322511" lon="8.136459169909358">
        <ele>1232.3399999999999</ele>
        <time>2025-01-05T15:14:36Z</time>
      </trkpt>
      <trkpt lat="45.872774552553892" lon="8.136494792997837">
        <ele>1229.3599999999999</ele>
        <time>2025-01-05T15:14:51Z</time>
      </trkpt>
      <trkpt lat="45.872852839529514" lon="8.136546928435564">
        <ele>1226.8599999999999</ele>
        <time>2025-01-05T15:15:06Z</time>
      </trkpt>
      <trkpt lat="45.87294839322567" lon="8.136606272310019">
        <ele>1225.0799999999999</ele>
        <time>2025-01-05T15:15:21Z</time>
      </trkpt>
      <trkpt lat="45.873059956356883" lon="8.136692522093654">
        <ele>1222.6500000000001</ele>
        <time>2025-01-05T15:15:36Z</time>
      </trkpt>
      <trkpt lat="45.873144194483757" lon="8.136653043329716">
        <ele>1218.9000000000001</ele>
        <time>2025-01-05T15:15:58Z</time>
      </trkpt>
      <trkpt lat="45.873153833672404" lon="8.136476436629891">
        <ele>1215.23</ele>
        <time>2025-01-05T15:16:15Z</time>
      </trkpt>
      <trkpt lat="45.87311158888042" lon="8.13628968782723">
        <ele>1212.74</ele>
        <time>2025-01-05T15:16:27Z</time>
      </trkpt>
      <trkpt lat="45.873252404853702" lon="8.136279797181487">
        <ele>1210.3099999999999</ele>
        <time>2025-01-05T15:16:49Z</time>
      </trkpt>
      <trkpt lat="45.873321471735835" lon="8.13630779273808">
        <ele>1208.72</ele>
        <time>2025-01-05T15:17:06Z</time>
      </trkpt>
      <trkpt lat="45.873443260788918" lon="8.136347439140081">
        <ele>1205.97</ele>
        <time>2025-01-05T15:17:20Z</time>
      </trkpt>
      <trkpt lat="45.873446865007281" lon="8.136462522670627">
        <ele>1206.6400000000001</ele>
        <time>2025-01-05T15:17:33Z</time>
      </trkpt>
      <trkpt lat="45.873489025980234" lon="8.136461852118373">
        <ele>1203.1300000000001</ele>
        <time>2025-01-05T15:17:59Z</time>
      </trkpt>
      <trkpt lat="45.873546022921801" lon="8.136561261489987">
        <ele>1198.98</ele>
        <time>2025-01-05T15:18:22Z</time>
      </trkpt>
      <trkpt lat="45.873566558584571" lon="8.136697383597493">
        <ele>1195.73</ele>
        <time>2025-01-05T15:18:39Z</time>
      </trkpt>
      <trkpt lat="45.873603355139494" lon="8.136811126023531">
        <ele>1192.04</ele>
        <time>2025-01-05T15:18:56Z</time>
      </trkpt>
      <trkpt lat="45.873679295182228" lon="8.136777430772781">
        <ele>1187.9300000000001</ele>
        <time>2025-01-05T15:19:15Z</time>
      </trkpt>
      <trkpt lat="45.873742662370205" lon="8.136784303933382">
        <ele>1184.7</ele>
        <time>2025-01-05T15:19:31Z</time>
      </trkpt>
      <trkpt lat="45.873797060921788" lon="8.136667627841234">
        <ele>1181.0799999999999</ele>
        <time>2025-01-05T15:19:45Z</time>
      </trkpt>
      <trkpt lat="45.873867217451334" lon="8.136505857110024">
        <ele>1178.8199999999999</ele>
        <time>2025-01-05T15:19:57Z</time>
      </trkpt>
      <trkpt lat="45.873909629881382" lon="8.136323215439916">
        <ele>1178.2</ele>
        <time>2025-01-05T15:20:08Z</time>
      </trkpt>
      <trkpt lat="45.874000070616603" lon="8.136290106922388">
        <ele>1176.8599999999999</ele>
        <time>2025-01-05T15:20:24Z</time>
      </trkpt>
      <trkpt lat="45.874072657898068" lon="8.13637719489634">
        <ele>1178.51</ele>
        <time>2025-01-05T15:20:37Z</time>
      </trkpt>
      <trkpt lat="45.874153627082705" lon="8.13644022680819">
        <ele>1180.0799999999999</ele>
        <time>2025-01-05T15:20:51Z</time>
      </trkpt>
      <trkpt lat="45.874187992885709" lon="8.136512562632561">
        <ele>1181.03</ele>
        <time>2025-01-05T15:21:02Z</time>
      </trkpt>
      <trkpt lat="45.874199140816927" lon="8.136620437726378">
        <ele>1180.29</ele>
        <time>2025-01-05T15:21:11Z</time>
      </trkpt>
      <trkpt lat="45.874235099181533" lon="8.136707274243236">
        <ele>1176.1900000000001</ele>
        <time>2025-01-05T15:21:30Z</time>
      </trkpt>
      <trkpt lat="45.874268794432282" lon="8.13687164336443">
        <ele>1172.49</ele>
        <time>2025-01-05T15:21:44Z</time>
      </trkpt>
      <trkpt lat="45.874278182163835" lon="8.137000305578113">
        <ele>1170.7</ele>
        <time>2025-01-05T15:21:54Z</time>
      </trkpt>
      <trkpt lat="45.874305926263332" lon="8.137132655829191">
        <ele>1170.8499999999999</ele>
        <time>2025-01-05T15:22:04Z</time>
      </trkpt>
      <trkpt lat="45.874324953183532" lon="8.137278836220503">
        <ele>1171.47</ele>
        <time>2025-01-05T15:22:22Z</time>
      </trkpt>
      <trkpt lat="45.874350685626268" lon="8.137412862852216">
        <ele>1169.2</ele>
        <time>2025-01-05T15:22:36Z</time>
      </trkpt>
      <trkpt lat="45.874416818842292" lon="8.137574885040522">
        <ele>1166.97</ele>
        <time>2025-01-05T15:22:50Z</time>
      </trkpt>
      <trkpt lat="45.874476414173841" lon="8.13772919587791">
        <ele>1165.22</ele>
        <time>2025-01-05T15:23:03Z</time>
      </trkpt>
      <trkpt lat="45.874514551833272" lon="8.137847213074565">
        <ele>1162.51</ele>
        <time>2025-01-05T15:23:17Z</time>
      </trkpt>
      <trkpt lat="45.874511366710067" lon="8.137925332412124">
        <ele>1160.05</ele>
        <time>2025-01-05T15:23:35Z</time>
      </trkpt>
      <trkpt lat="45.874449927359819" lon="8.137852996587753">
        <ele>1157.6700000000001</ele>
        <time>2025-01-05T15:23:51Z</time>
      </trkpt>
      <trkpt lat="45.874395277351141" lon="8.137769009917975">
        <ele>1154.8199999999999</ele>
        <time>2025-01-05T15:24:03Z</time>
      </trkpt>
      <trkpt lat="45.874283714219928" lon="8.137705810368061">
        <ele>1152.3599999999999</ele>
        <time>2025-01-05T15:24:16Z</time>
      </trkpt>
      <trkpt lat="45.874266112223268" lon="8.137828269973397">
        <ele>1149.3900000000001</ele>
        <time>2025-01-05T15:24:33Z</time>
      </trkpt>
      <trkpt lat="45.874301735311747" lon="8.137936815619469">
        <ele>1147.28</ele>
        <time>2025-01-05T15:24:51Z</time>
      </trkpt>
      <trkpt lat="45.874351942911744" lon="8.138065058737993">
        <ele>1145.47</ele>
        <time>2025-01-05T15:25:04Z</time>
      </trkpt>
      <trkpt lat="45.874389242380857" lon="8.138207467272878">
        <ele>1142.98</ele>
        <time>2025-01-05T15:25:20Z</time>
      </trkpt>
      <trkpt lat="45.874419081956148" lon="8.138294136151671">
        <ele>1140.5</ele>
        <time>2025-01-05T15:25:39Z</time>
      </trkpt>
      <trkpt lat="45.874430062249303" lon="8.138412656262517">
        <ele>1138.75</ele>
        <time>2025-01-05T15:26:06Z</time>
      </trkpt>
      <trkpt lat="45.874458393082023" lon="8.138527320697904">
        <ele>1136.22</ele>
        <time>2025-01-05T15:26:25Z</time>
      </trkpt>
      <trkpt lat="45.874493345618248" lon="8.138665622100234">
        <ele>1133.79</ele>
        <time>2025-01-05T15:26:37Z</time>
      </trkpt>
      <trkpt lat="45.87453106418252" lon="8.138803672045469">
        <ele>1131.6800000000001</ele>
        <time>2025-01-05T15:26:48Z</time>
      </trkpt>
      <trkpt lat="45.874547157436609" lon="8.138923617079854">
        <ele>1130.27</ele>
        <time>2025-01-05T15:27:01Z</time>
      </trkpt>
      <trkpt lat="45.874563585966825" lon="8.139066277071834">
        <ele>1128.01</ele>
        <time>2025-01-05T15:27:12Z</time>
      </trkpt>
      <trkpt lat="45.874533830210567" lon="8.139188652858138">
        <ele>1126.6800000000001</ele>
        <time>2025-01-05T15:27:24Z</time>
      </trkpt>
      <trkpt lat="45.874522179365158" lon="8.139316309243441">
        <ele>1124.7</ele>
        <time>2025-01-05T15:27:37Z</time>
      </trkpt>
      <trkpt lat="45.874452861025929" lon="8.139432482421398">
        <ele>1121.9100000000001</ele>
        <time>2025-01-05T15:27:55Z</time>
      </trkpt>
      <trkpt lat="45.874349344521761" lon="8.139440193772316">
        <ele>1119.1900000000001</ele>
        <time>2025-01-05T15:28:17Z</time>
      </trkpt>
      <trkpt lat="45.874298634007573" lon="8.139409767463803">
        <ele>1118.74</ele>
        <time>2025-01-05T15:28:33Z</time>
      </trkpt>
      <trkpt lat="45.874276421964169" lon="8.139473553746939">
        <ele>1118.97</ele>
        <time>2025-01-05T15:29:18Z</time>
      </trkpt>
      <trkpt lat="45.874230908229947" lon="8.139510098844767">
        <ele>1118.76</ele>
        <time>2025-01-05T15:29:44Z</time>
      </trkpt>
      <trkpt lat="45.87417927570641" lon="8.139604981988668">
        <ele>1118.25</ele>
        <time>2025-01-05T15:29:59Z</time>
      </trkpt>
      <trkpt lat="45.874121692031622" lon="8.139719143509865">
        <ele>1118.26</ele>
        <time>2025-01-05T15:30:17Z</time>
      </trkpt>
      <trkpt lat="45.874098557978868" lon="8.139846296980977">
        <ele>1114.6800000000001</ele>
        <time>2025-01-05T15:30:31Z</time>
      </trkpt>
      <trkpt lat="45.874084560200572" lon="8.139974623918533">
        <ele>1112.5699999999999</ele>
        <time>2025-01-05T15:30:44Z</time>
      </trkpt>
      <trkpt lat="45.874007530510426" lon="8.140085767954588">
        <ele>1112.52</ele>
        <time>2025-01-05T15:30:59Z</time>
      </trkpt>
      <trkpt lat="45.873940559104085" lon="8.140197163447738">
        <ele>1109.79</ele>
        <time>2025-01-05T15:31:13Z</time>
      </trkpt>
      <trkpt lat="45.873940894380212" lon="8.140305038541555">
        <ele>1106.3499999999999</ele>
        <time>2025-01-05T15:31:29Z</time>
      </trkpt>
      <trkpt lat="45.874023288488388" lon="8.14021778292954">
        <ele>1103.4100000000001</ele>
        <time>2025-01-05T15:31:45Z</time>
      </trkpt>
      <trkpt lat="45.874133175238967" lon="8.140153661370277">
        <ele>1101.8099999999999</ele>
        <time>2025-01-05T15:31:59Z</time>
      </trkpt>
      <trkpt lat="45.874202074483037" lon="8.140241336077452">
        <ele>1102.73</ele>
        <time>2025-01-05T15:32:12Z</time>
      </trkpt>
      <trkpt lat="45.874196626245975" lon="8.140399418771267">
        <ele>1101.04</ele>
        <time>2025-01-05T15:32:23Z</time>
      </trkpt>
      <trkpt lat="45.874167457222939" lon="8.140573594719172">
        <ele>1100.26</ele>
        <time>2025-01-05T15:32:33Z</time>
      </trkpt>
      <trkpt lat="45.874200565740466" lon="8.140730503946543">
        <ele>1100.1099999999999</ele>
        <time>2025-01-05T15:32:42Z</time>
      </trkpt>
      <trkpt lat="45.874247923493385" lon="8.140854723751545">
        <ele>1100.5999999999999</ele>
        <time>2025-01-05T15:32:52Z</time>
      </trkpt>
      <trkpt lat="45.874257311224937" lon="8.140966286882758">
        <ele>1101.5999999999999</ele>
        <time>2025-01-05T15:33:04Z</time>
      </trkpt>
      <trkpt lat="45.874283295124769" lon="8.141129650175571">
        <ele>1100.4300000000001</ele>
        <time>2025-01-05T15:33:14Z</time>
      </trkpt>
      <trkpt lat="45.874319337308407" lon="8.141281027346849">
        <ele>1098.5</ele>
        <time>2025-01-05T15:33:26Z</time>
      </trkpt>
      <trkpt lat="45.874335179105401" lon="8.141414131969214">
        <ele>1096.05</ele>
        <time>2025-01-05T15:33:36Z</time>
      </trkpt>
      <trkpt lat="45.874346913769841" lon="8.141554780304432">
        <ele>1093.8199999999999</ele>
        <time>2025-01-05T15:33:46Z</time>
      </trkpt>
      <trkpt lat="45.874362923204899" lon="8.141687549650669">
        <ele>1091.9300000000001</ele>
        <time>2025-01-05T15:33:56Z</time>
      </trkpt>
      <trkpt lat="45.874360576272011" lon="8.141822582110763">
        <ele>1089.2</ele>
        <time>2025-01-05T15:34:07Z</time>
      </trkpt>
      <trkpt lat="45.874377256259322" lon="8.141980497166514">
        <ele>1086.3</ele>
        <time>2025-01-05T15:34:18Z</time>
      </trkpt>
      <trkpt lat="45.874403575435281" lon="8.142107734456658">
        <ele>1083.8199999999999</ele>
        <time>2025-01-05T15:34:28Z</time>
      </trkpt>
      <trkpt lat="45.874415226280689" lon="8.142232792451978">
        <ele>1081.2</ele>
        <time>2025-01-05T15:34:39Z</time>
      </trkpt>
      <trkpt lat="45.874438025057316" lon="8.142351312562823">
        <ele>1078.0999999999999</ele>
        <time>2025-01-05T15:34:51Z</time>
      </trkpt>
      <trkpt lat="45.874427547678351" lon="8.142485423013568">
        <ele>1074.55</ele>
        <time>2025-01-05T15:35:03Z</time>
      </trkpt>
      <trkpt lat="45.874448418617249" lon="8.142614588141441">
        <ele>1070.74</ele>
        <time>2025-01-05T15:35:16Z</time>
      </trkpt>
      <trkpt lat="45.874469038099051" lon="8.142718188464642">
        <ele>1067.52</ele>
        <time>2025-01-05T15:35:28Z</time>
      </trkpt>
      <trkpt lat="45.874490663409233" lon="8.142836708575487">
        <ele>1064.3499999999999</ele>
        <time>2025-01-05T15:35:38Z</time>
      </trkpt>
      <trkpt lat="45.87450030259788" lon="8.14300543628633">
        <ele>1060.79</ele>
        <time>2025-01-05T15:35:52Z</time>
      </trkpt>
      <trkpt lat="45.874528801068664" lon="8.143135355785489">
        <ele>1057.8399999999999</ele>
        <time>2025-01-05T15:36:06Z</time>
      </trkpt>
      <trkpt lat="45.874557215720415" lon="8.143258988857269">
        <ele>1055.72</ele>
        <time>2025-01-05T15:36:19Z</time>
      </trkpt>
      <trkpt lat="45.87462343275547" lon="8.143407348543406">
        <ele>1053.71</ele>
        <time>2025-01-05T15:36:31Z</time>
      </trkpt>
      <trkpt lat="45.874684285372496" lon="8.143523018807173">
        <ele>1052.3499999999999</ele>
        <time>2025-01-05T15:36:43Z</time>
      </trkpt>
      <trkpt lat="45.874724686145782" lon="8.143666600808501">
        <ele>1050.96</ele>
        <time>2025-01-05T15:36:54Z</time>
      </trkpt>
      <trkpt lat="45.874747987836599" lon="8.143830383196473">
        <ele>1048.3800000000001</ele>
        <time>2025-01-05T15:37:09Z</time>
      </trkpt>
      <trkpt lat="45.874709514901042" lon="8.143954100087285">
        <ele>1045.4100000000001</ele>
        <time>2025-01-05T15:37:25Z</time>
      </trkpt>
      <trkpt lat="45.87465176358819" lon="8.144088964909315">
        <ele>1042.48</ele>
        <time>2025-01-05T15:37:41Z</time>
      </trkpt>
      <trkpt lat="45.874613123014569" lon="8.144228104501963">
        <ele>1039.99</ele>
        <time>2025-01-05T15:37:59Z</time>
      </trkpt>
      <trkpt lat="45.87463072501123" lon="8.144348887726665">
        <ele>1039.1700000000001</ele>
        <time>2025-01-05T15:38:12Z</time>
      </trkpt>
      <trkpt lat="45.874664084985852" lon="8.14448643475771">
        <ele>1039.1700000000001</ele>
        <time>2025-01-05T15:38:25Z</time>
      </trkpt>
      <trkpt lat="45.874613709747791" lon="8.144631693139672">
        <ele>1038.0599999999999</ele>
        <time>2025-01-05T15:38:39Z</time>
      </trkpt>
      <trkpt lat="45.874635586515069" lon="8.144802516326308">
        <ele>1037.74</ele>
        <time>2025-01-05T15:38:53Z</time>
      </trkpt>
      <trkpt lat="45.874729128554463" lon="8.144933190196753">
        <ele>1037.3199999999999</ele>
        <time>2025-01-05T15:39:05Z</time>
      </trkpt>
      <trkpt lat="45.874776318669319" lon="8.145105186849833">
        <ele>1035.6300000000001</ele>
        <time>2025-01-05T15:39:17Z</time>
      </trkpt>
      <trkpt lat="45.874804481863976" lon="8.145270561799407">
        <ele>1033</ele>
        <time>2025-01-05T15:39:26Z</time>
      </trkpt>
      <trkpt lat="45.874835830181837" lon="8.145449766889215">
        <ele>1029.8900000000001</ele>
        <time>2025-01-05T15:39:34Z</time>
      </trkpt>
      <trkpt lat="45.874841697514057" lon="8.145583458244801">
        <ele>1027.1300000000001</ele>
        <time>2025-01-05T15:39:41Z</time>
      </trkpt>
      <trkpt lat="45.87478319182992" lon="8.145683705806732">
        <ele>1024.1400000000001</ele>
        <time>2025-01-05T15:39:48Z</time>
      </trkpt>
      <trkpt lat="45.874771792441607" lon="8.145825024694204">
        <ele>1021.8</ele>
        <time>2025-01-05T15:39:56Z</time>
      </trkpt>
      <trkpt lat="45.874780593439937" lon="8.145962907001376">
        <ele>1019.0599999999999</ele>
        <time>2025-01-05T15:40:07Z</time>
      </trkpt>
      <trkpt lat="45.874843876808882" lon="8.146055778488517">
        <ele>1016.3</ele>
        <time>2025-01-05T15:40:23Z</time>
      </trkpt>
      <trkpt lat="45.874889390543103" lon="8.146139346063137">
        <ele>1015.04</ele>
        <time>2025-01-05T15:40:36Z</time>
      </trkpt>
      <trkpt lat="45.874872542917728" lon="8.146293153986335">
        <ele>1014.41</ele>
        <time>2025-01-05T15:40:48Z</time>
      </trkpt>
      <trkpt lat="45.874870028346777" lon="8.146438915282488">
        <ele>1012.74</ele>
        <time>2025-01-05T15:40:57Z</time>
      </trkpt>
      <trkpt lat="45.874884780496359" lon="8.146576043218374">
        <ele>1012.8200000000001</ele>
        <time>2025-01-05T15:41:07Z</time>
      </trkpt>
      <trkpt lat="45.874891737475991" lon="8.146721385419369">
        <ele>1011.3</ele>
        <time>2025-01-05T15:41:17Z</time>
      </trkpt>
      <trkpt lat="45.874858964234591" lon="8.146839654073119">
        <ele>1008.8200000000001</ele>
        <time>2025-01-05T15:41:27Z</time>
      </trkpt>
      <trkpt lat="45.874861478805542" lon="8.146992875263095">
        <ele>1006.67</ele>
        <time>2025-01-05T15:41:37Z</time>
      </trkpt>
      <trkpt lat="45.874796854332089" lon="8.147075353190303">
        <ele>1005.73</ele>
        <time>2025-01-05T15:41:52Z</time>
      </trkpt>
      <trkpt lat="45.874823676422238" lon="8.147182641550899">
        <ele>1005.7</ele>
        <time>2025-01-05T15:42:10Z</time>
      </trkpt>
      <trkpt lat="45.874822586774826" lon="8.147180965170264">
        <ele>1005.22</ele>
        <time>2025-01-05T15:42:35Z</time>
      </trkpt>
      <trkpt lat="45.874865418300033" lon="8.14716411754489">
        <ele>1003.49</ele>
        <time>2025-01-05T15:43:04Z</time>
      </trkpt>
      <trkpt lat="45.87492979131639" lon="8.147170152515173">
        <ele>1004.54</ele>
        <time>2025-01-05T15:43:46Z</time>
      </trkpt>
      <trkpt lat="45.875012017786503" lon="8.14727651886642">
        <ele>1003.25</ele>
        <time>2025-01-05T15:43:57Z</time>
      </trkpt>
      <trkpt lat="45.875084605067968" lon="8.147392021492124">
        <ele>1003.71</ele>
        <time>2025-01-05T15:44:07Z</time>
      </trkpt>
      <trkpt lat="45.875068511813879" lon="8.14752085134387">
        <ele>1003.92</ele>
        <time>2025-01-05T15:44:17Z</time>
      </trkpt>
      <trkpt lat="45.875032972544432" lon="8.14766887575388">
        <ele>1004.01</ele>
        <time>2025-01-05T15:44:28Z</time>
      </trkpt>
      <trkpt lat="45.875014280900359" lon="8.14782083965838">
        <ele>1004.11</ele>
        <time>2025-01-05T15:44:42Z</time>
      </trkpt>
      <trkpt lat="45.875066416338086" lon="8.148009013384581">
        <ele>1006.14</ele>
        <time>2025-01-05T15:44:56Z</time>
      </trkpt>
      <trkpt lat="45.87517412379384" lon="8.148073889315128">
        <ele>1005.5</ele>
        <time>2025-01-05T15:45:08Z</time>
      </trkpt>
      <trkpt lat="45.875275461003184" lon="8.148082019761205">
        <ele>1005.63</ele>
        <time>2025-01-05T15:45:18Z</time>
      </trkpt>
      <trkpt lat="45.875383671373129" lon="8.148119319230318">
        <ele>1005.55</ele>
        <time>2025-01-05T15:45:28Z</time>
      </trkpt>
      <trkpt lat="45.87549171410501" lon="8.148137843236327">
        <ele>1005.53</ele>
        <time>2025-01-05T15:45:38Z</time>
      </trkpt>
      <trkpt lat="45.875596404075623" lon="8.14815066754818">
        <ele>1005.75</ele>
        <time>2025-01-05T15:45:47Z</time>
      </trkpt>
      <trkpt lat="45.875713750720024" lon="8.148155026137829">
        <ele>1005.11</ele>
        <time>2025-01-05T15:45:57Z</time>
      </trkpt>
      <trkpt lat="45.875814585015178" lon="8.148184530436993">
        <ele>1004.34</ele>
        <time>2025-01-05T15:46:06Z</time>
      </trkpt>
      <trkpt lat="45.875949198380113" lon="8.14819416962564">
        <ele>1003.84</ele>
        <time>2025-01-05T15:46:16Z</time>
      </trkpt>
      <trkpt lat="45.876071406528354" lon="8.148192577064037">
        <ele>1003.08</ele>
        <time>2025-01-05T15:46:25Z</time>
      </trkpt>
      <trkpt lat="45.87618506513536" lon="8.148201629519463">
        <ele>1002.54</ele>
        <time>2025-01-05T15:46:34Z</time>
      </trkpt>
      <trkpt lat="45.876305177807808" lon="8.148213196545839">
        <ele>1002.38</ele>
        <time>2025-01-05T15:46:44Z</time>
      </trkpt>
      <trkpt lat="45.876413136720657" lon="8.148227445781231">
        <ele>1001.87</ele>
        <time>2025-01-05T15:46:55Z</time>
      </trkpt>
      <trkpt lat="45.876559903845191" lon="8.148243371397257">
        <ele>1000.6799999999999</ele>
        <time>2025-01-05T15:47:08Z</time>
      </trkpt>
      <trkpt lat="45.876685464754701" lon="8.148221662268043">
        <ele>1000.74</ele>
        <time>2025-01-05T15:47:20Z</time>
      </trkpt>
      <trkpt lat="45.87681102566421" lon="8.148245383054018">
        <ele>1000.34</ele>
        <time>2025-01-05T15:47:31Z</time>
      </trkpt>
      <trkpt lat="45.876971539109945" lon="8.148211855441332">
        <ele>999.61000000000001</ele>
        <time>2025-01-05T15:47:43Z</time>
      </trkpt>
      <trkpt lat="45.877090059220791" lon="8.148246975615621">
        <ele>999.25</ele>
        <time>2025-01-05T15:47:54Z</time>
      </trkpt>
      <trkpt lat="45.877199359238148" lon="8.148290980607271">
        <ele>998.70000000000005</ele>
        <time>2025-01-05T15:48:05Z</time>
      </trkpt>
      <trkpt lat="45.877307904884219" lon="8.148348480463028">
        <ele>997.89999999999998</ele>
        <time>2025-01-05T15:48:16Z</time>
      </trkpt>
      <trkpt lat="45.877414019778371" lon="8.148446632549167">
        <ele>996.70000000000005</ele>
        <time>2025-01-05T15:48:28Z</time>
      </trkpt>
      <trkpt lat="45.877549219876528" lon="8.148515364155173">
        <ele>995.91999999999996</ele>
        <time>2025-01-05T15:48:44Z</time>
      </trkpt>
      <trkpt lat="45.877678887918591" lon="8.148518800735474">
        <ele>994.90999999999997</ele>
        <time>2025-01-05T15:48:55Z</time>
      </trkpt>
      <trkpt lat="45.877798497676849" lon="8.148530870676041">
        <ele>994.28999999999996</ele>
        <time>2025-01-05T15:49:06Z</time>
      </trkpt>
      <trkpt lat="45.877903522923589" lon="8.148595746606588">
        <ele>992.97000000000003</ele>
        <time>2025-01-05T15:49:16Z</time>
      </trkpt>
      <trkpt lat="45.878024473786354" lon="8.148591555655003">
        <ele>992.25</ele>
        <time>2025-01-05T15:49:28Z</time>
      </trkpt>
      <trkpt lat="45.878138886764646" lon="8.148601111024618">
        <ele>991.91999999999996</ele>
        <time>2025-01-05T15:49:39Z</time>
      </trkpt>
      <trkpt lat="45.878250114619732" lon="8.148592226207256">
        <ele>991.38999999999999</ele>
        <time>2025-01-05T15:49:49Z</time>
      </trkpt>
      <trkpt lat="45.8783760946244" lon="8.148599518463016">
        <ele>990.41999999999996</ele>
        <time>2025-01-05T15:50:00Z</time>
      </trkpt>
      <trkpt lat="45.878481287509203" lon="8.148665484040976">
        <ele>989.63999999999999</ele>
        <time>2025-01-05T15:50:13Z</time>
      </trkpt>
      <trkpt lat="45.878569046035409" lon="8.148691803216934">
        <ele>988.78999999999996</ele>
        <time>2025-01-05T15:50:25Z</time>
      </trkpt>
      <trkpt lat="45.878642052412033" lon="8.148755421862006">
        <ele>988.47000000000003</ele>
        <time>2025-01-05T15:50:35Z</time>
      </trkpt>
      <trkpt lat="45.878757638856769" lon="8.148887017741799">
        <ele>987.91999999999996</ele>
        <time>2025-01-05T15:50:45Z</time>
      </trkpt>
      <trkpt lat="45.878840703517199" lon="8.148902608081698">
        <ele>987.82000000000005</ele>
        <time>2025-01-05T15:50:55Z</time>
      </trkpt>
      <trkpt lat="45.878947656601667" lon="8.148849047720432">
        <ele>986.61000000000001</ele>
        <time>2025-01-05T15:51:09Z</time>
      </trkpt>
      <trkpt lat="45.879059555009007" lon="8.148682499304414">
        <ele>985.90999999999997</ele>
        <time>2025-01-05T15:51:23Z</time>
      </trkpt>
      <trkpt lat="45.879194168373942" lon="8.148567080497742">
        <ele>985.80999999999995</ele>
        <time>2025-01-05T15:51:37Z</time>
      </trkpt>
      <trkpt lat="45.879358621314168" lon="8.148512179031968">
        <ele>985.29999999999995</ele>
        <time>2025-01-05T15:51:49Z</time>
      </trkpt>
      <trkpt lat="45.879521230235696" lon="8.148505473509431">
        <ele>984.23000000000002</ele>
        <time>2025-01-05T15:52:00Z</time>
      </trkpt>
      <trkpt lat="45.87948527187109" lon="8.148586358875036">
        <ele>985.74000000000001</ele>
        <time>2025-01-05T15:52:13Z</time>
      </trkpt>
      <trkpt lat="45.879384605214" lon="8.148698844015598">
        <ele>987.30999999999995</ele>
        <time>2025-01-05T15:52:27Z</time>
      </trkpt>
      <trkpt lat="45.879398267716169" lon="8.148864386603236">
        <ele>988.89999999999998</ele>
        <time>2025-01-05T15:52:43Z</time>
      </trkpt>
      <trkpt lat="45.87943690828979" lon="8.148970250040293">
        <ele>990.10000000000002</ele>
        <time>2025-01-05T15:52:57Z</time>
      </trkpt>
      <trkpt lat="45.879506058990955" lon="8.149116178974509">
        <ele>991.73000000000002</ele>
        <time>2025-01-05T15:53:12Z</time>
      </trkpt>
      <trkpt lat="45.879616783931851" lon="8.149205110967159">
        <ele>993.03999999999996</ele>
        <time>2025-01-05T15:53:26Z</time>
      </trkpt>
      <trkpt lat="45.879693310707808" lon="8.149289349094033">
        <ele>993.74000000000001</ele>
        <time>2025-01-05T15:53:39Z</time>
      </trkpt>
      <trkpt lat="45.879835300147533" lon="8.149370485916734">
        <ele>993.88999999999999</ele>
        <time>2025-01-05T15:53:52Z</time>
      </trkpt>
      <trkpt lat="45.879923477768898" lon="8.149462854489684">
        <ele>993.87</ele>
        <time>2025-01-05T15:54:02Z</time>
      </trkpt>
      <trkpt lat="45.879985000938177" lon="8.149592690169811">
        <ele>994.59000000000003</ele>
        <time>2025-01-05T15:54:12Z</time>
      </trkpt>
      <trkpt lat="45.880044847726822" lon="8.14976166933775">
        <ele>994.75999999999999</ele>
        <time>2025-01-05T15:54:24Z</time>
      </trkpt>
      <trkpt lat="45.880150459706783" lon="8.149924110621214">
        <ele>995.55999999999995</ele>
        <time>2025-01-05T15:54:34Z</time>
      </trkpt>
      <trkpt lat="45.880214245989919" lon="8.150079594925046">
        <ele>996.15999999999997</ele>
        <time>2025-01-05T15:54:45Z</time>
      </trkpt>
      <trkpt lat="45.88015322573483" lon="8.150257794186473">
        <ele>996.16999999999996</ele>
        <time>2025-01-05T15:54:59Z</time>
      </trkpt>
      <trkpt lat="45.88016546331346" lon="8.150431467220187">
        <ele>996.67999999999995</ele>
        <time>2025-01-05T15:55:12Z</time>
      </trkpt>
      <trkpt lat="45.880203684791923" lon="8.150586532428861">
        <ele>997.60000000000002</ele>
        <time>2025-01-05T15:55:26Z</time>
      </trkpt>
      <trkpt lat="45.880189184099436" lon="8.150814101099968">
        <ele>997.89999999999998</ele>
        <time>2025-01-05T15:55:41Z</time>
      </trkpt>
      <trkpt lat="45.880252467468381" lon="8.150984421372414">
        <ele>997.88</ele>
        <time>2025-01-05T15:55:55Z</time>
      </trkpt>
      <trkpt lat="45.880330251529813" lon="8.151099421083927">
        <ele>997.04999999999995</ele>
        <time>2025-01-05T15:56:05Z</time>
      </trkpt>
      <trkpt lat="45.88026856072247" lon="8.15123537555337">
        <ele>996.41999999999996</ele>
        <time>2025-01-05T15:56:18Z</time>
      </trkpt>
      <trkpt lat="45.880253473296762" lon="8.151399660855532">
        <ele>996.44000000000005</ele>
        <time>2025-01-05T15:56:30Z</time>
      </trkpt>
      <trkpt lat="45.880149872973561" lon="8.151536202058196">
        <ele>995.52999999999997</ele>
        <time>2025-01-05T15:56:44Z</time>
      </trkpt>
      <trkpt lat="45.880038980394602" lon="8.151697553694248">
        <ele>994.40999999999997</ele>
        <time>2025-01-05T15:56:55Z</time>
      </trkpt>
      <trkpt lat="45.879896068945527" lon="8.151770811527968">
        <ele>993.34000000000003</ele>
        <time>2025-01-05T15:57:06Z</time>
      </trkpt>
      <trkpt lat="45.879764975979924" lon="8.1518330052495">
        <ele>992.59000000000003</ele>
        <time>2025-01-05T15:57:15Z</time>
      </trkpt>
      <trkpt lat="45.879698088392615" lon="8.151968540623784">
        <ele>992</ele>
        <time>2025-01-05T15:57:24Z</time>
      </trkpt>
      <trkpt lat="45.879629775881767" lon="8.152092341333628">
        <ele>991.58000000000004</ele>
        <time>2025-01-05T15:57:33Z</time>
      </trkpt>
      <trkpt lat="45.879544951021671" lon="8.152221590280533">
        <ele>990.29999999999995</ele>
        <time>2025-01-05T15:57:42Z</time>
      </trkpt>
      <trkpt lat="45.879516201093793" lon="8.152352347970009">
        <ele>989.03999999999996</ele>
        <time>2025-01-05T15:57:51Z</time>
      </trkpt>
      <trkpt lat="45.87950530461967" lon="8.152459552511573">
        <ele>988.70000000000005</ele>
        <time>2025-01-05T15:57:59Z</time>
      </trkpt>
      <trkpt lat="45.879494408145547" lon="8.152607493102551">
        <ele>988.15999999999997</ele>
        <time>2025-01-05T15:58:08Z</time>
      </trkpt>
      <trkpt lat="45.879479069262743" lon="8.152732215821743">
        <ele>987.33000000000004</ele>
        <time>2025-01-05T15:58:17Z</time>
      </trkpt>
      <trkpt lat="45.879494743421674" lon="8.152866577729583">
        <ele>987.16999999999996</ele>
        <time>2025-01-05T15:58:26Z</time>
      </trkpt>
      <trkpt lat="45.879536401480436" lon="8.153004460036755">
        <ele>987.15999999999997</ele>
        <time>2025-01-05T15:58:36Z</time>
      </trkpt>
      <trkpt lat="45.879575125873089" lon="8.153132367879152">
        <ele>986.74000000000001</ele>
        <time>2025-01-05T15:58:45Z</time>
      </trkpt>
      <trkpt lat="45.879587950184941" lon="8.153255498036742">
        <ele>985.77999999999997</ele>
        <time>2025-01-05T15:58:55Z</time>
      </trkpt>
      <trkpt lat="45.879623489454389" lon="8.153393547981978">
        <ele>984.71000000000004</ele>
        <time>2025-01-05T15:59:03Z</time>
      </trkpt>
      <trkpt lat="45.879667578265071" lon="8.153541572391987">
        <ele>984.35000000000002</ele>
        <time>2025-01-05T15:59:13Z</time>
      </trkpt>
      <trkpt lat="45.879680067300797" lon="8.153698900714517">
        <ele>985.13</ele>
        <time>2025-01-05T15:59:24Z</time>
      </trkpt>
      <trkpt lat="45.879682749509811" lon="8.153835609555244">
        <ele>985.83000000000004</ele>
        <time>2025-01-05T15:59:33Z</time>
      </trkpt>
      <trkpt lat="45.879685431718826" lon="8.153969552367926">
        <ele>986.20000000000005</ele>
        <time>2025-01-05T15:59:44Z</time>
      </trkpt>
      <trkpt lat="45.879715690389276" lon="8.154099639505148">
        <ele>987.47000000000003</ele>
        <time>2025-01-05T15:59:54Z</time>
      </trkpt>
      <trkpt lat="45.879753995686769" lon="8.154225368052721">
        <ele>987.94000000000005</ele>
        <time>2025-01-05T16:00:03Z</time>
      </trkpt>
      <trkpt lat="45.879733376204967" lon="8.154379427433014">
        <ele>987.99000000000001</ele>
        <time>2025-01-05T16:00:14Z</time>
      </trkpt>
      <trkpt lat="45.879730526357889" lon="8.154525188729167">
        <ele>987.5</ele>
        <time>2025-01-05T16:00:24Z</time>
      </trkpt>
      <trkpt lat="45.879730191081762" lon="8.154651671648026">
        <ele>986.75</ele>
        <time>2025-01-05T16:00:33Z</time>
      </trkpt>
      <trkpt lat="45.879719043150544" lon="8.154785027727485">
        <ele>985.60000000000002</ele>
        <time>2025-01-05T16:00:43Z</time>
      </trkpt>
      <trkpt lat="45.879751229658723" lon="8.154928358271718">
        <ele>986.27999999999997</ele>
        <time>2025-01-05T16:00:53Z</time>
      </trkpt>
      <trkpt lat="45.879777884110808" lon="8.155048303306103">
        <ele>987.88999999999999</ele>
        <time>2025-01-05T16:01:04Z</time>
      </trkpt>
      <trkpt lat="45.879846196621656" lon="8.155144695192576">
        <ele>988.32000000000005</ele>
        <time>2025-01-05T16:01:14Z</time>
      </trkpt>
      <trkpt lat="45.879917442798615" lon="8.155234968289733">
        <ele>988.13999999999999</ele>
        <time>2025-01-05T16:01:22Z</time>
      </trkpt>
      <trkpt lat="45.87998173199594" lon="8.155338736250997">
        <ele>987.37</ele>
        <time>2025-01-05T16:01:30Z</time>
      </trkpt>
      <trkpt lat="45.880039483308792" lon="8.155456837266684">
        <ele>987.57000000000005</ele>
        <time>2025-01-05T16:01:39Z</time>
      </trkpt>
      <trkpt lat="45.880082566291094" lon="8.155577117577195">
        <ele>987.41999999999996</ele>
        <time>2025-01-05T16:01:48Z</time>
      </trkpt>
      <trkpt lat="45.880143502727151" lon="8.155681556090713">
        <ele>987.73000000000002</ele>
        <time>2025-01-05T16:01:58Z</time>
      </trkpt>
      <trkpt lat="45.88022505864501" lon="8.155729752033949">
        <ele>987.88999999999999</ele>
        <time>2025-01-05T16:02:08Z</time>
      </trkpt>
      <trkpt lat="45.880347853526473" lon="8.155756909400225">
        <ele>987.96000000000004</ele>
        <time>2025-01-05T16:02:19Z</time>
      </trkpt>
      <trkpt lat="45.880453800782561" lon="8.155791191384196">
        <ele>988.49000000000001</ele>
        <time>2025-01-05T16:02:28Z</time>
      </trkpt>
      <trkpt lat="45.880487998947501" lon="8.155915578827262">
        <ele>989.38</ele>
        <time>2025-01-05T16:02:37Z</time>
      </trkpt>
      <trkpt lat="45.880451705306768" lon="8.156055556610227">
        <ele>990.38</ele>
        <time>2025-01-05T16:02:46Z</time>
      </trkpt>
      <trkpt lat="45.880452040582895" lon="8.156205927953124">
        <ele>990.82000000000005</ele>
        <time>2025-01-05T16:02:56Z</time>
      </trkpt>
      <trkpt lat="45.880487076938152" lon="8.156332159414887">
        <ele>991.19000000000005</ele>
        <time>2025-01-05T16:03:05Z</time>
      </trkpt>
      <trkpt lat="45.880540804937482" lon="8.156433077529073">
        <ele>991.77999999999997</ele>
        <time>2025-01-05T16:03:13Z</time>
      </trkpt>
      <trkpt lat="45.880598053336143" lon="8.156547909602523">
        <ele>992.88</ele>
        <time>2025-01-05T16:03:23Z</time>
      </trkpt>
      <trkpt lat="45.880643986165524" lon="8.156656706705689">
        <ele>993.49000000000001</ele>
        <time>2025-01-05T16:03:32Z</time>
      </trkpt>
      <trkpt lat="45.880695031955838" lon="8.156774807721376">
        <ele>994.10000000000002</ele>
        <time>2025-01-05T16:03:41Z</time>
      </trkpt>
      <trkpt lat="45.88075035251677" lon="8.156898273155093">
        <ele>994.75999999999999</ele>
        <time>2025-01-05T16:03:50Z</time>
      </trkpt>
      <trkpt lat="45.880803661420941" lon="8.15701293759048">
        <ele>995.24000000000001</ele>
        <time>2025-01-05T16:03:59Z</time>
      </trkpt>
      <trkpt lat="45.880857892334461" lon="8.157121064141393">
        <ele>995.86000000000001</ele>
        <time>2025-01-05T16:04:07Z</time>
      </trkpt>
      <trkpt lat="45.880913631990552" lon="8.15723036415875">
        <ele>996.58000000000004</ele>
        <time>2025-01-05T16:04:15Z</time>
      </trkpt>
      <trkpt lat="45.880983956158161" lon="8.157353745773435">
        <ele>997.09000000000003</ele>
        <time>2025-01-05T16:04:24Z</time>
      </trkpt>
      <trkpt lat="45.881045898422599" lon="8.157456675544381">
        <ele>997.51999999999998</ele>
        <time>2025-01-05T16:04:32Z</time>
      </trkpt>
      <trkpt lat="45.881121084094048" lon="8.157547619193792">
        <ele>998.21000000000004</ele>
        <time>2025-01-05T16:04:40Z</time>
      </trkpt>
      <trkpt lat="45.881220074370503" lon="8.157612830400467">
        <ele>999.15999999999997</ele>
        <time>2025-01-05T16:04:49Z</time>
      </trkpt>
      <trkpt lat="45.881305066868663" lon="8.157703774049878">
        <ele>1000.83</ele>
        <time>2025-01-05T16:04:59Z</time>
      </trkpt>
      <trkpt lat="45.881335409358144" lon="8.157843584194779">
        <ele>1001.0599999999999</ele>
        <time>2025-01-05T16:05:10Z</time>
      </trkpt>
      <trkpt lat="45.881346724927425" lon="8.157992865890265">
        <ele>1000.89</ele>
        <time>2025-01-05T16:05:19Z</time>
      </trkpt>
      <trkpt lat="45.881385952234268" lon="8.158139884471893">
        <ele>1000.91</ele>
        <time>2025-01-05T16:05:27Z</time>
      </trkpt>
      <trkpt lat="45.881414618343115" lon="8.158307773992419">
        <ele>1000.6900000000001</ele>
        <time>2025-01-05T16:05:37Z</time>
      </trkpt>
      <trkpt lat="45.881437920033932" lon="8.158429898321629">
        <ele>1000.65</ele>
        <time>2025-01-05T16:05:45Z</time>
      </trkpt>
      <trkpt lat="45.881492989137769" lon="8.158560153096914">
        <ele>1000.39</ele>
        <time>2025-01-05T16:05:53Z</time>
      </trkpt>
      <trkpt lat="45.881564486771822" lon="8.158667692914605">
        <ele>999.71000000000004</ele>
        <time>2025-01-05T16:06:01Z</time>
      </trkpt>
      <trkpt lat="45.881659705191851" lon="8.158734496682882">
        <ele>998.60000000000002</ele>
        <time>2025-01-05T16:06:08Z</time>
      </trkpt>
      <trkpt lat="45.881726844236255" lon="8.158833989873529">
        <ele>997.57000000000005</ele>
        <time>2025-01-05T16:06:16Z</time>
      </trkpt>
      <trkpt lat="45.881789205595851" lon="8.15893616527319">
        <ele>996.92999999999995</ele>
        <time>2025-01-05T16:06:24Z</time>
      </trkpt>
      <trkpt lat="45.88185366243124" lon="8.159047644585371">
        <ele>996.32000000000005</ele>
        <time>2025-01-05T16:06:32Z</time>
      </trkpt>
      <trkpt lat="45.881852572783828" lon="8.159162392839789">
        <ele>996.11000000000001</ele>
        <time>2025-01-05T16:06:39Z</time>
      </trkpt>
      <trkpt lat="45.881828432902694" lon="8.159318044781685">
        <ele>995.60000000000002</ele>
        <time>2025-01-05T16:06:47Z</time>
      </trkpt>
      <trkpt lat="45.88185123167932" lon="8.159423908218741">
        <ele>995.47000000000003</ele>
        <time>2025-01-05T16:07:00Z</time>
      </trkpt>
      <trkpt lat="45.881885346025229" lon="8.159563047811389">
        <ele>995.42999999999995</ele>
        <time>2025-01-05T16:07:09Z</time>
      </trkpt>
      <trkpt lat="45.881943348795176" lon="8.159677796065807">
        <ele>995.63</ele>
        <time>2025-01-05T16:07:17Z</time>
      </trkpt>
      <trkpt lat="45.882006967440248" lon="8.159755663946271">
        <ele>995.19000000000005</ele>
        <time>2025-01-05T16:07:24Z</time>
      </trkpt>
      <trkpt lat="45.882085505872965" lon="8.159826658666134">
        <ele>993.74000000000001</ele>
        <time>2025-01-05T16:07:32Z</time>
      </trkpt>
      <trkpt lat="45.882183574140072" lon="8.159862784668803">
        <ele>992.22000000000003</ele>
        <time>2025-01-05T16:07:41Z</time>
      </trkpt>
      <trkpt lat="45.88227435015142" lon="8.15990368835628">
        <ele>990.75</ele>
        <time>2025-01-05T16:07:49Z</time>
      </trkpt>
      <trkpt lat="45.882336208596826" lon="8.16001407802105">
        <ele>989.32000000000005</ele>
        <time>2025-01-05T16:07:57Z</time>
      </trkpt>
      <trkpt lat="45.882375435903668" lon="8.160137040540576">
        <ele>988.12</ele>
        <time>2025-01-05T16:08:05Z</time>
      </trkpt>
      <trkpt lat="45.882418602705002" lon="8.16026478074491">
        <ele>986.96000000000004</ele>
        <time>2025-01-05T16:08:13Z</time>
      </trkpt>
      <trkpt lat="45.882447939366102" lon="8.160403501242399">
        <ele>985.66999999999996</ele>
        <time>2025-01-05T16:08:21Z</time>
      </trkpt>
      <trkpt lat="45.882453052327037" lon="8.160540377721191">
        <ele>984.92999999999995</ele>
        <time>2025-01-05T16:08:29Z</time>
      </trkpt>
      <trkpt lat="45.882439808920026" lon="8.160679768770933">
        <ele>984.45000000000005</ele>
        <time>2025-01-05T16:08:37Z</time>
      </trkpt>
      <trkpt lat="45.882441150024533" lon="8.160826116800308">
        <ele>983.44000000000005</ele>
        <time>2025-01-05T16:08:45Z</time>
      </trkpt>
      <trkpt lat="45.882487501949072" lon="8.160957293584943">
        <ele>982.94000000000005</ele>
        <time>2025-01-05T16:09:05Z</time>
      </trkpt>
      <trkpt lat="45.882564866915345" lon="8.161056116223335">
        <ele>981.62</ele>
        <time>2025-01-05T16:09:13Z</time>
      </trkpt>
      <trkpt lat="45.882641393691301" lon="8.161164745688438">
        <ele>980.44000000000005</ele>
        <time>2025-01-05T16:09:21Z</time>
      </trkpt>
      <trkpt lat="45.882703587412834" lon="8.161280918866396">
        <ele>979.37</ele>
        <time>2025-01-05T16:09:29Z</time>
      </trkpt>
      <trkpt lat="45.882747089490294" lon="8.161399438977242">
        <ele>978.58000000000004</ele>
        <time>2025-01-05T16:09:37Z</time>
      </trkpt>
      <trkpt lat="45.882821436971426" lon="8.161501698195934">
        <ele>978.32000000000005</ele>
        <time>2025-01-05T16:09:45Z</time>
      </trkpt>
      <trkpt lat="45.882891844958067" lon="8.161606220528483">
        <ele>978.29999999999995</ele>
        <time>2025-01-05T16:09:53Z</time>
      </trkpt>
      <trkpt lat="45.882941298186779" lon="8.161741252988577">
        <ele>978.64999999999998</ele>
        <time>2025-01-05T16:10:01Z</time>
      </trkpt>
      <trkpt lat="45.882995948195457" lon="8.161860108375549">
        <ele>978.12</ele>
        <time>2025-01-05T16:10:09Z</time>
      </trkpt>
      <trkpt lat="45.883052190765738" lon="8.161970917135477">
        <ele>977.78999999999996</ele>
        <time>2025-01-05T16:10:16Z</time>
      </trkpt>
      <trkpt lat="45.883141793310642" lon="8.162035960704088">
        <ele>976.95000000000005</ele>
        <time>2025-01-05T16:10:23Z</time>
      </trkpt>
      <trkpt lat="45.883236173540354" lon="8.162065884098411">
        <ele>976.72000000000003</ele>
        <time>2025-01-05T16:10:32Z</time>
      </trkpt>
      <trkpt lat="45.883290320634842" lon="8.162027830258012">
        <ele>976.58000000000004</ele>
        <time>2025-01-05T16:10:45Z</time>
      </trkpt>
      <trkpt lat="45.883307671174407" lon="8.162058005109429">
        <ele>976.71000000000004</ele>
        <time>2025-01-05T16:11:13Z</time>
      </trkpt>
      <trkpt lat="45.883341366425157" lon="8.161988267675042">
        <ele>976.07000000000005</ele>
        <time>2025-01-05T16:11:30Z</time>
      </trkpt>
      <trkpt lat="45.883397860452533" lon="8.161889109760523">
        <ele>975.15999999999997</ele>
        <time>2025-01-05T16:11:41Z</time>
      </trkpt>
      <trkpt lat="45.883462401106954" lon="8.161800177767873">
        <ele>974.29999999999995</ele>
        <time>2025-01-05T16:11:50Z</time>
      </trkpt>
      <trkpt lat="45.883522583171725" lon="8.161699762567878">
        <ele>973.40999999999997</ele>
        <time>2025-01-05T16:12:00Z</time>
      </trkpt>
      <trkpt lat="45.883569605648518" lon="8.161614267155528">
        <ele>972.38999999999999</ele>
        <time>2025-01-05T16:12:16Z</time>
      </trkpt>
    </trkseg>
  </trk>

</gpx>